<?xml version="1.0" encoding="UTF-8" standalone="no" ?><gpx xmlns="http://www.topografix.com/GPX/1/1" xmlns:gpxx="http://www.garmin.com/xmlschemas/GpxExtensions/v3" xmlns:wptx1="http://www.garmin.com/xmlschemas/WaypointExtension/v1" xmlns:gpxtpx="http://www.garmin.com/xmlschemas/TrackPointExtension/v1" creator="GuideVTT.com" version="1.1" xmlns:xsi="http://www.w3.org/2001/XMLSchema-instance" xsi:schemaLocation="http://www.topografix.com/GPX/1/1 http://www.topografix.com/GPX/1/1/gpx.xsd http://www.garmin.com/xmlschemas/GpxExtensions/v3 http://www8.garmin.com/xmlschemas/GpxExtensionsv3.xsd http://www.garmin.com/xmlschemas/WaypointExtension/v1 http://www8.garmin.com/xmlschemas/WaypointExtensionv1.xsd http://www.garmin.com/xmlschemas/TrackPointExtension/v1 http://www.garmin.com/xmlschemas/TrackPointExtensionv1.xsd">
<metadata><link href="http://www.garmin.com"><text>Garmin International</text></link><time>2013-06-22T15:13:50Z</time></metadata>
<trk><name>maggia-collinasca(ti)06.04.2015.gpx</name><extensions><gpxx:TrackExtension><gpxx:DisplayColor>Cyan</gpxx:DisplayColor></gpxx:TrackExtension></extensions><trkseg>
<trkpt lat="46.245702942833304" lon="8.706938959658146"><ele></ele><time>2015-4-13T0:49:50Z</time></trkpt>
<trkpt lat="46.24579698778689" lon="8.706768974661827"><ele></ele><time>2015-4-13T0:49:53Z</time></trkpt>
<trkpt lat="46.2459759414196" lon="8.706545932218432"><ele></ele><time>2015-4-13T0:49:56Z</time></trkpt>
<trkpt lat="46.24623293057084" lon="8.706272933632135"><ele></ele><time>2015-4-13T0:49:59Z</time></trkpt>
<trkpt lat="46.24631197191775" lon="8.706190958619118"><ele></ele><time>2015-4-13T0:50:2Z</time></trkpt>
<trkpt lat="46.246411968022585" lon="8.706078976392746"><ele></ele><time>2015-4-13T0:50:5Z</time></trkpt>
<trkpt lat="46.2463369499892" lon="8.705889964476228"><ele></ele><time>2015-4-13T0:50:8Z</time></trkpt>
<trkpt lat="46.24619998969138" lon="8.705826932564378"><ele></ele><time>2015-4-13T0:50:11Z</time></trkpt>
<trkpt lat="46.24598599970341" lon="8.705749986693263"><ele></ele><time>2015-4-13T0:50:14Z</time></trkpt>
<trkpt lat="46.24590796418488" lon="8.705415967851877"><ele></ele><time>2015-4-13T0:50:17Z</time></trkpt>
<trkpt lat="46.245811991393566" lon="8.705269955098629"><ele></ele><time>2015-4-13T0:50:20Z</time></trkpt>
<trkpt lat="46.245767986401916" lon="8.705392917618155"><ele></ele><time>2015-4-13T0:50:23Z</time></trkpt>
<trkpt lat="46.245573945343494" lon="8.705951990559697"><ele></ele><time>2015-4-13T0:50:26Z</time></trkpt>
<trkpt lat="46.2454819958657" lon="8.706220965832472"><ele></ele><time>2015-4-13T0:50:29Z</time></trkpt>
<trkpt lat="46.24544293619692" lon="8.706334959715605"><ele></ele><time>2015-4-13T0:50:32Z</time></trkpt>
<trkpt lat="46.245379988104105" lon="8.706473931670189"><ele></ele><time>2015-4-13T0:50:35Z</time></trkpt>
<trkpt lat="46.24528292566538" lon="8.706500921398401"><ele></ele><time>2015-4-13T0:50:38Z</time></trkpt>
<trkpt lat="46.24525694176555" lon="8.706490946933627"><ele></ele><time>2015-4-13T0:50:41Z</time></trkpt>
<trkpt lat="46.24492493458092" lon="8.706361949443817"><ele></ele><time>2015-4-13T0:50:44Z</time></trkpt>
<trkpt lat="46.24450298957527" lon="8.706199927255511"><ele></ele><time>2015-4-13T0:50:47Z</time></trkpt>
<trkpt lat="46.244113985449076" lon="8.706032959744334"><ele></ele><time>2015-4-13T0:50:50Z</time></trkpt>
<trkpt lat="46.24390795826912" lon="8.705943943932652"><ele></ele><time>2015-4-13T0:50:53Z</time></trkpt>
<trkpt lat="46.24380293302238" lon="8.70589792728424"><ele></ele><time>2015-4-13T0:50:56Z</time></trkpt>
<trkpt lat="46.24369799159467" lon="8.70585291646421"><ele></ele><time>2015-4-13T0:50:59Z</time></trkpt>
<trkpt lat="46.24358793720603" lon="8.705804971978068"><ele></ele><time>2015-4-13T0:51:2Z</time></trkpt>
<trkpt lat="46.24343798495829" lon="8.705712938681245"><ele></ele><time>2015-4-13T0:51:5Z</time></trkpt>
<trkpt lat="46.24307496473193" lon="8.705398952588439"><ele></ele><time>2015-4-13T0:51:8Z</time></trkpt>
<trkpt lat="46.24294797889888" lon="8.70529593899846"><ele></ele><time>2015-4-13T0:51:11Z</time></trkpt>
<trkpt lat="46.242850916460156" lon="8.705215975642204"><ele></ele><time>2015-4-13T0:51:14Z</time></trkpt>
<trkpt lat="46.24277195893228" lon="8.705148920416832"><ele></ele><time>2015-4-13T0:51:17Z</time></trkpt>
<trkpt lat="46.24269291758537" lon="8.705069962888956"><ele></ele><time>2015-4-13T0:51:20Z</time></trkpt>
<trkpt lat="46.24273298308253" lon="8.704878939315677"><ele></ele><time>2015-4-13T0:51:23Z</time></trkpt>
<trkpt lat="46.24280699528754" lon="8.70462697930634"><ele></ele><time>2015-4-13T0:51:26Z</time></trkpt>
<trkpt lat="46.242864998057485" lon="8.704425981268287"><ele></ele><time>2015-4-13T0:51:29Z</time></trkpt>
<trkpt lat="46.2429229170084" lon="8.704223977401853"><ele></ele><time>2015-4-13T0:51:32Z</time></trkpt>
<trkpt lat="46.24298192560673" lon="8.704011999070644"><ele></ele><time>2015-4-13T0:51:35Z</time></trkpt>
<trkpt lat="46.243017967790365" lon="8.7038519885391"><ele></ele><time>2015-4-13T0:51:38Z</time></trkpt>
<trkpt lat="46.24305392615497" lon="8.703686948865652"><ele></ele><time>2015-4-13T0:51:41Z</time></trkpt>
<trkpt lat="46.24310094863176" lon="8.703482933342457"><ele></ele><time>2015-4-13T0:51:44Z</time></trkpt>
<trkpt lat="46.24314093030989" lon="8.7033149600029"><ele></ele><time>2015-4-13T0:51:47Z</time></trkpt>
<trkpt lat="46.24318594112992" lon="8.703121924772859"><ele></ele><time>2015-4-13T0:51:50Z</time></trkpt>
<trkpt lat="46.243231957778335" lon="8.702933918684721"><ele></ele><time>2015-4-13T0:51:53Z</time></trkpt>
<trkpt lat="46.243295995518565" lon="8.702704925090075"><ele></ele><time>2015-4-13T0:51:56Z</time></trkpt>
<trkpt lat="46.243384927511215" lon="8.702441984787583"><ele></ele><time>2015-4-13T0:51:59Z</time></trkpt>
<trkpt lat="46.243513925001025" lon="8.702242998406291"><ele></ele><time>2015-4-13T0:52:2Z</time></trkpt>
<trkpt lat="46.243621967732906" lon="8.702055998146534"><ele></ele><time>2015-4-13T0:52:5Z</time></trkpt>
<trkpt lat="46.24369698576629" lon="8.701926916837692"><ele></ele><time>2015-4-13T0:52:8Z</time></trkpt>
<trkpt lat="46.24374199658632" lon="8.701848965138197"><ele></ele><time>2015-4-13T0:52:11Z</time></trkpt>
<trkpt lat="46.24384098686278" lon="8.701676968485117"><ele></ele><time>2015-4-13T0:52:14Z</time></trkpt>
<trkpt lat="46.243941988795996" lon="8.701502960175276"><ele></ele><time>2015-4-13T0:52:17Z</time></trkpt>
<trkpt lat="46.244049947708845" lon="8.701321994885802"><ele></ele><time>2015-4-13T0:52:20Z</time></trkpt>
<trkpt lat="46.24418397434056" lon="8.701114961877465"><ele></ele><time>2015-4-13T0:52:23Z</time></trkpt>
<trkpt lat="46.24430391937494" lon="8.700942965224385"><ele></ele><time>2015-4-13T0:52:26Z</time></trkpt>
<trkpt lat="46.244369968771935" lon="8.700795946642756"><ele></ele><time>2015-4-13T0:52:29Z</time></trkpt>
<trkpt lat="46.24440198764205" lon="8.70067197829485"><ele></ele><time>2015-4-13T0:52:32Z</time></trkpt>
<trkpt lat="46.24442897737026" lon="8.70050199329853"><ele></ele><time>2015-4-13T0:52:35Z</time></trkpt>
<trkpt lat="46.24443291686475" lon="8.700296971946955"><ele></ele><time>2015-4-13T0:52:38Z</time></trkpt>
<trkpt lat="46.24442093074322" lon="8.700043922290206"><ele></ele><time>2015-4-13T0:52:41Z</time></trkpt>
<trkpt lat="46.244412967935205" lon="8.69985893368721"><ele></ele><time>2015-4-13T0:52:44Z</time></trkpt>
<trkpt lat="46.24440299347043" lon="8.699638992547989"><ele></ele><time>2015-4-13T0:52:47Z</time></trkpt>
<trkpt lat="46.24440098181367" lon="8.699413938447833"><ele></ele><time>2015-4-13T0:52:50Z</time></trkpt>
<trkpt lat="46.244431994855404" lon="8.699166923761368"><ele></ele><time>2015-4-13T0:52:53Z</time></trkpt>
<trkpt lat="46.24454598873854" lon="8.698832988739014"><ele></ele><time>2015-4-13T0:52:56Z</time></trkpt>
<trkpt lat="46.24462494626641" lon="8.698639953508973"><ele></ele><time>2015-4-13T0:52:59Z</time></trkpt>
<trkpt lat="46.24480498954654" lon="8.698414983227849"><ele></ele><time>2015-4-13T0:53:2Z</time></trkpt>
<trkpt lat="46.244947984814644" lon="8.698254972696304"><ele></ele><time>2015-4-13T0:53:5Z</time></trkpt>
<trkpt lat="46.245076982304454" lon="8.698047939687967"><ele></ele><time>2015-4-13T0:53:8Z</time></trkpt>
<trkpt lat="46.24520195648074" lon="8.697829926386476"><ele></ele><time>2015-4-13T0:53:11Z</time></trkpt>
<trkpt lat="46.24531293287873" lon="8.697633957490325"><ele></ele><time>2015-4-13T0:53:14Z</time></trkpt>
<trkpt lat="46.245425920933485" lon="8.697398928925395"><ele></ele><time>2015-4-13T0:53:17Z</time></trkpt>
<trkpt lat="46.24552097171545" lon="8.697145963087678"><ele></ele><time>2015-4-13T0:53:20Z</time></trkpt>
<trkpt lat="46.245618956163526" lon="8.696777997538447"><ele></ele><time>2015-4-13T0:53:23Z</time></trkpt>
<trkpt lat="46.24577896669507" lon="8.69658898562193"><ele></ele><time>2015-4-13T0:53:26Z</time></trkpt>
<trkpt lat="46.24601692892611" lon="8.696470968425274"><ele></ele><time>2015-4-13T0:53:29Z</time></trkpt>
<trkpt lat="46.24629495665431" lon="8.696348927915096"><ele></ele><time>2015-4-13T0:53:32Z</time></trkpt>
<trkpt lat="46.24657792970538" lon="8.696212973445654"><ele></ele><time>2015-4-13T0:53:35Z</time></trkpt>
<trkpt lat="46.24667792581022" lon="8.696142984554172"><ele></ele><time>2015-4-13T0:53:38Z</time></trkpt>
<trkpt lat="46.24679292552173" lon="8.696004934608936"><ele></ele><time>2015-4-13T0:53:41Z</time></trkpt>
<trkpt lat="46.24699694104493" lon="8.69562498293817"><ele></ele><time>2015-4-13T0:53:44Z</time></trkpt>
<trkpt lat="46.24719894491136" lon="8.695212928578258"><ele></ele><time>2015-4-13T0:53:47Z</time></trkpt>
<trkpt lat="46.24743095599115" lon="8.694702973589301"><ele></ele><time>2015-4-13T0:53:50Z</time></trkpt>
<trkpt lat="46.24752198345959" lon="8.69431396946311"><ele></ele><time>2015-4-13T0:53:53Z</time></trkpt>
<trkpt lat="46.24764293432236" lon="8.69390795007348"><ele></ele><time>2015-4-13T0:53:56Z</time></trkpt>
<trkpt lat="46.24767495319247" lon="8.693860927596688"><ele></ele><time>2015-4-13T0:53:59Z</time></trkpt>
<trkpt lat="46.24798499979079" lon="8.693406963720918"><ele></ele><time>2015-4-13T0:54:2Z</time></trkpt>
<trkpt lat="46.24812296591699" lon="8.692923998460174"><ele></ele><time>2015-4-13T0:54:5Z</time></trkpt>
<trkpt lat="46.24824391677976" lon="8.69248696602881"><ele></ele><time>2015-4-13T0:54:8Z</time></trkpt>
<trkpt lat="46.248348942026496" lon="8.69223391637206"><ele></ele><time>2015-4-13T0:54:11Z</time></trkpt>
<trkpt lat="46.24863099306822" lon="8.69186695665121"><ele></ele><time>2015-4-13T0:54:14Z</time></trkpt>
<trkpt lat="46.24890097416937" lon="8.691536961123347"><ele></ele><time>2015-4-13T0:54:17Z</time></trkpt>
<trkpt lat="46.24900197610259" lon="8.691254993900657"><ele></ele><time>2015-4-13T0:54:20Z</time></trkpt>
<trkpt lat="46.249010944738984" lon="8.69117897003889"><ele></ele><time>2015-4-13T0:54:23Z</time></trkpt>
<trkpt lat="46.24908395111561" lon="8.690500957891345"><ele></ele><time>2015-4-13T0:54:26Z</time></trkpt>
<trkpt lat="46.24925795942545" lon="8.69021094404161"><ele></ele><time>2015-4-13T0:54:29Z</time></trkpt>
<trkpt lat="46.249491982162" lon="8.689826969057322"><ele></ele><time>2015-4-13T0:54:32Z</time></trkpt>
<trkpt lat="46.24950195662677" lon="8.689731918275356"><ele></ele><time>2015-4-13T0:54:35Z</time></trkpt>
<trkpt lat="46.24949097633362" lon="8.689431929960847"><ele></ele><time>2015-4-13T0:54:38Z</time></trkpt>
<trkpt lat="46.24948091804981" lon="8.688992969691753"><ele></ele><time>2015-4-13T0:54:41Z</time></trkpt>
<trkpt lat="46.249698931351304" lon="8.688639923930168"><ele></ele><time>2015-4-13T0:54:44Z</time></trkpt>
<trkpt lat="46.24992096796632" lon="8.688636990264058"><ele></ele><time>2015-4-13T0:54:47Z</time></trkpt>
<trkpt lat="46.25020394101739" lon="8.68874997831881"><ele></ele><time>2015-4-13T0:54:50Z</time></trkpt>
<trkpt lat="46.250260937958956" lon="8.688696920871735"><ele></ele><time>2015-4-13T0:54:53Z</time></trkpt>
<trkpt lat="46.25046193599701" lon="8.688481925055385"><ele></ele><time>2015-4-13T0:54:56Z</time></trkpt>
<trkpt lat="46.25083099119365" lon="8.688259972259402"><ele></ele><time>2015-4-13T0:54:59Z</time></trkpt>
<trkpt lat="46.25144999474287" lon="8.688049921765924"><ele></ele><time>2015-4-13T0:55:2Z</time></trkpt>
<trkpt lat="46.25181091949344" lon="8.68778396397829"><ele></ele><time>2015-4-13T0:55:5Z</time></trkpt>
<trkpt lat="46.25196296721697" lon="8.687585983425379"><ele></ele><time>2015-4-13T0:55:8Z</time></trkpt>
<trkpt lat="46.25235197134316" lon="8.687465954571962"><ele></ele><time>2015-4-13T0:55:11Z</time></trkpt>
<trkpt lat="46.25244693830609" lon="8.687440976500511"><ele></ele><time>2015-4-13T0:55:14Z</time></trkpt>
<trkpt lat="46.252748938277364" lon="8.687191950157285"><ele></ele><time>2015-4-13T0:55:17Z</time></trkpt>
<trkpt lat="46.25321597792208" lon="8.687005955725908"><ele></ele><time>2015-4-13T0:55:20Z</time></trkpt>
<trkpt lat="46.2537089176476" lon="8.686811998486519"><ele></ele><time>2015-4-13T0:55:23Z</time></trkpt>
<trkpt lat="46.25412994064391" lon="8.68660295382142"><ele></ele><time>2015-4-13T0:55:26Z</time></trkpt>
<trkpt lat="46.25449597835541" lon="8.68647395633161"><ele></ele><time>2015-4-13T0:55:29Z</time></trkpt>
<trkpt lat="46.25458097085357" lon="8.686478985473514"><ele></ele><time>2015-4-13T0:55:32Z</time></trkpt>
<trkpt lat="46.25492697581649" lon="8.686486948281527"><ele></ele><time>2015-4-13T0:55:35Z</time></trkpt>
<trkpt lat="46.255433997139335" lon="8.686375971883535"><ele></ele><time>2015-4-13T0:55:38Z</time></trkpt>
<trkpt lat="46.255846973508596" lon="8.686131974682212"><ele></ele><time>2015-4-13T0:55:41Z</time></trkpt>
<trkpt lat="46.25595895573497" lon="8.686014963313937"><ele></ele><time>2015-4-13T0:55:44Z</time></trkpt>
<trkpt lat="46.25627797096968" lon="8.685662923380733"><ele></ele><time>2015-4-13T0:55:47Z</time></trkpt>
<trkpt lat="46.256402945145965" lon="8.68556896224618"><ele></ele><time>2015-4-13T0:55:50Z</time></trkpt>
<trkpt lat="46.25671894289553" lon="8.68550794199109"><ele></ele><time>2015-4-13T0:55:53Z</time></trkpt>
<trkpt lat="46.25750893726945" lon="8.685663929209113"><ele></ele><time>2015-4-13T0:55:56Z</time></trkpt>
<trkpt lat="46.25779299996793" lon="8.685729978606105"><ele></ele><time>2015-4-13T0:55:59Z</time></trkpt>
<trkpt lat="46.25789199024439" lon="8.685743976384401"><ele></ele><time>2015-4-13T0:56:2Z</time></trkpt>
<trkpt lat="46.25788997858763" lon="8.685648925602436"><ele></ele><time>2015-4-13T0:56:5Z</time></trkpt>
<trkpt lat="46.257885955274105" lon="8.685457985848188"><ele></ele><time>2015-4-13T0:56:8Z</time></trkpt>
<trkpt lat="46.2578809261322" lon="8.685235949233174"><ele></ele><time>2015-4-13T0:56:11Z</time></trkpt>
<trkpt lat="46.25787497498095" lon="8.684995975345373"><ele></ele><time>2015-4-13T0:56:14Z</time></trkpt>
<trkpt lat="46.25787396915257" lon="8.684945935383439"><ele></ele><time>2015-4-13T0:56:17Z</time></trkpt>
<trkpt lat="46.25787195749581" lon="8.684867983683944"><ele></ele><time>2015-4-13T0:56:20Z</time></trkpt>
<trkpt lat="46.25798494555056" lon="8.684900924563408"><ele></ele><time>2015-4-13T0:56:23Z</time></trkpt>
<trkpt lat="46.25813196413219" lon="8.685028916224837"><ele></ele><time>2015-4-13T0:56:26Z</time></trkpt>
<trkpt lat="46.25817999243736" lon="8.685069987550378"><ele></ele><time>2015-4-13T0:56:29Z</time></trkpt>
<trkpt lat="46.25856396742165" lon="8.685340974479914"><ele></ele><time>2015-4-13T0:56:32Z</time></trkpt>
<trkpt lat="46.25881492160261" lon="8.685485981404781"><ele></ele><time>2015-4-13T0:56:35Z</time></trkpt>
<trkpt lat="46.25915992073715" lon="8.68569997139275"><ele></ele><time>2015-4-13T0:56:38Z</time></trkpt>
<trkpt lat="46.25946996733546" lon="8.68589099496603"><ele></ele><time>2015-4-13T0:56:41Z</time></trkpt>
<trkpt lat="46.25950994901359" lon="8.685915973037481"><ele></ele><time>2015-4-13T0:56:44Z</time></trkpt>
<trkpt lat="46.25984899699688" lon="8.686002977192402"><ele></ele><time>2015-4-13T0:56:47Z</time></trkpt>
<trkpt lat="46.260141944512725" lon="8.686075983569026"><ele></ele><time>2015-4-13T0:56:50Z</time></trkpt>
<trkpt lat="46.26037294976413" lon="8.686253931373358"><ele></ele><time>2015-4-13T0:56:53Z</time></trkpt>
<trkpt lat="46.260592974722385" lon="8.686624998226762"><ele></ele><time>2015-4-13T0:56:56Z</time></trkpt>
<trkpt lat="46.26079799607396" lon="8.686982989311218"><ele></ele><time>2015-4-13T0:56:59Z</time></trkpt>
<trkpt lat="46.260916935279965" lon="8.687190944328904"><ele></ele><time>2015-4-13T0:57:2Z</time></trkpt>
<trkpt lat="46.26105791889131" lon="8.687206953763962"><ele></ele><time>2015-4-13T0:57:5Z</time></trkpt>
<trkpt lat="46.261366959661245" lon="8.687016936019063"><ele></ele><time>2015-4-13T0:57:8Z</time></trkpt>
<trkpt lat="46.261645993217826" lon="8.686854997649789"><ele></ele><time>2015-4-13T0:57:11Z</time></trkpt>
<trkpt lat="46.26175898127258" lon="8.686974942684174"><ele></ele><time>2015-4-13T0:57:14Z</time></trkpt>
<trkpt lat="46.26176099292934" lon="8.68709396570921"><ele></ele><time>2015-4-13T0:57:17Z</time></trkpt>
<trkpt lat="46.26177096739411" lon="8.68758698925376"><ele></ele><time>2015-4-13T0:57:20Z</time></trkpt>
<trkpt lat="46.261797957122326" lon="8.687957972288132"><ele></ele><time>2015-4-13T0:57:23Z</time></trkpt>
<trkpt lat="46.26183592714369" lon="8.68814799003303"><ele></ele><time>2015-4-13T0:57:26Z</time></trkpt>
<trkpt lat="46.262135999277234" lon="8.68810499086976"><ele></ele><time>2015-4-13T0:57:29Z</time></trkpt>
<trkpt lat="46.26221998594701" lon="8.688079928979278"><ele></ele><time>2015-4-13T0:57:32Z</time></trkpt>
<trkpt lat="46.262506982311606" lon="8.687971970066428"><ele></ele><time>2015-4-13T0:57:35Z</time></trkpt>
<trkpt lat="46.262611923739314" lon="8.68789292871952"><ele></ele><time>2015-4-13T0:57:38Z</time></trkpt>
<trkpt lat="46.26290193758905" lon="8.687615990638733"><ele></ele><time>2015-4-13T0:57:41Z</time></trkpt>
<trkpt lat="46.262978967279196" lon="8.687540972605348"><ele></ele><time>2015-4-13T0:57:44Z</time></trkpt>
<trkpt lat="46.26320092007518" lon="8.687280965968966"><ele></ele><time>2015-4-13T0:57:47Z</time></trkpt>
<trkpt lat="46.263409964740276" lon="8.686934961006045"><ele></ele><time>2015-4-13T0:57:50Z</time></trkpt>
<trkpt lat="46.263427985832095" lon="8.68688098154962"><ele></ele><time>2015-4-13T0:57:53Z</time></trkpt>
<trkpt lat="46.263427985832095" lon="8.68688098154962"><ele></ele><time>2015-4-13T0:57:56Z</time></trkpt>
<trkpt lat="46.263427985832095" lon="8.68688098154962"><ele></ele><time>2015-4-13T0:57:59Z</time></trkpt>
<trkpt lat="46.263427985832095" lon="8.68688098154962"><ele></ele><time>2015-4-13T0:58:2Z</time></trkpt>
<trkpt lat="46.263945987448096" lon="8.685431918129325"><ele></ele><time>2015-4-13T0:58:5Z</time></trkpt>
<trkpt lat="46.263991920277476" lon="8.685407945886254"><ele></ele><time>2015-4-13T0:58:8Z</time></trkpt>
<trkpt lat="46.264116978272796" lon="8.685341980308294"><ele></ele><time>2015-4-13T0:58:11Z</time></trkpt>
<trkpt lat="46.26420699991286" lon="8.685281965881586"><ele></ele><time>2015-4-13T0:58:14Z</time></trkpt>
<trkpt lat="46.26433599740267" lon="8.685208959504962"><ele></ele><time>2015-4-13T0:58:17Z</time></trkpt>
<trkpt lat="46.26446792855859" lon="8.685156991705298"><ele></ele><time>2015-4-13T0:58:20Z</time></trkpt>
<trkpt lat="46.26462693326175" lon="8.685064958408475"><ele></ele><time>2015-4-13T0:58:23Z</time></trkpt>
<trkpt lat="46.264653922989964" lon="8.685047943145037"><ele></ele><time>2015-4-13T0:58:26Z</time></trkpt>
<trkpt lat="46.26475098542869" lon="8.68496898561716"><ele></ele><time>2015-4-13T0:58:29Z</time></trkpt>
<trkpt lat="46.26488098874688" lon="8.684694981202483"><ele></ele><time>2015-4-13T0:58:32Z</time></trkpt>
<trkpt lat="46.26435091719031" lon="8.683919990435243"><ele></ele><time>2015-4-13T0:58:35Z</time></trkpt>
<trkpt lat="46.26488693989813" lon="8.68467092514038"><ele></ele><time>2015-4-13T0:58:38Z</time></trkpt>
<trkpt lat="46.26435091719031" lon="8.683919990435243"><ele></ele><time>2015-4-13T0:58:41Z</time></trkpt>
<trkpt lat="46.26435091719031" lon="8.683919990435243"><ele></ele><time>2015-4-13T0:58:44Z</time></trkpt>
<trkpt lat="46.264867996796966" lon="8.684740997850895"><ele></ele><time>2015-4-13T0:58:47Z</time></trkpt>
<trkpt lat="46.2646899651736" lon="8.685020953416824"><ele></ele><time>2015-4-13T0:58:50Z</time></trkpt>
<trkpt lat="46.264564990997314" lon="8.685102928429842"><ele></ele><time>2015-4-13T0:58:53Z</time></trkpt>
<trkpt lat="46.26440598629415" lon="8.685180963948369"><ele></ele><time>2015-4-13T0:58:56Z</time></trkpt>
<trkpt lat="46.26430791802704" lon="8.685220945626497"><ele></ele><time>2015-4-13T0:58:59Z</time></trkpt>
<trkpt lat="46.26425092108548" lon="8.685252964496613"><ele></ele><time>2015-4-13T0:59:2Z</time></trkpt>
<trkpt lat="46.26435091719031" lon="8.683919990435243"><ele></ele><time>2015-4-13T0:59:5Z</time></trkpt>
<trkpt lat="46.26435091719031" lon="8.683919990435243"><ele></ele><time>2015-4-13T0:59:8Z</time></trkpt>
<trkpt lat="46.26423792913556" lon="8.683731984347105"><ele></ele><time>2015-4-13T0:59:11Z</time></trkpt>
<trkpt lat="46.26418897882104" lon="8.683661995455623"><ele></ele><time>2015-4-13T0:59:14Z</time></trkpt>
<trkpt lat="46.264177998527884" lon="8.683644980192184"><ele></ele><time>2015-4-13T0:59:17Z</time></trkpt>
<trkpt lat="46.2641909904778" lon="8.683663923293352"><ele></ele><time>2015-4-13T0:59:20Z</time></trkpt>
<trkpt lat="46.26433499157429" lon="8.683887971565127"><ele></ele><time>2015-4-13T0:59:23Z</time></trkpt>
<trkpt lat="46.26435091719031" lon="8.683919990435243"><ele></ele><time>2015-4-13T0:59:26Z</time></trkpt>
<trkpt lat="46.26435091719031" lon="8.683919990435243"><ele></ele><time>2015-4-13T0:59:29Z</time></trkpt>
<trkpt lat="46.26435091719031" lon="8.683919990435243"><ele></ele><time>2015-4-13T0:59:32Z</time></trkpt>
<trkpt lat="46.264398945495486" lon="8.68518398143351"><ele></ele><time>2015-4-13T0:59:35Z</time></trkpt>
<trkpt lat="46.26430297270417" lon="8.685222957283258"><ele></ele><time>2015-4-13T0:59:38Z</time></trkpt>
<trkpt lat="46.2641529366374" lon="8.685283977538347"><ele></ele><time>2015-4-13T0:59:41Z</time></trkpt>
<trkpt lat="46.26429794356227" lon="8.685223963111639"><ele></ele><time>2015-4-13T0:59:44Z</time></trkpt>
<trkpt lat="46.26447094604373" lon="8.685154980048537"><ele></ele><time>2015-4-13T0:59:47Z</time></trkpt>
<trkpt lat="46.26459298655391" lon="8.685085996985435"><ele></ele><time>2015-4-13T0:59:50Z</time></trkpt>
<trkpt lat="46.264803959056735" lon="8.68492397479713"><ele></ele><time>2015-4-13T0:59:53Z</time></trkpt>
<trkpt lat="46.2648609559983" lon="8.684767987579107"><ele></ele><time>2015-4-13T0:59:56Z</time></trkpt>
<trkpt lat="46.264907978475094" lon="8.684619963169098"><ele></ele><time>2015-4-13T0:59:59Z</time></trkpt>
<trkpt lat="46.26497293822467" lon="8.68445592932403"><ele></ele><time>2015-4-13T1:0:2Z</time></trkpt>
<trkpt lat="46.26498794183135" lon="8.684418965131044"><ele></ele><time>2015-4-13T1:0:5Z</time></trkpt>
<trkpt lat="46.264995988458395" lon="8.684398932382464"><ele></ele><time>2015-4-13T1:0:8Z</time></trkpt>
<trkpt lat="46.26500898040831" lon="8.68436699733138"><ele></ele><time>2015-4-13T1:0:11Z</time></trkpt>
<trkpt lat="46.26501593738794" lon="8.684348976239562"><ele></ele><time>2015-4-13T1:0:14Z</time></trkpt>
<trkpt lat="46.26501593738794" lon="8.684348976239562"><ele></ele><time>2015-4-13T1:0:17Z</time></trkpt>
<trkpt lat="46.26501593738794" lon="8.684348976239562"><ele></ele><time>2015-4-13T1:0:20Z</time></trkpt>
<trkpt lat="46.26501593738794" lon="8.684348976239562"><ele></ele><time>2015-4-13T1:0:23Z</time></trkpt>
<trkpt lat="46.26501593738794" lon="8.684348976239562"><ele></ele><time>2015-4-13T1:0:26Z</time></trkpt>
<trkpt lat="46.26501593738794" lon="8.684348976239562"><ele></ele><time>2015-4-13T1:0:29Z</time></trkpt>
<trkpt lat="46.26501593738794" lon="8.684348976239562"><ele></ele><time>2015-4-13T1:0:32Z</time></trkpt>
<trkpt lat="46.26501593738794" lon="8.684348976239562"><ele></ele><time>2015-4-13T1:0:35Z</time></trkpt>
<trkpt lat="46.26501593738794" lon="8.684348976239562"><ele></ele><time>2015-4-13T1:0:38Z</time></trkpt>
<trkpt lat="46.26501593738794" lon="8.684348976239562"><ele></ele><time>2015-4-13T1:0:41Z</time></trkpt>
<trkpt lat="46.26501593738794" lon="8.684348976239562"><ele></ele><time>2015-4-13T1:0:44Z</time></trkpt>
<trkpt lat="46.26501593738794" lon="8.684348976239562"><ele></ele><time>2015-4-13T1:0:47Z</time></trkpt>
<trkpt lat="46.26538599841297" lon="8.683174923062325"><ele></ele><time>2015-4-13T1:0:50Z</time></trkpt>
<trkpt lat="46.265386920422316" lon="8.683135947212577"><ele></ele><time>2015-4-13T1:0:53Z</time></trkpt>
<trkpt lat="46.26540091820061" lon="8.68299194611609"><ele></ele><time>2015-4-13T1:0:56Z</time></trkpt>
<trkpt lat="46.26539899036288" lon="8.682821961119771"><ele></ele><time>2015-4-13T1:0:59Z</time></trkpt>
<trkpt lat="46.26541692763567" lon="8.682679971680045"><ele></ele><time>2015-4-13T1:1:2Z</time></trkpt>
<trkpt lat="46.26544198952615" lon="8.682543933391571"><ele></ele><time>2015-4-13T1:1:5Z</time></trkpt>
<trkpt lat="46.26547895371914" lon="8.682419965043664"><ele></ele><time>2015-4-13T1:1:8Z</time></trkpt>
<trkpt lat="46.26548498868942" lon="8.68232399225235"><ele></ele><time>2015-4-13T1:1:11Z</time></trkpt>
<trkpt lat="46.26547199673951" lon="8.68183197453618"><ele></ele><time>2015-4-13T1:1:14Z</time></trkpt>
<trkpt lat="46.26552798785269" lon="8.682207986712456"><ele></ele><time>2015-4-13T1:1:17Z</time></trkpt>
<trkpt lat="46.2655449192971" lon="8.682227935642004"><ele></ele><time>2015-4-13T1:1:20Z</time></trkpt>
<trkpt lat="46.26554693095386" lon="8.682231958955526"><ele></ele><time>2015-4-13T1:1:23Z</time></trkpt>
<trkpt lat="46.26550393179059" lon="8.681823927909136"><ele></ele><time>2015-4-13T1:1:26Z</time></trkpt>
<trkpt lat="46.26555196009576" lon="8.682232964783907"><ele></ele><time>2015-4-13T1:1:29Z</time></trkpt>
<trkpt lat="46.265534944832325" lon="8.682179991155863"><ele></ele><time>2015-4-13T1:1:32Z</time></trkpt>
<trkpt lat="46.265535950660706" lon="8.682178985327482"><ele></ele><time>2015-4-13T1:1:35Z</time></trkpt>
<trkpt lat="46.2655309215188" lon="8.681816970929503"><ele></ele><time>2015-4-13T1:1:38Z</time></trkpt>
<trkpt lat="46.2655309215188" lon="8.681816970929503"><ele></ele><time>2015-4-13T1:1:41Z</time></trkpt>
<trkpt lat="46.26561691984534" lon="8.681773971766233"><ele></ele><time>2015-4-13T1:1:44Z</time></trkpt>
<trkpt lat="46.26561691984534" lon="8.681773971766233"><ele></ele><time>2015-4-13T1:1:47Z</time></trkpt>
<trkpt lat="46.26561691984534" lon="8.681773971766233"><ele></ele><time>2015-4-13T1:1:50Z</time></trkpt>
<trkpt lat="46.26561691984534" lon="8.681773971766233"><ele></ele><time>2015-4-13T1:1:53Z</time></trkpt>
<trkpt lat="46.26561691984534" lon="8.681773971766233"><ele></ele><time>2015-4-13T1:1:56Z</time></trkpt>
<trkpt lat="46.26561691984534" lon="8.681773971766233"><ele></ele><time>2015-4-13T1:1:59Z</time></trkpt>
<trkpt lat="46.26561691984534" lon="8.681773971766233"><ele></ele><time>2015-4-13T1:2:2Z</time></trkpt>
<trkpt lat="46.26561691984534" lon="8.681773971766233"><ele></ele><time>2015-4-13T1:2:5Z</time></trkpt>
<trkpt lat="46.26561691984534" lon="8.681773971766233"><ele></ele><time>2015-4-13T1:2:8Z</time></trkpt>
<trkpt lat="46.26561691984534" lon="8.681773971766233"><ele></ele><time>2015-4-13T1:2:11Z</time></trkpt>
<trkpt lat="46.26625696197152" lon="8.681246917694807"><ele></ele><time>2015-4-13T1:2:14Z</time></trkpt>
<trkpt lat="46.266352934762836" lon="8.68116494268179"><ele></ele><time>2015-4-13T1:2:17Z</time></trkpt>
<trkpt lat="46.26644195057452" lon="8.68109897710383"><ele></ele><time>2015-4-13T1:2:20Z</time></trkpt>
<trkpt lat="46.26650799997151" lon="8.681230992078781"><ele></ele><time>2015-4-13T1:2:23Z</time></trkpt>
<trkpt lat="46.266501965001225" lon="8.681218922138214"><ele></ele><time>2015-4-13T1:2:26Z</time></trkpt>
<trkpt lat="46.2664979416877" lon="8.681193944066763"><ele></ele><time>2015-4-13T1:2:29Z</time></trkpt>
<trkpt lat="46.266502970829606" lon="8.681171983480453"><ele></ele><time>2015-4-13T1:2:32Z</time></trkpt>
<trkpt lat="46.26657094806433" lon="8.680986994877458"><ele></ele><time>2015-4-13T1:2:35Z</time></trkpt>
<trkpt lat="46.266735987737775" lon="8.680874928832054"><ele></ele><time>2015-4-13T1:2:38Z</time></trkpt>
<trkpt lat="46.26694595441222" lon="8.680731933563948"><ele></ele><time>2015-4-13T1:2:41Z</time></trkpt>
<trkpt lat="46.26711099408567" lon="8.680601930245757"><ele></ele><time>2015-4-13T1:2:44Z</time></trkpt>
<trkpt lat="46.26718198880553" lon="8.680538982152939"><ele></ele><time>2015-4-13T1:2:47Z</time></trkpt>
<trkpt lat="46.26730092801154" lon="8.680465975776315"><ele></ele><time>2015-4-13T1:2:50Z</time></trkpt>
<trkpt lat="46.26741995103657" lon="8.680385928601027"><ele></ele><time>2015-4-13T1:2:53Z</time></trkpt>
<trkpt lat="46.267508966848254" lon="8.680296996608377"><ele></ele><time>2015-4-13T1:2:56Z</time></trkpt>
<trkpt lat="46.26752195879817" lon="8.680277969688177"><ele></ele><time>2015-4-13T1:2:59Z</time></trkpt>
<trkpt lat="46.26754492521286" lon="8.680246956646442"><ele></ele><time>2015-4-13T1:3:2Z</time></trkpt>
<trkpt lat="46.26761298626661" lon="8.680173950269818"><ele></ele><time>2015-4-13T1:3:5Z</time></trkpt>
<trkpt lat="46.26761298626661" lon="8.680173950269818"><ele></ele><time>2015-4-13T1:3:8Z</time></trkpt>
<trkpt lat="46.267746929079294" lon="8.680102955549955"><ele></ele><time>2015-4-13T1:3:11Z</time></trkpt>
<trkpt lat="46.26780292019248" lon="8.680072948336601"><ele></ele><time>2015-4-13T1:3:14Z</time></trkpt>
<trkpt lat="46.267915992066264" lon="8.679989967495203"><ele></ele><time>2015-4-13T1:3:17Z</time></trkpt>
<trkpt lat="46.268003918230534" lon="8.679901957511902"><ele></ele><time>2015-4-13T1:3:20Z</time></trkpt>
<trkpt lat="46.268086982890964" lon="8.679803973063827"><ele></ele><time>2015-4-13T1:3:23Z</time></trkpt>
<trkpt lat="46.26810098066926" lon="8.679785951972008"><ele></ele><time>2015-4-13T1:3:26Z</time></trkpt>
<trkpt lat="46.26810098066926" lon="8.679785951972008"><ele></ele><time>2015-4-13T1:3:29Z</time></trkpt>
<trkpt lat="46.26814498566091" lon="8.679731972515583"><ele></ele><time>2015-4-13T1:3:32Z</time></trkpt>
<trkpt lat="46.26814498566091" lon="8.679731972515583"><ele></ele><time>2015-4-13T1:3:35Z</time></trkpt>
<trkpt lat="46.26820491626859" lon="8.679656954482198"><ele></ele><time>2015-4-13T1:3:38Z</time></trkpt>
<trkpt lat="46.26825395040214" lon="8.67959694005549"><ele></ele><time>2015-4-13T1:3:41Z</time></trkpt>
<trkpt lat="46.26831798814237" lon="8.679516976699233"><ele></ele><time>2015-4-13T1:3:44Z</time></trkpt>
<trkpt lat="46.26835897564888" lon="8.679466936737299"><ele></ele><time>2015-4-13T1:3:47Z</time></trkpt>
<trkpt lat="46.26838797703385" lon="8.679429972544312"><ele></ele><time>2015-4-13T1:3:50Z</time></trkpt>
<trkpt lat="46.26840499229729" lon="8.679408933967352"><ele></ele><time>2015-4-13T1:3:53Z</time></trkpt>
<trkpt lat="46.26852493733168" lon="8.679291922599077"><ele></ele><time>2015-4-13T1:3:56Z</time></trkpt>
<trkpt lat="46.268561985343695" lon="8.679266944527626"><ele></ele><time>2015-4-13T1:3:59Z</time></trkpt>
<trkpt lat="46.26861797645688" lon="8.679226962849498"><ele></ele><time>2015-4-13T1:4:2Z</time></trkpt>
<trkpt lat="46.26861797645688" lon="8.679226962849498"><ele></ele><time>2015-4-13T1:4:5Z</time></trkpt>
<trkpt lat="46.26872291788459" lon="8.6791439820081"><ele></ele><time>2015-4-13T1:4:8Z</time></trkpt>
<trkpt lat="46.26872291788459" lon="8.6791439820081"><ele></ele><time>2015-4-13T1:4:11Z</time></trkpt>
<trkpt lat="46.26872291788459" lon="8.6791439820081"><ele></ele><time>2015-4-13T1:4:14Z</time></trkpt>
<trkpt lat="46.268802965059876" lon="8.679078938439488"><ele></ele><time>2015-4-13T1:4:17Z</time></trkpt>
<trkpt lat="46.268802965059876" lon="8.679078938439488"><ele></ele><time>2015-4-13T1:4:20Z</time></trkpt>
<trkpt lat="46.268802965059876" lon="8.679078938439488"><ele></ele><time>2015-4-13T1:4:23Z</time></trkpt>
<trkpt lat="46.268907990306616" lon="8.67892898619175"><ele></ele><time>2015-4-13T1:4:26Z</time></trkpt>
<trkpt lat="46.268970938399434" lon="8.678835947066545"><ele></ele><time>2015-4-13T1:4:29Z</time></trkpt>
<trkpt lat="46.268970938399434" lon="8.678835947066545"><ele></ele><time>2015-4-13T1:4:32Z</time></trkpt>
<trkpt lat="46.268970938399434" lon="8.678835947066545"><ele></ele><time>2015-4-13T1:4:35Z</time></trkpt>
<trkpt lat="46.268970938399434" lon="8.678835947066545"><ele></ele><time>2015-4-13T1:4:38Z</time></trkpt>
<trkpt lat="46.269083926454186" lon="8.67867493070662"><ele></ele><time>2015-4-13T1:4:41Z</time></trkpt>
<trkpt lat="46.26911896280944" lon="8.678639978170395"><ele></ele><time>2015-4-13T1:4:44Z</time></trkpt>
<trkpt lat="46.26911896280944" lon="8.678639978170395"><ele></ele><time>2015-4-13T1:4:47Z</time></trkpt>
<trkpt lat="46.26911896280944" lon="8.678639978170395"><ele></ele><time>2015-4-13T1:4:50Z</time></trkpt>
<trkpt lat="46.269250977784395" lon="8.67852196097374"><ele></ele><time>2015-4-13T1:4:53Z</time></trkpt>
<trkpt lat="46.26927897334099" lon="8.678496982902288"><ele></ele><time>2015-4-13T1:4:56Z</time></trkpt>
<trkpt lat="46.26927897334099" lon="8.678496982902288"><ele></ele><time>2015-4-13T1:4:59Z</time></trkpt>
<trkpt lat="46.26937293447554" lon="8.678413918241858"><ele></ele><time>2015-4-13T1:5:2Z</time></trkpt>
<trkpt lat="46.26939095556736" lon="8.678397992625833"><ele></ele><time>2015-4-13T1:5:5Z</time></trkpt>
<trkpt lat="46.26940897665918" lon="8.678381983190775"><ele></ele><time>2015-4-13T1:5:8Z</time></trkpt>
<trkpt lat="46.26940897665918" lon="8.678381983190775"><ele></ele><time>2015-4-13T1:5:11Z</time></trkpt>
<trkpt lat="46.26940897665918" lon="8.678381983190775"><ele></ele><time>2015-4-13T1:5:14Z</time></trkpt>
<trkpt lat="46.26954291947186" lon="8.678262960165739"><ele></ele><time>2015-4-13T1:5:17Z</time></trkpt>
<trkpt lat="46.26964895054698" lon="8.678168999031186"><ele></ele><time>2015-4-13T1:5:20Z</time></trkpt>
<trkpt lat="46.269705947488546" lon="8.678094986826181"><ele></ele><time>2015-4-13T1:5:23Z</time></trkpt>
<trkpt lat="46.26973293721676" lon="8.678052993491292"><ele></ele><time>2015-4-13T1:5:26Z</time></trkpt>
<trkpt lat="46.26979999244213" lon="8.677947968244553"><ele></ele><time>2015-4-13T1:5:29Z</time></trkpt>
<trkpt lat="46.26979999244213" lon="8.677947968244553"><ele></ele><time>2015-4-13T1:5:32Z</time></trkpt>
<trkpt lat="46.26979999244213" lon="8.677947968244553"><ele></ele><time>2015-4-13T1:5:35Z</time></trkpt>
<trkpt lat="46.26988196745515" lon="8.677829951047897"><ele></ele><time>2015-4-13T1:5:38Z</time></trkpt>
<trkpt lat="46.26995396800339" lon="8.677730960771441"><ele></ele><time>2015-4-13T1:5:41Z</time></trkpt>
<trkpt lat="46.269962936639786" lon="8.677718974649906"><ele></ele><time>2015-4-13T1:5:44Z</time></trkpt>
<trkpt lat="46.269962936639786" lon="8.677718974649906"><ele></ele><time>2015-4-13T1:5:47Z</time></trkpt>
<trkpt lat="46.27002898603678" lon="8.677627947181463"><ele></ele><time>2015-4-13T1:5:50Z</time></trkpt>
<trkpt lat="46.27007097937167" lon="8.677570950239897"><ele></ele><time>2015-4-13T1:5:53Z</time></trkpt>
<trkpt lat="46.27009796909988" lon="8.67753298021853"><ele></ele><time>2015-4-13T1:5:56Z</time></trkpt>
<trkpt lat="46.270133927464485" lon="8.677483946084976"><ele></ele><time>2015-4-13T1:5:59Z</time></trkpt>
<trkpt lat="46.270133927464485" lon="8.677483946084976"><ele></ele><time>2015-4-13T1:6:2Z</time></trkpt>
<trkpt lat="46.27015999518335" lon="8.67744798772037"><ele></ele><time>2015-4-13T1:6:5Z</time></trkpt>
<trkpt lat="46.27015999518335" lon="8.67744798772037"><ele></ele><time>2015-4-13T1:6:8Z</time></trkpt>
<trkpt lat="46.270198971033096" lon="8.677395936101675"><ele></ele><time>2015-4-13T1:6:11Z</time></trkpt>
<trkpt lat="46.27021196298301" lon="8.677378920838237"><ele></ele><time>2015-4-13T1:6:14Z</time></trkpt>
<trkpt lat="46.27021196298301" lon="8.677378920838237"><ele></ele><time>2015-4-13T1:6:17Z</time></trkpt>
<trkpt lat="46.27021196298301" lon="8.677378920838237"><ele></ele><time>2015-4-13T1:6:20Z</time></trkpt>
<trkpt lat="46.270344983786345" lon="8.677413957193494"><ele></ele><time>2015-4-13T1:6:23Z</time></trkpt>
<trkpt lat="46.270348923280835" lon="8.677413957193494"><ele></ele><time>2015-4-13T1:6:26Z</time></trkpt>
<trkpt lat="46.27027197740972" lon="8.6772979516536"><ele></ele><time>2015-4-13T1:6:29Z</time></trkpt>
<trkpt lat="46.27027197740972" lon="8.6772979516536"><ele></ele><time>2015-4-13T1:6:32Z</time></trkpt>
<trkpt lat="46.27042092382908" lon="8.677099971100688"><ele></ele><time>2015-4-13T1:6:35Z</time></trkpt>
<trkpt lat="46.27046199515462" lon="8.67701699025929"><ele></ele><time>2015-4-13T1:6:38Z</time></trkpt>
<trkpt lat="46.27053298987448" lon="8.676865948364139"><ele></ele><time>2015-4-13T1:6:41Z</time></trkpt>
<trkpt lat="46.27059493213892" lon="8.676736950874329"><ele></ele><time>2015-4-13T1:6:44Z</time></trkpt>
<trkpt lat="46.2706099357456" lon="8.676703926175833"><ele></ele><time>2015-4-13T1:6:47Z</time></trkpt>
<trkpt lat="46.270627956837416" lon="8.676666961982846"><ele></ele><time>2015-4-13T1:6:50Z</time></trkpt>
<trkpt lat="46.270668944343925" lon="8.676600996404886"><ele></ele><time>2015-4-13T1:6:53Z</time></trkpt>
<trkpt lat="46.270668944343925" lon="8.676600996404886"><ele></ele><time>2015-4-13T1:6:56Z</time></trkpt>
<trkpt lat="46.270737927407026" lon="8.676500916481018"><ele></ele><time>2015-4-13T1:6:59Z</time></trkpt>
<trkpt lat="46.27078997902572" lon="8.676424976438284"><ele></ele><time>2015-4-13T1:7:2Z</time></trkpt>
<trkpt lat="46.27079593017697" lon="8.676415923982859"><ele></ele><time>2015-4-13T1:7:5Z</time></trkpt>
<trkpt lat="46.27079593017697" lon="8.676415923982859"><ele></ele><time>2015-4-13T1:7:8Z</time></trkpt>
<trkpt lat="46.2708549387753" lon="8.6763309314847"><ele></ele><time>2015-4-13T1:7:11Z</time></trkpt>
<trkpt lat="46.27087698318064" lon="8.676298996433616"><ele></ele><time>2015-4-13T1:7:14Z</time></trkpt>
<trkpt lat="46.27091696485877" lon="8.676248956471682"><ele></ele><time>2015-4-13T1:7:17Z</time></trkpt>
<trkpt lat="46.27098393626511" lon="8.676171926781535"><ele></ele><time>2015-4-13T1:7:20Z</time></trkpt>
<trkpt lat="46.27095996402204" lon="8.676194977015257"><ele></ele><time>2015-4-13T1:7:23Z</time></trkpt>
<trkpt lat="46.27095996402204" lon="8.676194977015257"><ele></ele><time>2015-4-13T1:7:26Z</time></trkpt>
<trkpt lat="46.27095996402204" lon="8.676194977015257"><ele></ele><time>2015-4-13T1:7:29Z</time></trkpt>
<trkpt lat="46.27101997844875" lon="8.676323974505067"><ele></ele><time>2015-4-13T1:7:32Z</time></trkpt>
<trkpt lat="46.27116699703038" lon="8.676638966426253"><ele></ele><time>2015-4-13T1:7:35Z</time></trkpt>
<trkpt lat="46.27135198563337" lon="8.677037945017219"><ele></ele><time>2015-4-13T1:7:38Z</time></trkpt>
<trkpt lat="46.27149498090148" lon="8.677342962473631"><ele></ele><time>2015-4-13T1:7:41Z</time></trkpt>
<trkpt lat="46.27160897478461" lon="8.677588971331716"><ele></ele><time>2015-4-13T1:7:44Z</time></trkpt>
<trkpt lat="46.271636970341206" lon="8.677647979930043"><ele></ele><time>2015-4-13T1:7:47Z</time></trkpt>
<trkpt lat="46.27169094979763" lon="8.677764991298318"><ele></ele><time>2015-4-13T1:7:50Z</time></trkpt>
<trkpt lat="46.27173696644604" lon="8.677869932726026"><ele></ele><time>2015-4-13T1:7:53Z</time></trkpt>
<trkpt lat="46.27179295755923" lon="8.677994990721345"><ele></ele><time>2015-4-13T1:7:56Z</time></trkpt>
<trkpt lat="46.271891947835684" lon="8.678219961002469"><ele></ele><time>2015-4-13T1:7:59Z</time></trkpt>
<trkpt lat="46.271999990567565" lon="8.678462952375412"><ele></ele><time>2015-4-13T1:8:2Z</time></trkpt>
<trkpt lat="46.27209596335888" lon="8.678681971505284"><ele></ele><time>2015-4-13T1:8:5Z</time></trkpt>
<trkpt lat="46.27220492810011" lon="8.678920939564705"><ele></ele><time>2015-4-13T1:8:8Z</time></trkpt>
<trkpt lat="46.27223191782832" lon="8.678942983970046"><ele></ele><time>2015-4-13T1:8:11Z</time></trkpt>
<trkpt lat="46.27230693586171" lon="8.678961927071214"><ele></ele><time>2015-4-13T1:8:14Z</time></trkpt>
<trkpt lat="46.27237591892481" lon="8.678984977304935"><ele></ele><time>2015-4-13T1:8:17Z</time></trkpt>
<trkpt lat="46.272386983036995" lon="8.678998975083232"><ele></ele><time>2015-4-13T1:8:20Z</time></trkpt>
<trkpt lat="46.27249091863632" lon="8.679137947037816"><ele></ele><time>2015-4-13T1:8:23Z</time></trkpt>
<trkpt lat="46.272580940276384" lon="8.679278930649161"><ele></ele><time>2015-4-13T1:8:26Z</time></trkpt>
<trkpt lat="46.272662999108434" lon="8.679388985037804"><ele></ele><time>2015-4-13T1:8:29Z</time></trkpt>
<trkpt lat="46.272771963849664" lon="8.6791439820081"><ele></ele><time>2015-4-13T1:8:32Z</time></trkpt>
<trkpt lat="46.27298494800925" lon="8.678912976756692"><ele></ele><time>2015-4-13T1:8:35Z</time></trkpt>
<trkpt lat="46.27313397824764" lon="8.678724970668554"><ele></ele><time>2015-4-13T1:8:38Z</time></trkpt>
<trkpt lat="46.27332592383027" lon="8.678450966253877"><ele></ele><time>2015-4-13T1:8:41Z</time></trkpt>
<trkpt lat="46.27359892241657" lon="8.67809297516942"><ele></ele><time>2015-4-13T1:8:44Z</time></trkpt>
<trkpt lat="46.27381299622357" lon="8.677864987403154"><ele></ele><time>2015-4-13T1:8:47Z</time></trkpt>
<trkpt lat="46.27407995983958" lon="8.677495932206511"><ele></ele><time>2015-4-13T1:8:50Z</time></trkpt>
<trkpt lat="46.27411792986095" lon="8.67744597606361"><ele></ele><time>2015-4-13T1:8:53Z</time></trkpt>
<trkpt lat="46.274257991462946" lon="8.677261993288994"><ele></ele><time>2015-4-13T1:8:56Z</time></trkpt>
<trkpt lat="46.27446192316711" lon="8.677370958030224"><ele></ele><time>2015-4-13T1:8:59Z</time></trkpt>
<trkpt lat="46.27471195533872" lon="8.677745964378119"><ele></ele><time>2015-4-13T1:9:2Z</time></trkpt>
<trkpt lat="46.274838941171765" lon="8.677947968244553"><ele></ele><time>2015-4-13T1:9:5Z</time></trkpt>
<trkpt lat="46.27490792423487" lon="8.67820093408227"><ele></ele><time>2015-4-13T1:9:8Z</time></trkpt>
<trkpt lat="46.27490792423487" lon="8.67845892906189"><ele></ele><time>2015-4-13T1:9:11Z</time></trkpt>
<trkpt lat="46.27488797530532" lon="8.678808957338333"><ele></ele><time>2015-4-13T1:9:14Z</time></trkpt>
<trkpt lat="46.27480197697878" lon="8.678957987576723"><ele></ele><time>2015-4-13T1:9:17Z</time></trkpt>
<trkpt lat="46.27465294674039" lon="8.679092936217785"><ele></ele><time>2015-4-13T1:9:20Z</time></trkpt>
<trkpt lat="46.27450198866427" lon="8.679205924272537"><ele></ele><time>2015-4-13T1:9:23Z</time></trkpt>
<trkpt lat="46.27460793592036" lon="8.67949292063713"><ele></ele><time>2015-4-13T1:9:26Z</time></trkpt>
<trkpt lat="46.274706926196814" lon="8.679780922830105"><ele></ele><time>2015-4-13T1:9:29Z</time></trkpt>
<trkpt lat="46.27465596422553" lon="8.67987496778369"><ele></ele><time>2015-4-13T1:9:32Z</time></trkpt>
<trkpt lat="46.27456393092871" lon="8.679989967495203"><ele></ele><time>2015-4-13T1:9:35Z</time></trkpt>
<trkpt lat="46.27430593594909" lon="8.680206974968314"><ele></ele><time>2015-4-13T1:9:38Z</time></trkpt>
<trkpt lat="46.27406797371805" lon="8.680426999926567"><ele></ele><time>2015-4-13T1:9:41Z</time></trkpt>
<trkpt lat="46.273823976516724" lon="8.68065096437931"><ele></ele><time>2015-4-13T1:9:44Z</time></trkpt>
<trkpt lat="46.27364192157984" lon="8.680918933823705"><ele></ele><time>2015-4-13T1:9:47Z</time></trkpt>
<trkpt lat="46.27366094850004" lon="8.681093947961926"><ele></ele><time>2015-4-13T1:9:50Z</time></trkpt>
<trkpt lat="46.273737978190184" lon="8.681417992338538"><ele></ele><time>2015-4-13T1:9:53Z</time></trkpt>
<trkpt lat="46.27379195764661" lon="8.681602980941534"><ele></ele><time>2015-4-13T1:9:56Z</time></trkpt>
<trkpt lat="46.27387896180153" lon="8.681621924042702"><ele></ele><time>2015-4-13T1:9:59Z</time></trkpt>
<trkpt lat="46.27390393987298" lon="8.681626953184605"><ele></ele><time>2015-4-13T1:10:2Z</time></trkpt>
<trkpt lat="46.27413494512439" lon="8.681303998455405"><ele></ele><time>2015-4-13T1:10:5Z</time></trkpt>
<trkpt lat="46.27441498450935" lon="8.68105991743505"><ele></ele><time>2015-4-13T1:10:8Z</time></trkpt>
<trkpt lat="46.274663927033544" lon="8.680836958810687"><ele></ele><time>2015-4-13T1:10:11Z</time></trkpt>
<trkpt lat="46.27488495782018" lon="8.680595979094505"><ele></ele><time>2015-4-13T1:10:14Z</time></trkpt>
<trkpt lat="46.27497497946024" lon="8.68041392415762"><ele></ele><time>2015-4-13T1:10:17Z</time></trkpt>
<trkpt lat="46.275008926168084" lon="8.68013497442007"><ele></ele><time>2015-4-13T1:10:20Z</time></trkpt>
<trkpt lat="46.27499593421817" lon="8.67970498278737"><ele></ele><time>2015-4-13T1:10:23Z</time></trkpt>
<trkpt lat="46.27503692172468" lon="8.679349925369024"><ele></ele><time>2015-4-13T1:10:26Z</time></trkpt>
<trkpt lat="46.27517991699278" lon="8.67906292900443"><ele></ele><time>2015-4-13T1:10:29Z</time></trkpt>
<trkpt lat="46.27537999302149" lon="8.678683983162045"><ele></ele><time>2015-4-13T1:10:32Z</time></trkpt>
<trkpt lat="46.27542299218476" lon="8.678533947095275"><ele></ele><time>2015-4-13T1:10:35Z</time></trkpt>
<trkpt lat="46.275478983297944" lon="8.678110996261239"><ele></ele><time>2015-4-13T1:10:38Z</time></trkpt>
<trkpt lat="46.27560596913099" lon="8.677765997126698"><ele></ele><time>2015-4-13T1:10:41Z</time></trkpt>
<trkpt lat="46.27578995190561" lon="8.677499955520034"><ele></ele><time>2015-4-13T1:10:44Z</time></trkpt>
<trkpt lat="46.27592297270894" lon="8.677114974707365"><ele></ele><time>2015-4-13T1:10:47Z</time></trkpt>
<trkpt lat="46.276021962985396" lon="8.676744997501373"><ele></ele><time>2015-4-13T1:10:50Z</time></trkpt>
<trkpt lat="46.276126988232136" lon="8.676272928714752"><ele></ele><time>2015-4-13T1:10:53Z</time></trkpt>
<trkpt lat="46.2761789560318" lon="8.675966989248991"><ele></ele><time>2015-4-13T1:10:56Z</time></trkpt>
<trkpt lat="46.2762669660151" lon="8.675559964030981"><ele></ele><time>2015-4-13T1:10:59Z</time></trkpt>
<trkpt lat="46.27637299709022" lon="8.675272967666388"><ele></ele><time>2015-4-13T1:11:2Z</time></trkpt>
<trkpt lat="46.27649998292327" lon="8.675031987950206"><ele></ele><time>2015-4-13T1:11:5Z</time></trkpt>
<trkpt lat="46.27665697596967" lon="8.674777932465076"><ele></ele><time>2015-4-13T1:11:8Z</time></trkpt>
<trkpt lat="46.27680793404579" lon="8.674559919163585"><ele></ele><time>2015-4-13T1:11:11Z</time></trkpt>
<trkpt lat="46.27699996344745" lon="8.674411978572607"><ele></ele><time>2015-4-13T1:11:14Z</time></trkpt>
<trkpt lat="46.277268938720226" lon="8.674363950267434"><ele></ele><time>2015-4-13T1:11:17Z</time></trkpt>
<trkpt lat="46.27753498032689" lon="8.674331931397319"><ele></ele><time>2015-4-13T1:11:20Z</time></trkpt>
<trkpt lat="46.277844943106174" lon="8.674295973032713"><ele></ele><time>2015-4-13T1:11:23Z</time></trkpt>
<trkpt lat="46.277887942269444" lon="8.67429094389081"><ele></ele><time>2015-4-13T1:11:26Z</time></trkpt>
<trkpt lat="46.278208969160914" lon="8.674191953614354"><ele></ele><time>2015-4-13T1:11:29Z</time></trkpt>
<trkpt lat="46.27867097966373" lon="8.674034960567951"><ele></ele><time>2015-4-13T1:11:32Z</time></trkpt>
<trkpt lat="46.27921094186604" lon="8.67384091950953"><ele></ele><time>2015-4-13T1:11:35Z</time></trkpt>
<trkpt lat="46.27926995046437" lon="8.673815941438079"><ele></ele><time>2015-4-13T1:11:38Z</time></trkpt>
<trkpt lat="46.27952593378723" lon="8.673604968935251"><ele></ele><time>2015-4-13T1:11:41Z</time></trkpt>
<trkpt lat="46.27985894680023" lon="8.673092918470502"><ele></ele><time>2015-4-13T1:11:44Z</time></trkpt>
<trkpt lat="46.28002893179655" lon="8.67282796651125"><ele></ele><time>2015-4-13T1:11:47Z</time></trkpt>
<trkpt lat="46.2801799736917" lon="8.672374924644828"><ele></ele><time>2015-4-13T1:11:50Z</time></trkpt>
<trkpt lat="46.28041299059987" lon="8.671913919970393"><ele></ele><time>2015-4-13T1:11:53Z</time></trkpt>
<trkpt lat="46.28048096783459" lon="8.671845942735672"><ele></ele><time>2015-4-13T1:11:56Z</time></trkpt>
<trkpt lat="46.28080392256379" lon="8.671644944697618"><ele></ele><time>2015-4-13T1:11:59Z</time></trkpt>
<trkpt lat="46.280979942530394" lon="8.671633964404464"><ele></ele><time>2015-4-13T1:12:2Z</time></trkpt>
<trkpt lat="46.28127699717879" lon="8.671548971906304"><ele></ele><time>2015-4-13T1:12:5Z</time></trkpt>
<trkpt lat="46.281367940828204" lon="8.671487951651216"><ele></ele><time>2015-4-13T1:12:8Z</time></trkpt>
<trkpt lat="46.28150196745992" lon="8.671377981081605"><ele></ele><time>2015-4-13T1:12:11Z</time></trkpt>
<trkpt lat="46.28166298381984" lon="8.671203972771764"><ele></ele><time>2015-4-13T1:12:14Z</time></trkpt>
<trkpt lat="46.282056933268905" lon="8.67084899917245"><ele></ele><time>2015-4-13T1:12:17Z</time></trkpt>
<trkpt lat="46.282483991235495" lon="8.6705079395324"><ele></ele><time>2015-4-13T1:12:20Z</time></trkpt>
<trkpt lat="46.28322193399072" lon="8.669924978166819"><ele></ele><time>2015-4-13T1:12:23Z</time></trkpt>
<trkpt lat="46.28367296420038" lon="8.669352997094393"><ele></ele><time>2015-4-13T1:12:26Z</time></trkpt>
<trkpt lat="46.28401595167816" lon="8.668950917199254"><ele></ele><time>2015-4-13T1:12:29Z</time></trkpt>
<trkpt lat="46.284334966912866" lon="8.668518997728825"><ele></ele><time>2015-4-13T1:12:32Z</time></trkpt>
<trkpt lat="46.2847909424454" lon="8.668392933905125"><ele></ele><time>2015-4-13T1:12:35Z</time></trkpt>
<trkpt lat="46.285149939358234" lon="8.668048940598965"><ele></ele><time>2015-4-13T1:12:38Z</time></trkpt>
<trkpt lat="46.285237949341536" lon="8.667966965585947"><ele></ele><time>2015-4-13T1:12:41Z</time></trkpt>
<trkpt lat="46.285484964028" lon="8.667668988928199"><ele></ele><time>2015-4-13T1:12:44Z</time></trkpt>
<trkpt lat="46.285729967057705" lon="8.667300939559937"><ele></ele><time>2015-4-13T1:12:47Z</time></trkpt>
<trkpt lat="46.28604495897889" lon="8.666828954592347"><ele></ele><time>2015-4-13T1:12:50Z</time></trkpt>
<trkpt lat="46.28631795756519" lon="8.66638395935297"><ele></ele><time>2015-4-13T1:12:53Z</time></trkpt>
<trkpt lat="46.2864279281348" lon="8.6660819593817"><ele></ele><time>2015-4-13T1:12:56Z</time></trkpt>
<trkpt lat="46.28660696558654" lon="8.66537595167756"><ele></ele><time>2015-4-13T1:12:59Z</time></trkpt>
<trkpt lat="46.286677960306406" lon="8.665066994726658"><ele></ele><time>2015-4-13T1:13:2Z</time></trkpt>
<trkpt lat="46.28669296391308" lon="8.664999939501286"><ele></ele><time>2015-4-13T1:13:5Z</time></trkpt>
<trkpt lat="46.286652982234955" lon="8.665174953639507"><ele></ele><time>2015-4-13T1:13:8Z</time></trkpt>
<trkpt lat="46.2866229750216" lon="8.66530797444284"><ele></ele><time>2015-4-13T1:13:11Z</time></trkpt>
<trkpt lat="46.28655591979623" lon="8.665602933615446"><ele></ele><time>2015-4-13T1:13:14Z</time></trkpt>
<trkpt lat="46.28646899946034" lon="8.665931923314929"><ele></ele><time>2015-4-13T1:13:17Z</time></trkpt>
<trkpt lat="46.286439998075366" lon="8.666036948561668"><ele></ele><time>2015-4-13T1:13:20Z</time></trkpt>
<trkpt lat="46.285839937627316" lon="8.66559094749391"><ele></ele><time>2015-4-13T1:13:23Z</time></trkpt>
<trkpt lat="46.286446955055" lon="8.666011970490217"><ele></ele><time>2015-4-13T1:13:26Z</time></trkpt>
<trkpt lat="46.28655893728137" lon="8.66558893583715"><ele></ele><time>2015-4-13T1:13:29Z</time></trkpt>
<trkpt lat="46.286697993054986" lon="8.664977978914976"><ele></ele><time>2015-4-13T1:13:32Z</time></trkpt>
<trkpt lat="46.28679497167468" lon="8.664542958140373"><ele></ele><time>2015-4-13T1:13:35Z</time></trkpt>
<trkpt lat="46.28685599192977" lon="8.664259985089302"><ele></ele><time>2015-4-13T1:13:38Z</time></trkpt>
<trkpt lat="46.28691894002259" lon="8.663989920169115"><ele></ele><time>2015-4-13T1:13:41Z</time></trkpt>
<trkpt lat="46.28702798858285" lon="8.663526987656951"><ele></ele><time>2015-4-13T1:13:44Z</time></trkpt>
<trkpt lat="46.28717198967934" lon="8.662997921928763"><ele></ele><time>2015-4-13T1:13:47Z</time></trkpt>
<trkpt lat="46.28731498494744" lon="8.662442956119776"><ele></ele><time>2015-4-13T1:13:50Z</time></trkpt>
<trkpt lat="46.28747298382223" lon="8.661982957273722"><ele></ele><time>2015-4-13T1:13:53Z</time></trkpt>
<trkpt lat="46.28761597909033" lon="8.66163594648242"><ele></ele><time>2015-4-13T1:13:56Z</time></trkpt>
<trkpt lat="46.287726955488324" lon="8.66135498508811"><ele></ele><time>2015-4-13T1:13:59Z</time></trkpt>
<trkpt lat="46.28777892328799" lon="8.661273932084441"><ele></ele><time>2015-4-13T1:14:2Z</time></trkpt>
<trkpt lat="46.287985956296325" lon="8.660915940999985"><ele></ele><time>2015-4-13T1:14:5Z</time></trkpt>
<trkpt lat="46.2880339846015" lon="8.660783926025033"><ele></ele><time>2015-4-13T1:14:8Z</time></trkpt>
<trkpt lat="46.288093999028206" lon="8.660376984626055"><ele></ele><time>2015-4-13T1:14:11Z</time></trkpt>
<trkpt lat="46.28823699429631" lon="8.659652955830097"><ele></ele><time>2015-4-13T1:14:14Z</time></trkpt>
<trkpt lat="46.28841091878712" lon="8.658784925937653"><ele></ele><time>2015-4-13T1:14:17Z</time></trkpt>
<trkpt lat="46.28858299925923" lon="8.65809098817408"><ele></ele><time>2015-4-13T1:14:20Z</time></trkpt>
<trkpt lat="46.28864091821015" lon="8.657462932169437"><ele></ele><time>2015-4-13T1:14:23Z</time></trkpt>
<trkpt lat="46.288762958720326" lon="8.656764971092343"><ele></ele><time>2015-4-13T1:14:26Z</time></trkpt>
<trkpt lat="46.2888799700886" lon="8.655971959233284"><ele></ele><time>2015-4-13T1:14:29Z</time></trkpt>
<trkpt lat="46.28904492594302" lon="8.65484593436122"><ele></ele><time>2015-4-13T1:14:32Z</time></trkpt>
<trkpt lat="46.289185993373394" lon="8.65388092584908"><ele></ele><time>2015-4-13T1:14:35Z</time></trkpt>
<trkpt lat="46.28938598558307" lon="8.653044998645782"><ele></ele><time>2015-4-13T1:14:38Z</time></trkpt>
<trkpt lat="46.289638951420784" lon="8.652510987594724"><ele></ele><time>2015-4-13T1:14:41Z</time></trkpt>
<trkpt lat="46.290091993287206" lon="8.651768937706947"><ele></ele><time>2015-4-13T1:14:44Z</time></trkpt>
<trkpt lat="46.290455935522914" lon="8.65117197856307"><ele></ele><time>2015-4-13T1:14:47Z</time></trkpt>
<trkpt lat="46.290932949632406" lon="8.650382990017533"><ele></ele><time>2015-4-13T1:14:50Z</time></trkpt>
<trkpt lat="46.29128993488848" lon="8.649736996740103"><ele></ele><time>2015-4-13T1:14:53Z</time></trkpt>
<trkpt lat="46.29165194928646" lon="8.64898094907403"><ele></ele><time>2015-4-13T1:14:56Z</time></trkpt>
<trkpt lat="46.291920924559236" lon="8.648210987448692"><ele></ele><time>2015-4-13T1:14:59Z</time></trkpt>
<trkpt lat="46.29212192259729" lon="8.647376988083124"><ele></ele><time>2015-4-13T1:15:2Z</time></trkpt>
<trkpt lat="46.29227598197758" lon="8.646512981504202"><ele></ele><time>2015-4-13T1:15:5Z</time></trkpt>
<trkpt lat="46.292345970869064" lon="8.64582298323512"><ele></ele><time>2015-4-13T1:15:8Z</time></trkpt>
<trkpt lat="46.292474968358874" lon="8.64534999243915"><ele></ele><time>2015-4-13T1:15:11Z</time></trkpt>
<trkpt lat="46.29272097721696" lon="8.645013961941004"><ele></ele><time>2015-4-13T1:15:14Z</time></trkpt>
<trkpt lat="46.29322397522628" lon="8.644364951178432"><ele></ele><time>2015-4-13T1:15:17Z</time></trkpt>
<trkpt lat="46.293464954942465" lon="8.64395197480917"><ele></ele><time>2015-4-13T1:15:20Z</time></trkpt>
<trkpt lat="46.29369696602225" lon="8.643336994573474"><ele></ele><time>2015-4-13T1:15:23Z</time></trkpt>
<trkpt lat="46.29392998293042" lon="8.642585976049304"><ele></ele><time>2015-4-13T1:15:26Z</time></trkpt>
<trkpt lat="46.2941019795835" lon="8.64195498637855"><ele></ele><time>2015-4-13T1:15:29Z</time></trkpt>
<trkpt lat="46.294151935726404" lon="8.64165399223566"><ele></ele><time>2015-4-13T1:15:32Z</time></trkpt>
<trkpt lat="46.29411798901856" lon="8.641382921487093"><ele></ele><time>2015-4-13T1:15:35Z</time></trkpt>
<trkpt lat="46.29381297156215" lon="8.640872966498137"><ele></ele><time>2015-4-13T1:15:38Z</time></trkpt>
<trkpt lat="46.29361096769571" lon="8.640433922410011"><ele></ele><time>2015-4-13T1:15:41Z</time></trkpt>
<trkpt lat="46.29357995465398" lon="8.640358988195658"><ele></ele><time>2015-4-13T1:15:44Z</time></trkpt>
<trkpt lat="46.29343394190073" lon="8.639694973826408"><ele></ele><time>2015-4-13T1:15:47Z</time></trkpt>
<trkpt lat="46.29345992580056" lon="8.639335976913571"><ele></ele><time>2015-4-13T1:15:50Z</time></trkpt>
<trkpt lat="46.29355397075415" lon="8.639024924486876"><ele></ele><time>2015-4-13T1:15:53Z</time></trkpt>
<trkpt lat="46.29373393021524" lon="8.638510946184397"><ele></ele><time>2015-4-13T1:15:56Z</time></trkpt>
<trkpt lat="46.29398697987199" lon="8.637781972065568"><ele></ele><time>2015-4-13T1:15:59Z</time></trkpt>
<trkpt lat="46.29427095875144" lon="8.636967921629548"><ele></ele><time>2015-4-13T1:16:2Z</time></trkpt>
<trkpt lat="46.29457396455109" lon="8.636095952242613"><ele></ele><time>2015-4-13T1:16:5Z</time></trkpt>
<trkpt lat="46.29484796896577" lon="8.635308975353837"><ele></ele><time>2015-4-13T1:16:8Z</time></trkpt>
<trkpt lat="46.295095989480615" lon="8.634588969871402"><ele></ele><time>2015-4-13T1:16:11Z</time></trkpt>
<trkpt lat="46.295310985296965" lon="8.633956974372268"><ele></ele><time>2015-4-13T1:16:14Z</time></trkpt>
<trkpt lat="46.29558691754937" lon="8.63316597416997"><ele></ele><time>2015-4-13T1:16:17Z</time></trkpt>
<trkpt lat="46.29585698246956" lon="8.632386960089207"><ele></ele><time>2015-4-13T1:16:20Z</time></trkpt>
<trkpt lat="46.296017998829484" lon="8.631929978728294"><ele></ele><time>2015-4-13T1:16:23Z</time></trkpt>
<trkpt lat="46.296323938295245" lon="8.631089944392443"><ele></ele><time>2015-4-13T1:16:26Z</time></trkpt>
<trkpt lat="46.296560978516936" lon="8.63039399497211"><ele></ele><time>2015-4-13T1:16:29Z</time></trkpt>
<trkpt lat="46.29682593047619" lon="8.629646999761462"><ele></ele><time>2015-4-13T1:16:32Z</time></trkpt>
<trkpt lat="46.29704897291958" lon="8.628994971513748"><ele></ele><time>2015-4-13T1:16:35Z</time></trkpt>
<trkpt lat="46.29723194986582" lon="8.628497924655676"><ele></ele><time>2015-4-13T1:16:38Z</time></trkpt>
<trkpt lat="46.29725298844278" lon="8.628439921885729"><ele></ele><time>2015-4-13T1:16:41Z</time></trkpt>
<trkpt lat="46.297440994530916" lon="8.627886967733502"><ele></ele><time>2015-4-13T1:16:44Z</time></trkpt>
<trkpt lat="46.29762891680002" lon="8.627328984439373"><ele></ele><time>2015-4-13T1:16:47Z</time></trkpt>
<trkpt lat="46.29775992594659" lon="8.626967975869775"><ele></ele><time>2015-4-13T1:16:50Z</time></trkpt>
<trkpt lat="46.29787299782038" lon="8.626727918162942"><ele></ele><time>2015-4-13T1:16:53Z</time></trkpt>
<trkpt lat="46.29807793535292" lon="8.62633598037064"><ele></ele><time>2015-4-13T1:16:56Z</time></trkpt>
<trkpt lat="46.29832696169615" lon="8.62586198374629"><ele></ele><time>2015-4-13T1:16:59Z</time></trkpt>
<trkpt lat="46.2984589766711" lon="8.625610945746303"><ele></ele><time>2015-4-13T1:17:2Z</time></trkpt>
<trkpt lat="46.29873893223703" lon="8.625074923038483"><ele></ele><time>2015-4-13T1:17:5Z</time></trkpt>
<trkpt lat="46.29910798743367" lon="8.624461954459548"><ele></ele><time>2015-4-13T1:17:8Z</time></trkpt>
<trkpt lat="46.299436977133155" lon="8.623954933136702"><ele></ele><time>2015-4-13T1:17:11Z</time></trkpt>
<trkpt lat="46.29978993907571" lon="8.62338898703456"><ele></ele><time>2015-4-13T1:17:14Z</time></trkpt>
<trkpt lat="46.30013594403863" lon="8.62283494323492"><ele></ele><time>2015-4-13T1:17:17Z</time></trkpt>
<trkpt lat="46.300509944558144" lon="8.622299926355481"><ele></ele><time>2015-4-13T1:17:20Z</time></trkpt>
<trkpt lat="46.30080892704427" lon="8.621829953044653"><ele></ele><time>2015-4-13T1:17:23Z</time></trkpt>
<trkpt lat="46.300875982269645" lon="8.621724927797914"><ele></ele><time>2015-4-13T1:17:26Z</time></trkpt>
<trkpt lat="46.30110598169267" lon="8.621361991390586"><ele></ele><time>2015-4-13T1:17:29Z</time></trkpt>
<trkpt lat="46.301262974739075" lon="8.62111296504736"><ele></ele><time>2015-4-13T1:17:32Z</time></trkpt>
<trkpt lat="46.30147495307028" lon="8.62077098339796"><ele></ele><time>2015-4-13T1:17:35Z</time></trkpt>
<trkpt lat="46.301866974681616" lon="8.620161954313517"><ele></ele><time>2015-4-13T1:17:38Z</time></trkpt>
<trkpt lat="46.30221599712968" lon="8.61961092799902"><ele></ele><time>2015-4-13T1:17:41Z</time></trkpt>
<trkpt lat="46.302512967959046" lon="8.619141960516572"><ele></ele><time>2015-4-13T1:17:44Z</time></trkpt>
<trkpt lat="46.3027779199183" lon="8.618799978867173"><ele></ele><time>2015-4-13T1:17:47Z</time></trkpt>
<trkpt lat="46.30308696068823" lon="8.618589928373694"><ele></ele><time>2015-4-13T1:17:50Z</time></trkpt>
<trkpt lat="46.30328997038305" lon="8.618478951975703"><ele></ele><time>2015-4-13T1:17:53Z</time></trkpt>
<trkpt lat="46.30353095009923" lon="8.618330927565694"><ele></ele><time>2015-4-13T1:17:56Z</time></trkpt>
<trkpt lat="46.30372398532927" lon="8.618139987811446"><ele></ele><time>2015-4-13T1:17:59Z</time></trkpt>
<trkpt lat="46.303969994187355" lon="8.61782692372799"><ele></ele><time>2015-4-13T1:18:2Z</time></trkpt>
<trkpt lat="46.3042819686234" lon="8.617410929873586"><ele></ele><time>2015-4-13T1:18:5Z</time></trkpt>
<trkpt lat="46.30445899441838" lon="8.617173973470926"><ele></ele><time>2015-4-13T1:18:8Z</time></trkpt>
<trkpt lat="46.304661920294166" lon="8.616903992369771"><ele></ele><time>2015-4-13T1:18:11Z</time></trkpt>
<trkpt lat="46.30486995913088" lon="8.616612972691655"><ele></ele><time>2015-4-13T1:18:14Z</time></trkpt>
<trkpt lat="46.30501194857061" lon="8.61638892441988"><ele></ele><time>2015-4-13T1:18:17Z</time></trkpt>
<trkpt lat="46.30518998019397" lon="8.616105951368809"><ele></ele><time>2015-4-13T1:18:20Z</time></trkpt>
<trkpt lat="46.30544495768845" lon="8.615704961121082"><ele></ele><time>2015-4-13T1:18:23Z</time></trkpt>
<trkpt lat="46.305621983483434" lon="8.615424921736121"><ele></ele><time>2015-4-13T1:18:26Z</time></trkpt>
<trkpt lat="46.30583295598626" lon="8.615092998370528"><ele></ele><time>2015-4-13T1:18:29Z</time></trkpt>
<trkpt lat="46.30593194626272" lon="8.614934999495745"><ele></ele><time>2015-4-13T1:18:32Z</time></trkpt>
<trkpt lat="46.3061779551208" lon="8.614448932930827"><ele></ele><time>2015-4-13T1:18:35Z</time></trkpt>
<trkpt lat="46.30624199286103" lon="8.614102927967906"><ele></ele><time>2015-4-13T1:18:38Z</time></trkpt>
<trkpt lat="46.30628893151879" lon="8.613822972401977"><ele></ele><time>2015-4-13T1:18:41Z</time></trkpt>
<trkpt lat="46.30641097202897" lon="8.613114953041077"><ele></ele><time>2015-4-13T1:18:44Z</time></trkpt>
<trkpt lat="46.30651599727571" lon="8.612613966688514"><ele></ele><time>2015-4-13T1:18:47Z</time></trkpt>
<trkpt lat="46.306573916226625" lon="8.612446999177337"><ele></ele><time>2015-4-13T1:18:50Z</time></trkpt>
<trkpt lat="46.30690894089639" lon="8.611923968419433"><ele></ele><time>2015-4-13T1:18:53Z</time></trkpt>
<trkpt lat="46.30718495696783" lon="8.611546950414777"><ele></ele><time>2015-4-13T1:18:56Z</time></trkpt>
<trkpt lat="46.30721798166633" lon="8.611502945423126"><ele></ele><time>2015-4-13T1:18:59Z</time></trkpt>
<trkpt lat="46.30763397552073" lon="8.610943956300616"><ele></ele><time>2015-4-13T1:19:2Z</time></trkpt>
<trkpt lat="46.30798199214041" lon="8.610635921359062"><ele></ele><time>2015-4-13T1:19:5Z</time></trkpt>
<trkpt lat="46.30833897739649" lon="8.610491920262575"><ele></ele><time>2015-4-13T1:19:8Z</time></trkpt>
<trkpt lat="46.30845699459314" lon="8.610448921099305"><ele></ele><time>2015-4-13T1:19:11Z</time></trkpt>
<trkpt lat="46.30848892964423" lon="8.610448921099305"><ele></ele><time>2015-4-13T1:19:14Z</time></trkpt>
<trkpt lat="46.30881993100047" lon="8.610426960512996"><ele></ele><time>2015-4-13T1:19:17Z</time></trkpt>
<trkpt lat="46.3089529518038" lon="8.610426960512996"><ele></ele><time>2015-4-13T1:19:20Z</time></trkpt>
<trkpt lat="46.30905194208026" lon="8.610374992713332"><ele></ele><time>2015-4-13T1:19:23Z</time></trkpt>
<trkpt lat="46.309083960950375" lon="8.610272984951735"><ele></ele><time>2015-4-13T1:19:26Z</time></trkpt>
<trkpt lat="46.309103993698955" lon="8.609840981662273"><ele></ele><time>2015-4-13T1:19:29Z</time></trkpt>
<trkpt lat="46.30911195650697" lon="8.60934192314744"><ele></ele><time>2015-4-13T1:19:32Z</time></trkpt>
<trkpt lat="46.30911195650697" lon="8.609183924272656"><ele></ele><time>2015-4-13T1:19:35Z</time></trkpt>
<trkpt lat="46.30922997370362" lon="8.608839930966496"><ele></ele><time>2015-4-13T1:19:38Z</time></trkpt>
<trkpt lat="46.309513952583075" lon="8.608270967379212"><ele></ele><time>2015-4-13T1:19:41Z</time></trkpt>
<trkpt lat="46.309643955901265" lon="8.608026970177889"><ele></ele><time>2015-4-13T1:19:44Z</time></trkpt>
<trkpt lat="46.3097629789263" lon="8.607907947152853"><ele></ele><time>2015-4-13T1:19:47Z</time></trkpt>
<trkpt lat="46.309962971135974" lon="8.60777098685503"><ele></ele><time>2015-4-13T1:19:50Z</time></trkpt>
<trkpt lat="46.310116946697235" lon="8.607155922800303"><ele></ele><time>2015-4-13T1:19:53Z</time></trkpt>
<trkpt lat="46.31036094389856" lon="8.606682932004333"><ele></ele><time>2015-4-13T1:19:56Z</time></trkpt>
<trkpt lat="46.3106039352715" lon="8.606279930099845"><ele></ele><time>2015-4-13T1:19:59Z</time></trkpt>
<trkpt lat="46.310933930799365" lon="8.605893943458796"><ele></ele><time>2015-4-13T1:20:2Z</time></trkpt>
<trkpt lat="46.31118597462773" lon="8.605621950700879"><ele></ele><time>2015-4-13T1:20:5Z</time></trkpt>
<trkpt lat="46.31155092269182" lon="8.605241999030113"><ele></ele><time>2015-4-13T1:20:8Z</time></trkpt>
<trkpt lat="46.31186499260366" lon="8.604984926059842"><ele></ele><time>2015-4-13T1:20:11Z</time></trkpt>
<trkpt lat="46.31219398230314" lon="8.60476297326386"><ele></ele><time>2015-4-13T1:20:14Z</time></trkpt>
<trkpt lat="46.31257493980229" lon="8.60452693887055"><ele></ele><time>2015-4-13T1:20:17Z</time></trkpt>
<trkpt lat="46.31304399110377" lon="8.604235919192433"><ele></ele><time>2015-4-13T1:20:20Z</time></trkpt>
<trkpt lat="46.31338899023831" lon="8.604021929204464"><ele></ele><time>2015-4-13T1:20:23Z</time></trkpt>
<trkpt lat="46.31377992220223" lon="8.603768963366747"><ele></ele><time>2015-4-13T1:20:26Z</time></trkpt>
<trkpt lat="46.31400095298886" lon="8.603632925078273"><ele></ele><time>2015-4-13T1:20:29Z</time></trkpt>
<trkpt lat="46.314306976273656" lon="8.603443996980786"><ele></ele><time>2015-4-13T1:20:32Z</time></trkpt>
<trkpt lat="46.31456094793975" lon="8.603286920115352"><ele></ele><time>2015-4-13T1:20:35Z</time></trkpt>
<trkpt lat="46.31482598371804" lon="8.603123975917697"><ele></ele><time>2015-4-13T1:20:38Z</time></trkpt>
<trkpt lat="46.31513896398246" lon="8.602925995364785"><ele></ele><time>2015-4-13T1:20:41Z</time></trkpt>
<trkpt lat="46.315444987267256" lon="8.602729942649603"><ele></ele><time>2015-4-13T1:20:44Z</time></trkpt>
<trkpt lat="46.31566694006324" lon="8.602587953209877"><ele></ele><time>2015-4-13T1:20:47Z</time></trkpt>
<trkpt lat="46.31588394753635" lon="8.60244395211339"><ele></ele><time>2015-4-13T1:20:50Z</time></trkpt>
<trkpt lat="46.31613791920245" lon="8.602275978773832"><ele></ele><time>2015-4-13T1:20:53Z</time></trkpt>
<trkpt lat="46.31637596525252" lon="8.602133989334106"><ele></ele><time>2015-4-13T1:20:56Z</time></trkpt>
<trkpt lat="46.31642893888056" lon="8.602101970463991"><ele></ele><time>2015-4-13T1:20:59Z</time></trkpt>
<trkpt lat="46.31676094606519" lon="8.602040950208902"><ele></ele><time>2015-4-13T1:21:2Z</time></trkpt>
<trkpt lat="46.3169089704752" lon="8.602008931338787"><ele></ele><time>2015-4-13T1:21:5Z</time></trkpt>
<trkpt lat="46.316946940496564" lon="8.601998956874013"><ele></ele><time>2015-4-13T1:21:8Z</time></trkpt>
<trkpt lat="46.3168949726969" lon="8.602011948823929"><ele></ele><time>2015-4-13T1:21:11Z</time></trkpt>
<trkpt lat="46.3168949726969" lon="8.602011948823929"><ele></ele><time>2015-4-13T1:21:14Z</time></trkpt>
<trkpt lat="46.3168949726969" lon="8.602011948823929"><ele></ele><time>2015-4-13T1:21:17Z</time></trkpt>
<trkpt lat="46.31683596409857" lon="8.602026952430606"><ele></ele><time>2015-4-13T1:21:20Z</time></trkpt>
<trkpt lat="46.31665592081845" lon="8.60207598656416"><ele></ele><time>2015-4-13T1:21:23Z</time></trkpt>
<trkpt lat="46.31648492999375" lon="8.60212292522192"><ele></ele><time>2015-4-13T1:21:26Z</time></trkpt>
<trkpt lat="46.31640697829425" lon="8.601940954104066"><ele></ele><time>2015-4-13T1:21:29Z</time></trkpt>
<trkpt lat="46.31640697829425" lon="8.601900972425938"><ele></ele><time>2015-4-13T1:21:32Z</time></trkpt>
<trkpt lat="46.31637294776738" lon="8.601647922769189"><ele></ele><time>2015-4-13T1:21:35Z</time></trkpt>
<trkpt lat="46.31627295166254" lon="8.601579945534468"><ele></ele><time>2015-4-13T1:21:38Z</time></trkpt>
<trkpt lat="46.31607396528125" lon="8.601512974128127"><ele></ele><time>2015-4-13T1:21:41Z</time></trkpt>
<trkpt lat="46.31575997918844" lon="8.601449942216277"><ele></ele><time>2015-4-13T1:21:44Z</time></trkpt>
<trkpt lat="46.31559896282852" lon="8.601414989680052"><ele></ele><time>2015-4-13T1:21:47Z</time></trkpt>
<trkpt lat="46.31540693342686" lon="8.601354975253344"><ele></ele><time>2015-4-13T1:21:50Z</time></trkpt>
<trkpt lat="46.31522194482386" lon="8.601251961663365"><ele></ele><time>2015-4-13T1:21:53Z</time></trkpt>
<trkpt lat="46.314975935965776" lon="8.601073930040002"><ele></ele><time>2015-4-13T1:21:56Z</time></trkpt>
<trkpt lat="46.314839981496334" lon="8.600968988612294"><ele></ele><time>2015-4-13T1:21:59Z</time></trkpt>
<trkpt lat="46.31462096236646" lon="8.600778970867395"><ele></ele><time>2015-4-13T1:22:2Z</time></trkpt>
<trkpt lat="46.31439699791372" lon="8.600591970607638"><ele></ele><time>2015-4-13T1:22:5Z</time></trkpt>
<trkpt lat="46.31417194381356" lon="8.600392984226346"><ele></ele><time>2015-4-13T1:22:8Z</time></trkpt>
<trkpt lat="46.31397195160389" lon="8.600215958431363"><ele></ele><time>2015-4-13T1:22:11Z</time></trkpt>
<trkpt lat="46.313724936917424" lon="8.59999693930149"><ele></ele><time>2015-4-13T1:22:14Z</time></trkpt>
<trkpt lat="46.31349694915116" lon="8.599795941263437"><ele></ele><time>2015-4-13T1:22:17Z</time></trkpt>
<trkpt lat="46.31330399774015" lon="8.599592931568623"><ele></ele><time>2015-4-13T1:22:20Z</time></trkpt>
<trkpt lat="46.313295951113105" lon="8.599432921037078"><ele></ele><time>2015-4-13T1:22:23Z</time></trkpt>
<trkpt lat="46.31334196776152" lon="8.599249944090843"><ele></ele><time>2015-4-13T1:22:26Z</time></trkpt>
<trkpt lat="46.313422936946154" lon="8.59906897880137"><ele></ele><time>2015-4-13T1:22:29Z</time></trkpt>
<trkpt lat="46.31352092139423" lon="8.598894970491529"><ele></ele><time>2015-4-13T1:22:32Z</time></trkpt>
<trkpt lat="46.31360499188304" lon="8.598753986880183"><ele></ele><time>2015-4-13T1:22:35Z</time></trkpt>
<trkpt lat="46.31363298743963" lon="8.598628928884864"><ele></ele><time>2015-4-13T1:22:38Z</time></trkpt>
<trkpt lat="46.31358998827636" lon="8.59846891835332"><ele></ele><time>2015-4-13T1:22:41Z</time></trkpt>
<trkpt lat="46.3135049957782" lon="8.598415944725275"><ele></ele><time>2015-4-13T1:22:44Z</time></trkpt>
<trkpt lat="46.31335596553981" lon="8.598366994410753"><ele></ele><time>2015-4-13T1:22:47Z</time></trkpt>
<trkpt lat="46.31322093307972" lon="8.598321983590722"><ele></ele><time>2015-4-13T1:22:50Z</time></trkpt>
<trkpt lat="46.313123954460025" lon="8.598249983042479"><ele></ele><time>2015-4-13T1:22:53Z</time></trkpt>
<trkpt lat="46.313080955296755" lon="8.598129954189062"><ele></ele><time>2015-4-13T1:22:56Z</time></trkpt>
<trkpt lat="46.313080955296755" lon="8.597977990284562"><ele></ele><time>2015-4-13T1:22:59Z</time></trkpt>
<trkpt lat="46.313080955296755" lon="8.597826948389411"><ele></ele><time>2015-4-13T1:23:2Z</time></trkpt>
<trkpt lat="46.31304399110377" lon="8.597583957016468"><ele></ele><time>2015-4-13T1:23:5Z</time></trkpt>
<trkpt lat="46.31300593726337" lon="8.597473986446857"><ele></ele><time>2015-4-13T1:23:8Z</time></trkpt>
<trkpt lat="46.31294592283666" lon="8.59732998535037"><ele></ele><time>2015-4-13T1:23:11Z</time></trkpt>
<trkpt lat="46.31287593394518" lon="8.597163939848542"><ele></ele><time>2015-4-13T1:23:14Z</time></trkpt>
<trkpt lat="46.31278599612415" lon="8.596970988437533"><ele></ele><time>2015-4-13T1:23:17Z</time></trkpt>
<trkpt lat="46.31278993561864" lon="8.596718944609165"><ele></ele><time>2015-4-13T1:23:20Z</time></trkpt>
<trkpt lat="46.31262196227908" lon="8.596668988466263"><ele></ele><time>2015-4-13T1:23:23Z</time></trkpt>
<trkpt lat="46.312630930915475" lon="8.596565974876285"><ele></ele><time>2015-4-13T1:23:26Z</time></trkpt>
<trkpt lat="46.31261098198593" lon="8.596521969884634"><ele></ele><time>2015-4-13T1:23:29Z</time></trkpt>
<trkpt lat="46.31272899918258" lon="8.596626995131373"><ele></ele><time>2015-4-13T1:23:32Z</time></trkpt>
<trkpt lat="46.31282899528742" lon="8.596777953207493"><ele></ele><time>2015-4-13T1:23:35Z</time></trkpt>
<trkpt lat="46.312906946986914" lon="8.596893958747387"><ele></ele><time>2015-4-13T1:23:38Z</time></trkpt>
<trkpt lat="46.31298397667706" lon="8.597009964287281"><ele></ele><time>2015-4-13T1:23:41Z</time></trkpt>
<trkpt lat="46.31307299248874" lon="8.597143990918994"><ele></ele><time>2015-4-13T1:23:44Z</time></trkpt>
<trkpt lat="46.31321498192847" lon="8.597288997843862"><ele></ele><time>2015-4-13T1:23:47Z</time></trkpt>
<trkpt lat="46.31335093639791" lon="8.597399974241853"><ele></ele><time>2015-4-13T1:23:50Z</time></trkpt>
<trkpt lat="46.313485968858004" lon="8.597477925941348"><ele></ele><time>2015-4-13T1:23:53Z</time></trkpt>
<trkpt lat="46.31358998827636" lon="8.597536934539676"><ele></ele><time>2015-4-13T1:23:56Z</time></trkpt>
<trkpt lat="46.313747987151146" lon="8.59758697450161"><ele></ele><time>2015-4-13T1:23:59Z</time></trkpt>
<trkpt lat="46.313872961327434" lon="8.597618993371725"><ele></ele><time>2015-4-13T1:24:2Z</time></trkpt>
<trkpt lat="46.314024925231934" lon="8.597657969221473"><ele></ele><time>2015-4-13T1:24:5Z</time></trkpt>
<trkpt lat="46.314130956307054" lon="8.597685964778066"><ele></ele><time>2015-4-13T1:24:8Z</time></trkpt>
<trkpt lat="46.31427495740354" lon="8.597717983648181"><ele></ele><time>2015-4-13T1:24:11Z</time></trkpt>
<trkpt lat="46.31439599208534" lon="8.597742961719632"><ele></ele><time>2015-4-13T1:24:14Z</time></trkpt>
<trkpt lat="46.3145309407264" lon="8.597706919535995"><ele></ele><time>2015-4-13T1:24:17Z</time></trkpt>
<trkpt lat="46.31456094793975" lon="8.597660986706614"><ele></ele><time>2015-4-13T1:24:20Z</time></trkpt>
<trkpt lat="46.314518954604864" lon="8.597595943138003"><ele></ele><time>2015-4-13T1:24:23Z</time></trkpt>
<trkpt lat="46.31450294516981" lon="8.597568953409791"><ele></ele><time>2015-4-13T1:24:26Z</time></trkpt>
<trkpt lat="46.31435098126531" lon="8.597569959238172"><ele></ele><time>2015-4-13T1:24:29Z</time></trkpt>
<trkpt lat="46.31418594159186" lon="8.597539952024817"><ele></ele><time>2015-4-13T1:24:32Z</time></trkpt>
<trkpt lat="46.31403096020222" lon="8.597445990890265"><ele></ele><time>2015-4-13T1:24:35Z</time></trkpt>
<trkpt lat="46.31387799046934" lon="8.597337948158383"><ele></ele><time>2015-4-13T1:24:38Z</time></trkpt>
<trkpt lat="46.313727954402566" lon="8.597232922911644"><ele></ele><time>2015-4-13T1:24:41Z</time></trkpt>
<trkpt lat="46.313596945255995" lon="8.597140973433852"><ele></ele><time>2015-4-13T1:24:44Z</time></trkpt>
<trkpt lat="46.31347691640258" lon="8.597022956237197"><ele></ele><time>2015-4-13T1:24:47Z</time></trkpt>
<trkpt lat="46.313363928347826" lon="8.596829921007156"><ele></ele><time>2015-4-13T1:24:50Z</time></trkpt>
<trkpt lat="46.313253957778215" lon="8.59664199873805"><ele></ele><time>2015-4-13T1:24:53Z</time></trkpt>
<trkpt lat="46.313122948631644" lon="8.596463967114687"><ele></ele><time>2015-4-13T1:24:56Z</time></trkpt>
<trkpt lat="46.31300996057689" lon="8.5963199660182"><ele></ele><time>2015-4-13T1:24:59Z</time></trkpt>
<trkpt lat="46.31290493533015" lon="8.596180994063616"><ele></ele><time>2015-4-13T1:25:2Z</time></trkpt>
<trkpt lat="46.312887920066714" lon="8.59610497020185"><ele></ele><time>2015-4-13T1:25:5Z</time></trkpt>
<trkpt lat="46.31253596395254" lon="8.596360953524709"><ele></ele><time>2015-4-13T1:25:8Z</time></trkpt>
<trkpt lat="46.3129489403218" lon="8.596238996833563"><ele></ele><time>2015-4-13T1:25:11Z</time></trkpt>
<trkpt lat="46.31312998943031" lon="8.596239918842912"><ele></ele><time>2015-4-13T1:25:14Z</time></trkpt>
<trkpt lat="46.31325697526336" lon="8.596394984051585"><ele></ele><time>2015-4-13T1:25:17Z</time></trkpt>
<trkpt lat="46.313359988853335" lon="8.596519958227873"><ele></ele><time>2015-4-13T1:25:20Z</time></trkpt>
<trkpt lat="46.31347792223096" lon="8.596661947667599"><ele></ele><time>2015-4-13T1:25:23Z</time></trkpt>
<trkpt lat="46.313555957749486" lon="8.596756998449564"><ele></ele><time>2015-4-13T1:25:26Z</time></trkpt>
<trkpt lat="46.313657965511084" lon="8.596849953755736"><ele></ele><time>2015-4-13T1:25:29Z</time></trkpt>
<trkpt lat="46.31377397105098" lon="8.59694592654705"><ele></ele><time>2015-4-13T1:25:32Z</time></trkpt>
<trkpt lat="46.31386893801391" lon="8.5970089584589"><ele></ele><time>2015-4-13T1:25:35Z</time></trkpt>
<trkpt lat="46.31400095298886" lon="8.597060926258564"><ele></ele><time>2015-4-13T1:25:38Z</time></trkpt>
<trkpt lat="46.31412198767066" lon="8.597107948735356"><ele></ele><time>2015-4-13T1:25:41Z</time></trkpt>
<trkpt lat="46.314242938533425" lon="8.597147930413485"><ele></ele><time>2015-4-13T1:25:44Z</time></trkpt>
<trkpt lat="46.31436095573008" lon="8.597162934020162"><ele></ele><time>2015-4-13T1:25:47Z</time></trkpt>
<trkpt lat="46.314496994018555" lon="8.59711297787726"><ele></ele><time>2015-4-13T1:25:50Z</time></trkpt>
<trkpt lat="46.314624985679984" lon="8.597044916823506"><ele></ele><time>2015-4-13T1:25:53Z</time></trkpt>
<trkpt lat="46.314736967906356" lon="8.596981968730688"><ele></ele><time>2015-4-13T1:25:56Z</time></trkpt>
<trkpt lat="46.31483595818281" lon="8.596926983445883"><ele></ele><time>2015-4-13T1:25:59Z</time></trkpt>
<trkpt lat="46.314926985651255" lon="8.596808966249228"><ele></ele><time>2015-4-13T1:26:2Z</time></trkpt>
<trkpt lat="46.314926985651255" lon="8.596763955429196"><ele></ele><time>2015-4-13T1:26:5Z</time></trkpt>
<trkpt lat="46.31489999592304" lon="8.596745934337378"><ele></ele><time>2015-4-13T1:26:8Z</time></trkpt>
<trkpt lat="46.314843920990825" lon="8.596754986792803"><ele></ele><time>2015-4-13T1:26:11Z</time></trkpt>
<trkpt lat="46.314671924337745" lon="8.596829921007156"><ele></ele><time>2015-4-13T1:26:14Z</time></trkpt>
<trkpt lat="46.31457896903157" lon="8.596870992332697"><ele></ele><time>2015-4-13T1:26:17Z</time></trkpt>
<trkpt lat="46.31442398764193" lon="8.596903933212161"><ele></ele><time>2015-4-13T1:26:20Z</time></trkpt>
<trkpt lat="46.31433899514377" lon="8.59687996096909"><ele></ele><time>2015-4-13T1:26:23Z</time></trkpt>
<trkpt lat="46.31422592326999" lon="8.596808966249228"><ele></ele><time>2015-4-13T1:26:26Z</time></trkpt>
<trkpt lat="46.31412098184228" lon="8.596694972366095"><ele></ele><time>2015-4-13T1:26:29Z</time></trkpt>
<trkpt lat="46.31399299018085" lon="8.59655792824924"><ele></ele><time>2015-4-13T1:26:32Z</time></trkpt>
<trkpt lat="46.31390498019755" lon="8.596433959901333"><ele></ele><time>2015-4-13T1:26:35Z</time></trkpt>
<trkpt lat="46.31382392719388" lon="8.596307979896665"><ele></ele><time>2015-4-13T1:26:38Z</time></trkpt>
<trkpt lat="46.313727954402566" lon="8.59616699628532"><ele></ele><time>2015-4-13T1:26:41Z</time></trkpt>
<trkpt lat="46.313657965511084" lon="8.596066916361451"><ele></ele><time>2015-4-13T1:26:44Z</time></trkpt>
<trkpt lat="46.313594933599234" lon="8.595978990197182"><ele></ele><time>2015-4-13T1:26:47Z</time></trkpt>
<trkpt lat="46.3134809397161" lon="8.59584697522223"><ele></ele><time>2015-4-13T1:26:50Z</time></trkpt>
<trkpt lat="46.3133789319545" lon="8.59574194997549"><ele></ele><time>2015-4-13T1:26:53Z</time></trkpt>
<trkpt lat="46.31327994167805" lon="8.595637930557132"><ele></ele><time>2015-4-13T1:26:56Z</time></trkpt>
<trkpt lat="46.31317592225969" lon="8.595528965815902"><ele></ele><time>2015-4-13T1:26:59Z</time></trkpt>
<trkpt lat="46.31307098083198" lon="8.595418995246291"><ele></ele><time>2015-4-13T1:27:2Z</time></trkpt>
<trkpt lat="46.31299898028374" lon="8.59531095251441"><ele></ele><time>2015-4-13T1:27:5Z</time></trkpt>
<trkpt lat="46.31287794560194" lon="8.595084976404905"><ele></ele><time>2015-4-13T1:27:8Z</time></trkpt>
<trkpt lat="46.31285497918725" lon="8.594926977530122"><ele></ele><time>2015-4-13T1:27:11Z</time></trkpt>
<trkpt lat="46.312866965308785" lon="8.594891941174865"><ele></ele><time>2015-4-13T1:27:14Z</time></trkpt>
<trkpt lat="46.312866965308785" lon="8.594891941174865"><ele></ele><time>2015-4-13T1:27:17Z</time></trkpt>
<trkpt lat="46.312866965308785" lon="8.594891941174865"><ele></ele><time>2015-4-13T1:27:20Z</time></trkpt>
<trkpt lat="46.312866965308785" lon="8.594891941174865"><ele></ele><time>2015-4-13T1:27:23Z</time></trkpt>
<trkpt lat="46.312932930886745" lon="8.594897976145148"><ele></ele><time>2015-4-13T1:27:26Z</time></trkpt>
<trkpt lat="46.312974924221635" lon="8.594997972249985"><ele></ele><time>2015-4-13T1:27:29Z</time></trkpt>
<trkpt lat="46.31304097361863" lon="8.595151947811246"><ele></ele><time>2015-4-13T1:27:32Z</time></trkpt>
<trkpt lat="46.31314096972346" lon="8.595251943916082"><ele></ele><time>2015-4-13T1:27:35Z</time></trkpt>
<trkpt lat="46.3132409658283" lon="8.595315981656313"><ele></ele><time>2015-4-13T1:27:38Z</time></trkpt>
<trkpt lat="46.31334892474115" lon="8.595384964719415"><ele></ele><time>2015-4-13T1:27:41Z</time></trkpt>
<trkpt lat="46.313485968858004" lon="8.595474986359477"><ele></ele><time>2015-4-13T1:27:44Z</time></trkpt>
<trkpt lat="46.31362292915583" lon="8.595562996342778"><ele></ele><time>2015-4-13T1:27:47Z</time></trkpt>
<trkpt lat="46.3137399405241" lon="8.595688976347446"><ele></ele><time>2015-4-13T1:27:50Z</time></trkpt>
<trkpt lat="46.31386692635715" lon="8.59582593664527"><ele></ele><time>2015-4-13T1:27:53Z</time></trkpt>
<trkpt lat="46.314024925231934" lon="8.595985947176814"><ele></ele><time>2015-4-13T1:27:56Z</time></trkpt>
<trkpt lat="46.31414193660021" lon="8.596102958545089"><ele></ele><time>2015-4-13T1:27:59Z</time></trkpt>
<trkpt lat="46.31422692909837" lon="8.596187951043248"><ele></ele><time>2015-4-13T1:28:2Z</time></trkpt>
<trkpt lat="46.31431896239519" lon="8.596274955198169"><ele></ele><time>2015-4-13T1:28:5Z</time></trkpt>
<trkpt lat="46.314456928521395" lon="8.596307979896665"><ele></ele><time>2015-4-13T1:28:8Z</time></trkpt>
<trkpt lat="46.3146379776299" lon="8.596237991005182"><ele></ele><time>2015-4-13T1:28:11Z</time></trkpt>
<trkpt lat="46.31477292627096" lon="8.596118967980146"><ele></ele><time>2015-4-13T1:28:14Z</time></trkpt>
<trkpt lat="46.314882980659604" lon="8.59599793329835"><ele></ele><time>2015-4-13T1:28:17Z</time></trkpt>
<trkpt lat="46.314931930974126" lon="8.595850998535752"><ele></ele><time>2015-4-13T1:28:20Z</time></trkpt>
<trkpt lat="46.314883986487985" lon="8.595857955515385"><ele></ele><time>2015-4-13T1:28:23Z</time></trkpt>
<trkpt lat="46.314840987324715" lon="8.595835994929075"><ele></ele><time>2015-4-13T1:28:26Z</time></trkpt>
<trkpt lat="46.314823972061276" lon="8.595857955515385"><ele></ele><time>2015-4-13T1:28:29Z</time></trkpt>
<trkpt lat="46.314713917672634" lon="8.59597496688366"><ele></ele><time>2015-4-13T1:28:32Z</time></trkpt>
<trkpt lat="46.314604952931404" lon="8.596054930239916"><ele></ele><time>2015-4-13T1:28:35Z</time></trkpt>
<trkpt lat="46.31451493129134" lon="8.596071945503354"><ele></ele><time>2015-4-13T1:28:38Z</time></trkpt>
<trkpt lat="46.31439398042858" lon="8.596002962440252"><ele></ele><time>2015-4-13T1:28:41Z</time></trkpt>
<trkpt lat="46.314282920211554" lon="8.595908917486668"><ele></ele><time>2015-4-13T1:28:44Z</time></trkpt>
<trkpt lat="46.31414998322725" lon="8.595770951360464"><ele></ele><time>2015-4-13T1:28:47Z</time></trkpt>
<trkpt lat="46.314068930223584" lon="8.595657963305712"><ele></ele><time>2015-4-13T1:28:50Z</time></trkpt>
<trkpt lat="46.313979998230934" lon="8.595535922795534"><ele></ele><time>2015-4-13T1:28:53Z</time></trkpt>
<trkpt lat="46.313893999904394" lon="8.595399968326092"><ele></ele><time>2015-4-13T1:28:56Z</time></trkpt>
<trkpt lat="46.31382493302226" lon="8.595255967229605"><ele></ele><time>2015-4-13T1:28:59Z</time></trkpt>
<trkpt lat="46.31375796161592" lon="8.59511699527502"><ele></ele><time>2015-4-13T1:29:2Z</time></trkpt>
<trkpt lat="46.3136759866029" lon="8.59494592063129"><ele></ele><time>2015-4-13T1:29:5Z</time></trkpt>
<trkpt lat="46.31355092860758" lon="8.594823963940144"><ele></ele><time>2015-4-13T1:29:8Z</time></trkpt>
<trkpt lat="46.31348395720124" lon="8.594768978655338"><ele></ele><time>2015-4-13T1:29:11Z</time></trkpt>
<trkpt lat="46.313382955268025" lon="8.594636963680387"><ele></ele><time>2015-4-13T1:29:14Z</time></trkpt>
<trkpt lat="46.313359988853335" lon="8.594432948157191"><ele></ele><time>2015-4-13T1:29:17Z</time></trkpt>
<trkpt lat="46.31337096914649" lon="8.594273943454027"><ele></ele><time>2015-4-13T1:29:20Z</time></trkpt>
<trkpt lat="46.313379937782884" lon="8.594158943742514"><ele></ele><time>2015-4-13T1:29:23Z</time></trkpt>
<trkpt lat="46.31339896470308" lon="8.594096917659044"><ele></ele><time>2015-4-13T1:29:26Z</time></trkpt>
<trkpt lat="46.313295951113105" lon="8.59406791627407"><ele></ele><time>2015-4-13T1:29:29Z</time></trkpt>
<trkpt lat="46.31329192779958" lon="8.594093983992934"><ele></ele><time>2015-4-13T1:29:32Z</time></trkpt>
<trkpt lat="46.31328798830509" lon="8.594113932922482"><ele></ele><time>2015-4-13T1:29:35Z</time></trkpt>
<trkpt lat="46.313362922519445" lon="8.594367988407612"><ele></ele><time>2015-4-13T1:29:38Z</time></trkpt>
<trkpt lat="46.313359988853335" lon="8.594521963968873"><ele></ele><time>2015-4-13T1:29:41Z</time></trkpt>
<trkpt lat="46.313594933599234" lon="8.594540990889072"><ele></ele><time>2015-4-13T1:29:44Z</time></trkpt>
<trkpt lat="46.31368696689606" lon="8.594626989215612"><ele></ele><time>2015-4-13T1:29:47Z</time></trkpt>
<trkpt lat="46.313768941909075" lon="8.594702929258347"><ele></ele><time>2015-4-13T1:29:50Z</time></trkpt>
<trkpt lat="46.313856951892376" lon="8.594809966161847"><ele></ele><time>2015-4-13T1:29:53Z</time></trkpt>
<trkpt lat="46.31397295743227" lon="8.594979951158166"><ele></ele><time>2015-4-13T1:29:56Z</time></trkpt>
<trkpt lat="46.31406499072909" lon="8.59511598944664"><ele></ele><time>2015-4-13T1:29:59Z</time></trkpt>
<trkpt lat="46.314134979620576" lon="8.595217997208238"><ele></ele><time>2015-4-13T1:30:2Z</time></trkpt>
<trkpt lat="46.31422298960388" lon="8.595338948071003"><ele></ele><time>2015-4-13T1:30:5Z</time></trkpt>
<trkpt lat="46.31430798210204" lon="8.595448918640614"><ele></ele><time>2015-4-13T1:30:8Z</time></trkpt>
<trkpt lat="46.31444997154176" lon="8.595507927238941"><ele></ele><time>2015-4-13T1:30:11Z</time></trkpt>
<trkpt lat="46.31455298513174" lon="8.595454953610897"><ele></ele><time>2015-4-13T1:30:14Z</time></trkpt>
<trkpt lat="46.31464191712439" lon="8.595315981656313"><ele></ele><time>2015-4-13T1:30:17Z</time></trkpt>
<trkpt lat="46.314710984006524" lon="8.595108948647976"><ele></ele><time>2015-4-13T1:30:20Z</time></trkpt>
<trkpt lat="46.31475197151303" lon="8.594949943944812"><ele></ele><time>2015-4-13T1:30:23Z</time></trkpt>
<trkpt lat="46.314754988998175" lon="8.594934940338135"><ele></ele><time>2015-4-13T1:30:26Z</time></trkpt>
<trkpt lat="46.314711989834905" lon="8.594934940338135"><ele></ele><time>2015-4-13T1:30:29Z</time></trkpt>
<trkpt lat="46.31465792655945" lon="8.594999983906746"><ele></ele><time>2015-4-13T1:30:32Z</time></trkpt>
<trkpt lat="46.314649963751435" lon="8.595293937250972"><ele></ele><time>2015-4-13T1:30:35Z</time></trkpt>
<trkpt lat="46.31446799263358" lon="8.595234928652644"><ele></ele><time>2015-4-13T1:30:38Z</time></trkpt>
<trkpt lat="46.31434394046664" lon="8.59515798278153"><ele></ele><time>2015-4-13T1:30:41Z</time></trkpt>
<trkpt lat="46.314283926039934" lon="8.595023956149817"><ele></ele><time>2015-4-13T1:30:44Z</time></trkpt>
<trkpt lat="46.31423095241189" lon="8.594891941174865"><ele></ele><time>2015-4-13T1:30:47Z</time></trkpt>
<trkpt lat="46.314175967127085" lon="8.594753975048661"><ele></ele><time>2015-4-13T1:30:50Z</time></trkpt>
<trkpt lat="46.31410396657884" lon="8.594572925940156"><ele></ele><time>2015-4-13T1:30:53Z</time></trkpt>
<trkpt lat="46.31403498351574" lon="8.594436971470714"><ele></ele><time>2015-4-13T1:30:56Z</time></trkpt>
<trkpt lat="46.31394999101758" lon="8.594315936788917"><ele></ele><time>2015-4-13T1:30:59Z</time></trkpt>
<trkpt lat="46.313855946063995" lon="8.594092978164554"><ele></ele><time>2015-4-13T1:31:2Z</time></trkpt>
<trkpt lat="46.3138609752059" lon="8.594043944031"><ele></ele><time>2015-4-13T1:31:5Z</time></trkpt>
<trkpt lat="46.313898945227265" lon="8.593846969306469"><ele></ele><time>2015-4-13T1:31:8Z</time></trkpt>
<trkpt lat="46.313939932733774" lon="8.59370095655322"><ele></ele><time>2015-4-13T1:31:11Z</time></trkpt>
<trkpt lat="46.313958959653974" lon="8.593555949628353"><ele></ele><time>2015-4-13T1:31:14Z</time></trkpt>
<trkpt lat="46.313919983804226" lon="8.593426952138543"><ele></ele><time>2015-4-13T1:31:17Z</time></trkpt>
<trkpt lat="46.313875978812575" lon="8.593285968527198"><ele></ele><time>2015-4-13T1:31:20Z</time></trkpt>
<trkpt lat="46.31380498409271" lon="8.5931649338454"><ele></ele><time>2015-4-13T1:31:23Z</time></trkpt>
<trkpt lat="46.31376097910106" lon="8.593114977702498"><ele></ele><time>2015-4-13T1:31:26Z</time></trkpt>
<trkpt lat="46.31368696689606" lon="8.59303099103272"><ele></ele><time>2015-4-13T1:31:29Z</time></trkpt>
<trkpt lat="46.313596945255995" lon="8.59298899769783"><ele></ele><time>2015-4-13T1:31:32Z</time></trkpt>
<trkpt lat="46.31347398273647" lon="8.592935940250754"><ele></ele><time>2015-4-13T1:31:35Z</time></trkpt>
<trkpt lat="46.31337298080325" lon="8.59288397245109"><ele></ele><time>2015-4-13T1:31:38Z</time></trkpt>
<trkpt lat="46.313295951113105" lon="8.592774923890829"><ele></ele><time>2015-4-13T1:31:41Z</time></trkpt>
<trkpt lat="46.31318396888673" lon="8.592617930844426"><ele></ele><time>2015-4-13T1:31:44Z</time></trkpt>
<trkpt lat="46.31311297416687" lon="8.592516928911209"><ele></ele><time>2015-4-13T1:31:47Z</time></trkpt>
<trkpt lat="46.31304298527539" lon="8.592418944463134"><ele></ele><time>2015-4-13T1:31:50Z</time></trkpt>
<trkpt lat="46.31291692145169" lon="8.592298999428749"><ele></ele><time>2015-4-13T1:31:53Z</time></trkpt>
<trkpt lat="46.31281591951847" lon="8.59221593476832"><ele></ele><time>2015-4-13T1:31:56Z</time></trkpt>
<trkpt lat="46.312718940898776" lon="8.592136977240443"><ele></ele><time>2015-4-13T1:31:59Z</time></trkpt>
<trkpt lat="46.312587931752205" lon="8.592016948387027"><ele></ele><time>2015-4-13T1:32:2Z</time></trkpt>
<trkpt lat="46.312499921768904" lon="8.591928938403726"><ele></ele><time>2015-4-13T1:32:5Z</time></trkpt>
<trkpt lat="46.3124449364841" lon="8.59187395311892"><ele></ele><time>2015-4-13T1:32:8Z</time></trkpt>
<trkpt lat="46.312351981177926" lon="8.59172098338604"><ele></ele><time>2015-4-13T1:32:11Z</time></trkpt>
<trkpt lat="46.312282998114824" lon="8.591604977846146"><ele></ele><time>2015-4-13T1:32:14Z</time></trkpt>
<trkpt lat="46.312202950939536" lon="8.591469945386052"><ele></ele><time>2015-4-13T1:32:17Z</time></trkpt>
<trkpt lat="46.31211997009814" lon="8.591286968439817"><ele></ele><time>2015-4-13T1:32:20Z</time></trkpt>
<trkpt lat="46.31205894984305" lon="8.591116983443499"><ele></ele><time>2015-4-13T1:32:23Z</time></trkpt>
<trkpt lat="46.31201695650816" lon="8.590990919619799"><ele></ele><time>2015-4-13T1:32:26Z</time></trkpt>
<trkpt lat="46.31197194568813" lon="8.590856976807117"><ele></ele><time>2015-4-13T1:32:29Z</time></trkpt>
<trkpt lat="46.31194696761668" lon="8.590779947116971"><ele></ele><time>2015-4-13T1:32:32Z</time></trkpt>
<trkpt lat="46.312007987871766" lon="8.590600993484259"><ele></ele><time>2015-4-13T1:32:35Z</time></trkpt>
<trkpt lat="46.311943950131536" lon="8.590772990137339"><ele></ele><time>2015-4-13T1:32:38Z</time></trkpt>
<trkpt lat="46.312092980369925" lon="8.590855970978737"><ele></ele><time>2015-4-13T1:32:41Z</time></trkpt>
<trkpt lat="46.31214293651283" lon="8.591039953753352"><ele></ele><time>2015-4-13T1:32:44Z</time></trkpt>
<trkpt lat="46.31220596842468" lon="8.591217985376716"><ele></ele><time>2015-4-13T1:32:47Z</time></trkpt>
<trkpt lat="46.3122929725796" lon="8.591342959553003"><ele></ele><time>2015-4-13T1:32:50Z</time></trkpt>
<trkpt lat="46.312417946755886" lon="8.59150699339807"><ele></ele><time>2015-4-13T1:32:53Z</time></trkpt>
<trkpt lat="46.31251199170947" lon="8.591605983674526"><ele></ele><time>2015-4-13T1:32:56Z</time></trkpt>
<trkpt lat="46.31259195506573" lon="8.591690976172686"><ele></ele><time>2015-4-13T1:32:59Z</time></trkpt>
<trkpt lat="46.31270997226238" lon="8.591814944520593"><ele></ele><time>2015-4-13T1:33:2Z</time></trkpt>
<trkpt lat="46.312822960317135" lon="8.591868923977017"><ele></ele><time>2015-4-13T1:33:5Z</time></trkpt>
<trkpt lat="46.312927985563874" lon="8.591874958947301"><ele></ele><time>2015-4-13T1:33:8Z</time></trkpt>
<trkpt lat="46.31295992061496" lon="8.591844951733947"><ele></ele><time>2015-4-13T1:33:11Z</time></trkpt>
<trkpt lat="46.312973918393254" lon="8.591801952570677"><ele></ele><time>2015-4-13T1:33:14Z</time></trkpt>
<trkpt lat="46.31294198334217" lon="8.591753924265504"><ele></ele><time>2015-4-13T1:33:17Z</time></trkpt>
<trkpt lat="46.312908958643675" lon="8.591728946194053"><ele></ele><time>2015-4-13T1:33:20Z</time></trkpt>
<trkpt lat="46.31280795671046" lon="8.591675972566009"><ele></ele><time>2015-4-13T1:33:23Z</time></trkpt>
<trkpt lat="46.312756994739175" lon="8.591611934825778"><ele></ele><time>2015-4-13T1:33:26Z</time></trkpt>
<trkpt lat="46.31270594894886" lon="8.59154999256134"><ele></ele><time>2015-4-13T1:33:29Z</time></trkpt>
<trkpt lat="46.312607964500785" lon="8.591428957879543"><ele></ele><time>2015-4-13T1:33:32Z</time></trkpt>
<trkpt lat="46.312521966174245" lon="8.591311946511269"><ele></ele><time>2015-4-13T1:33:35Z</time></trkpt>
<trkpt lat="46.31242792122066" lon="8.591146990656853"><ele></ele><time>2015-4-13T1:33:38Z</time></trkpt>
<trkpt lat="46.31236094981432" lon="8.590977927669883"><ele></ele><time>2015-4-13T1:33:41Z</time></trkpt>
<trkpt lat="46.312330942600965" lon="8.590786987915635"><ele></ele><time>2015-4-13T1:33:44Z</time></trkpt>
<trkpt lat="46.312304958701134" lon="8.59062697738409"><ele></ele><time>2015-4-13T1:33:47Z</time></trkpt>
<trkpt lat="46.31230194121599" lon="8.59060493297875"><ele></ele><time>2015-4-13T1:33:50Z</time></trkpt>
<trkpt lat="46.312263971194625" lon="8.590478952974081"><ele></ele><time>2015-4-13T1:33:53Z</time></trkpt>
<trkpt lat="46.312263971194625" lon="8.590478952974081"><ele></ele><time>2015-4-13T1:33:56Z</time></trkpt>
<trkpt lat="46.312178978696465" lon="8.590351967141032"><ele></ele><time>2015-4-13T1:33:59Z</time></trkpt>
<trkpt lat="46.31207998842001" lon="8.59019597992301"><ele></ele><time>2015-4-13T1:34:2Z</time></trkpt>
<trkpt lat="46.31199298426509" lon="8.589963968843222"><ele></ele><time>2015-4-13T1:34:5Z</time></trkpt>
<trkpt lat="46.311917966231704" lon="8.589731957763433"><ele></ele><time>2015-4-13T1:34:8Z</time></trkpt>
<trkpt lat="46.31182392127812" lon="8.589504975825548"><ele></ele><time>2015-4-13T1:34:11Z</time></trkpt>
<trkpt lat="46.31175099872053" lon="8.589330967515707"><ele></ele><time>2015-4-13T1:34:14Z</time></trkpt>
<trkpt lat="46.31168897263706" lon="8.589181937277317"><ele></ele><time>2015-4-13T1:34:17Z</time></trkpt>
<trkpt lat="46.31160791963339" lon="8.588985968381166"><ele></ele><time>2015-4-13T1:34:20Z</time></trkpt>
<trkpt lat="46.3115519285202" lon="8.588807936757803"><ele></ele><time>2015-4-13T1:34:23Z</time></trkpt>
<trkpt lat="46.3114969432354" lon="8.588616997003555"><ele></ele><time>2015-4-13T1:34:26Z</time></trkpt>
<trkpt lat="46.31142393685877" lon="8.588360929861665"><ele></ele><time>2015-4-13T1:34:29Z</time></trkpt>
<trkpt lat="46.31135696545243" lon="8.588189939036965"><ele></ele><time>2015-4-13T1:34:32Z</time></trkpt>
<trkpt lat="46.31131396628916" lon="8.588108969852328"><ele></ele><time>2015-4-13T1:34:35Z</time></trkpt>
<trkpt lat="46.31117298267782" lon="8.588120955973864"><ele></ele><time>2015-4-13T1:34:38Z</time></trkpt>
<trkpt lat="46.31104297935963" lon="8.588199997320771"><ele></ele><time>2015-4-13T1:34:41Z</time></trkpt>
<trkpt lat="46.31080895662308" lon="8.58819899149239"><ele></ele><time>2015-4-13T1:34:44Z</time></trkpt>
<trkpt lat="46.31077199243009" lon="8.588106958195567"><ele></ele><time>2015-4-13T1:34:47Z</time></trkpt>
<trkpt lat="46.31074894219637" lon="8.587609995156527"><ele></ele><time>2015-4-13T1:34:50Z</time></trkpt>
<trkpt lat="46.31074299104512" lon="8.587521985173225"><ele></ele><time>2015-4-13T1:34:53Z</time></trkpt>
<trkpt lat="46.310720946639776" lon="8.58641599304974"><ele></ele><time>2015-4-13T1:34:56Z</time></trkpt>
<trkpt lat="46.31074894219637" lon="8.587607983499765"><ele></ele><time>2015-4-13T1:34:59Z</time></trkpt>
<trkpt lat="46.31076696328819" lon="8.588083991780877"><ele></ele><time>2015-4-13T1:35:2Z</time></trkpt>
<trkpt lat="46.3107939530164" lon="8.588184993714094"><ele></ele><time>2015-4-13T1:35:5Z</time></trkpt>
<trkpt lat="46.31086092442274" lon="8.588218940421939"><ele></ele><time>2015-4-13T1:35:8Z</time></trkpt>
<trkpt lat="46.310866959393024" lon="8.588204942643642"><ele></ele><time>2015-4-13T1:35:11Z</time></trkpt>
<trkpt lat="46.310908952727914" lon="8.587974943220615"><ele></ele><time>2015-4-13T1:35:14Z</time></trkpt>
<trkpt lat="46.31091398186982" lon="8.587773945182562"><ele></ele><time>2015-4-13T1:35:17Z</time></trkpt>
<trkpt lat="46.310885986313224" lon="8.587453924119473"><ele></ele><time>2015-4-13T1:35:20Z</time></trkpt>
<trkpt lat="46.310676941648126" lon="8.587244963273406"><ele></ele><time>2015-4-13T1:35:23Z</time></trkpt>
<trkpt lat="46.31063897162676" lon="8.587249992415309"><ele></ele><time>2015-4-13T1:35:26Z</time></trkpt>
<trkpt lat="46.31053796969354" lon="8.587262984365225"><ele></ele><time>2015-4-13T1:35:29Z</time></trkpt>
<trkpt lat="46.31044199690223" lon="8.58727497048676"><ele></ele><time>2015-4-13T1:35:32Z</time></trkpt>
<trkpt lat="46.31042892113328" lon="8.58727497048676"><ele></ele><time>2015-4-13T1:35:35Z</time></trkpt>
<trkpt lat="46.31031593307853" lon="8.587247980758548"><ele></ele><time>2015-4-13T1:35:38Z</time></trkpt>
<trkpt lat="46.31023697555065" lon="8.587136920541525"><ele></ele><time>2015-4-13T1:35:41Z</time></trkpt>
<trkpt lat="46.310114935040474" lon="8.586964923888445"><ele></ele><time>2015-4-13T1:35:44Z</time></trkpt>
<trkpt lat="46.31000395864248" lon="8.58675797469914"><ele></ele><time>2015-4-13T1:35:47Z</time></trkpt>
<trkpt lat="46.30998493172228" lon="8.586721932515502"><ele></ele><time>2015-4-13T1:35:50Z</time></trkpt>
<trkpt lat="46.3099839258939" lon="8.586611961945891"><ele></ele><time>2015-4-13T1:35:53Z</time></trkpt>
<trkpt lat="46.30978493951261" lon="8.585931938141584"><ele></ele><time>2015-4-13T1:35:56Z</time></trkpt>
<trkpt lat="46.309748981148005" lon="8.585841916501522"><ele></ele><time>2015-4-13T1:35:59Z</time></trkpt>
<trkpt lat="46.30943197757006" lon="8.585206987336278"><ele></ele><time>2015-4-13T1:36:2Z</time></trkpt>
<trkpt lat="46.309213964268565" lon="8.584993919357657"><ele></ele><time>2015-4-13T1:36:5Z</time></trkpt>
<trkpt lat="46.30913592875004" lon="8.584986962378025"><ele></ele><time>2015-4-13T1:36:8Z</time></trkpt>
<trkpt lat="46.30901397205889" lon="8.584944969043136"><ele></ele><time>2015-4-13T1:36:11Z</time></trkpt>
<trkpt lat="46.30888991989195" lon="8.584755957126617"><ele></ele><time>2015-4-13T1:36:14Z</time></trkpt>
<trkpt lat="46.3086199387908" lon="8.584694936871529"><ele></ele><time>2015-4-13T1:36:17Z</time></trkpt>
<trkpt lat="46.308573922142386" lon="8.584623942151666"><ele></ele><time>2015-4-13T1:36:20Z</time></trkpt>
<trkpt lat="46.308460934087634" lon="8.58446191996336"><ele></ele><time>2015-4-13T1:36:23Z</time></trkpt>
<trkpt lat="46.3084349501878" lon="8.584409952163696"><ele></ele><time>2015-4-13T1:36:26Z</time></trkpt>
<trkpt lat="46.30823596380651" lon="8.583763958886266"><ele></ele><time>2015-4-13T1:36:29Z</time></trkpt>
<trkpt lat="46.30803597159684" lon="8.583130957558751"><ele></ele><time>2015-4-13T1:36:32Z</time></trkpt>
<trkpt lat="46.3079859316349" lon="8.582753939554095"><ele></ele><time>2015-4-13T1:36:35Z</time></trkpt>
<trkpt lat="46.30780898965895" lon="8.582275919616222"><ele></ele><time>2015-4-13T1:36:38Z</time></trkpt>
<trkpt lat="46.30772793665528" lon="8.581927986815572"><ele></ele><time>2015-4-13T1:36:41Z</time></trkpt>
<trkpt lat="46.30763296969235" lon="8.58164694160223"><ele></ele><time>2015-4-13T1:36:44Z</time></trkpt>
<trkpt lat="46.30752492696047" lon="8.581521967425942"><ele></ele><time>2015-4-13T1:36:47Z</time></trkpt>
<trkpt lat="46.307386960834265" lon="8.581305965781212"><ele></ele><time>2015-4-13T1:36:50Z</time></trkpt>
<trkpt lat="46.30735293030739" lon="8.581143943592906"><ele></ele><time>2015-4-13T1:36:53Z</time></trkpt>
<trkpt lat="46.307298950850964" lon="8.580897934734821"><ele></ele><time>2015-4-13T1:36:56Z</time></trkpt>
<trkpt lat="46.307173976674676" lon="8.58074395917356"><ele></ele><time>2015-4-13T1:36:59Z</time></trkpt>
<trkpt lat="46.30696794949472" lon="8.580501973628998"><ele></ele><time>2015-4-13T1:37:2Z</time></trkpt>
<trkpt lat="46.30679394118488" lon="8.58018597587943"><ele></ele><time>2015-4-13T1:37:5Z</time></trkpt>
<trkpt lat="46.3066219445318" lon="8.579943990334868"><ele></ele><time>2015-4-13T1:37:8Z</time></trkpt>
<trkpt lat="46.30647492595017" lon="8.579665962606668"><ele></ele><time>2015-4-13T1:37:11Z</time></trkpt>
<trkpt lat="46.30643293261528" lon="8.579481979832053"><ele></ele><time>2015-4-13T1:37:14Z</time></trkpt>
<trkpt lat="46.306397980079055" lon="8.57932398095727"><ele></ele><time>2015-4-13T1:37:17Z</time></trkpt>
<trkpt lat="46.30620896816254" lon="8.579033967107534"><ele></ele><time>2015-4-13T1:37:20Z</time></trkpt>
<trkpt lat="46.30616898648441" lon="8.57897998765111"><ele></ele><time>2015-4-13T1:37:23Z</time></trkpt>
<trkpt lat="46.30606396123767" lon="8.578705983236432"><ele></ele><time>2015-4-13T1:37:26Z</time></trkpt>
<trkpt lat="46.30602196790278" lon="8.57840096578002"><ele></ele><time>2015-4-13T1:37:29Z</time></trkpt>
<trkpt lat="46.30599799565971" lon="8.578231986612082"><ele></ele><time>2015-4-13T1:37:32Z</time></trkpt>
<trkpt lat="46.30597896873951" lon="8.578077927231789"><ele></ele><time>2015-4-13T1:37:35Z</time></trkpt>
<trkpt lat="46.305989949032664" lon="8.577758995816112"><ele></ele><time>2015-4-13T1:37:38Z</time></trkpt>
<trkpt lat="46.30598399788141" lon="8.577377954497933"><ele></ele><time>2015-4-13T1:37:41Z</time></trkpt>
<trkpt lat="46.30596195347607" lon="8.577279970049858"><ele></ele><time>2015-4-13T1:37:44Z</time></trkpt>
<trkpt lat="46.30587897263467" lon="8.576996996998787"><ele></ele><time>2015-4-13T1:37:47Z</time></trkpt>
<trkpt lat="46.30578392185271" lon="8.576712934300303"><ele></ele><time>2015-4-13T1:37:50Z</time></trkpt>
<trkpt lat="46.305730948224664" lon="8.576341951265931"><ele></ele><time>2015-4-13T1:37:53Z</time></trkpt>
<trkpt lat="46.30568392574787" lon="8.575891926884651"><ele></ele><time>2015-4-13T1:37:56Z</time></trkpt>
<trkpt lat="46.30566397681832" lon="8.575770976021886"><ele></ele><time>2015-4-13T1:37:59Z</time></trkpt>
<trkpt lat="46.305626928806305" lon="8.575595961883664"><ele></ele><time>2015-4-13T1:38:2Z</time></trkpt>
<trkpt lat="46.30558895878494" lon="8.575420947745442"><ele></ele><time>2015-4-13T1:38:5Z</time></trkpt>
<trkpt lat="46.305519975721836" lon="8.57526496052742"><ele></ele><time>2015-4-13T1:38:8Z</time></trkpt>
<trkpt lat="46.30539692938328" lon="8.57498693279922"><ele></ele><time>2015-4-13T1:38:11Z</time></trkpt>
<trkpt lat="46.305278996005654" lon="8.574718963354826"><ele></ele><time>2015-4-13T1:38:14Z</time></trkpt>
<trkpt lat="46.30522795021534" lon="8.574561970308423"><ele></ele><time>2015-4-13T1:38:17Z</time></trkpt>
<trkpt lat="46.30524496547878" lon="8.57436097227037"><ele></ele><time>2015-4-13T1:38:20Z</time></trkpt>
<trkpt lat="46.30531495437026" lon="8.574204985052347"><ele></ele><time>2015-4-13T1:38:23Z</time></trkpt>
<trkpt lat="46.30541897378862" lon="8.574080932885408"><ele></ele><time>2015-4-13T1:38:26Z</time></trkpt>
<trkpt lat="46.30552995018661" lon="8.573945984244347"><ele></ele><time>2015-4-13T1:38:29Z</time></trkpt>
<trkpt lat="46.305535985156894" lon="8.573933998122811"><ele></ele><time>2015-4-13T1:38:32Z</time></trkpt>
<trkpt lat="46.30563095211983" lon="8.573743980377913"><ele></ele><time>2015-4-13T1:38:35Z</time></trkpt>
<trkpt lat="46.30566397681832" lon="8.57362998649478"><ele></ele><time>2015-4-13T1:38:38Z</time></trkpt>
<trkpt lat="46.30568291991949" lon="8.573561925441027"><ele></ele><time>2015-4-13T1:38:41Z</time></trkpt>
<trkpt lat="46.305732959881425" lon="8.573379954323173"><ele></ele><time>2015-4-13T1:38:44Z</time></trkpt>
<trkpt lat="46.30579196847975" lon="8.573168981820345"><ele></ele><time>2015-4-13T1:38:47Z</time></trkpt>
<trkpt lat="46.30587193183601" lon="8.572926996275783"><ele></ele><time>2015-4-13T1:38:50Z</time></trkpt>
<trkpt lat="46.305886935442686" lon="8.572767991572618"><ele></ele><time>2015-4-13T1:38:53Z</time></trkpt>
<trkpt lat="46.30581099539995" lon="8.572612926363945"><ele></ele><time>2015-4-13T1:38:56Z</time></trkpt>
<trkpt lat="46.305733965709805" lon="8.572575962170959"><ele></ele><time>2015-4-13T1:38:59Z</time></trkpt>
<trkpt lat="46.305647967383265" lon="8.57260194607079"><ele></ele><time>2015-4-13T1:39:2Z</time></trkpt>
<trkpt lat="46.3055219873786" lon="8.57266497798264"><ele></ele><time>2015-4-13T1:39:5Z</time></trkpt>
<trkpt lat="46.30535795353353" lon="8.572727926075459"><ele></ele><time>2015-4-13T1:39:8Z</time></trkpt>
<trkpt lat="46.30520498380065" lon="8.572780983522534"><ele></ele><time>2015-4-13T1:39:11Z</time></trkpt>
<trkpt lat="46.3050399441272" lon="8.5728379804641"><ele></ele><time>2015-4-13T1:39:14Z</time></trkpt>
<trkpt lat="46.30493592470884" lon="8.572873938828707"><ele></ele><time>2015-4-13T1:39:17Z</time></trkpt>
<trkpt lat="46.304784966632724" lon="8.572806967422366"><ele></ele><time>2015-4-13T1:39:20Z</time></trkpt>
<trkpt lat="46.304722940549254" lon="8.572589959949255"><ele></ele><time>2015-4-13T1:39:23Z</time></trkpt>
<trkpt lat="46.30462696775794" lon="8.572333976626396"><ele></ele><time>2015-4-13T1:39:26Z</time></trkpt>
<trkpt lat="46.30463493056595" lon="8.572159968316555"><ele></ele><time>2015-4-13T1:39:29Z</time></trkpt>
<trkpt lat="46.3047119602561" lon="8.571891998872161"><ele></ele><time>2015-4-13T1:39:32Z</time></trkpt>
<trkpt lat="46.30477599799633" lon="8.571522943675518"><ele></ele><time>2015-4-13T1:39:35Z</time></trkpt>
<trkpt lat="46.304804999381304" lon="8.571037966758013"><ele></ele><time>2015-4-13T1:39:38Z</time></trkpt>
<trkpt lat="46.304811956360936" lon="8.570801932364702"><ele></ele><time>2015-4-13T1:39:41Z</time></trkpt>
<trkpt lat="46.30481991916895" lon="8.570498926565051"><ele></ele><time>2015-4-13T1:39:44Z</time></trkpt>
<trkpt lat="46.30482193082571" lon="8.57017396017909"><ele></ele><time>2015-4-13T1:39:47Z</time></trkpt>
<trkpt lat="46.3047809433192" lon="8.56995795853436"><ele></ele><time>2015-4-13T1:39:50Z</time></trkpt>
<trkpt lat="46.30468597635627" lon="8.569736927747726"><ele></ele><time>2015-4-13T1:39:53Z</time></trkpt>
<trkpt lat="46.304569970816374" lon="8.569542970508337"><ele></ele><time>2015-4-13T1:39:56Z</time></trkpt>
<trkpt lat="46.30449495278299" lon="8.56937499716878"><ele></ele><time>2015-4-13T1:39:59Z</time></trkpt>
<trkpt lat="46.30449294112623" lon="8.569110967218876"><ele></ele><time>2015-4-13T1:40:2Z</time></trkpt>
<trkpt lat="46.30452093668282" lon="8.568941988050938"><ele></ele><time>2015-4-13T1:40:5Z</time></trkpt>
<trkpt lat="46.30460098385811" lon="8.56867091730237"><ele></ele><time>2015-4-13T1:40:8Z</time></trkpt>
<trkpt lat="46.30467792972922" lon="8.568406971171498"><ele></ele><time>2015-4-13T1:40:11Z</time></trkpt>
<trkpt lat="46.304724952206016" lon="8.56817496009171"><ele></ele><time>2015-4-13T1:40:14Z</time></trkpt>
<trkpt lat="46.30483592860401" lon="8.567909924313426"><ele></ele><time>2015-4-13T1:40:17Z</time></trkpt>
<trkpt lat="46.304940953850746" lon="8.567666932940483"><ele></ele><time>2015-4-13T1:40:20Z</time></trkpt>
<trkpt lat="46.305066933855414" lon="8.567375997081399"><ele></ele><time>2015-4-13T1:40:23Z</time></trkpt>
<trkpt lat="46.305160978809" lon="8.567156977951527"><ele></ele><time>2015-4-13T1:40:26Z</time></trkpt>
<trkpt lat="46.305259969085455" lon="8.56692899018526"><ele></ele><time>2015-4-13T1:40:29Z</time></trkpt>
<trkpt lat="46.30531193688512" lon="8.566767973825336"><ele></ele><time>2015-4-13T1:40:32Z</time></trkpt>
<trkpt lat="46.30529793910682" lon="8.566504949703813"><ele></ele><time>2015-4-13T1:40:35Z</time></trkpt>
<trkpt lat="46.30528796464205" lon="8.566308980807662"><ele></ele><time>2015-4-13T1:40:38Z</time></trkpt>
<trkpt lat="46.305278996005654" lon="8.566150981932878"><ele></ele><time>2015-4-13T1:40:41Z</time></trkpt>
<trkpt lat="46.30525192245841" lon="8.565902961418033"><ele></ele><time>2015-4-13T1:40:44Z</time></trkpt>
<trkpt lat="46.30520297214389" lon="8.565677991136909"><ele></ele><time>2015-4-13T1:40:47Z</time></trkpt>
<trkpt lat="46.30516198463738" lon="8.565451931208372"><ele></ele><time>2015-4-13T1:40:50Z</time></trkpt>
<trkpt lat="46.305154943838716" lon="8.565179938450456"><ele></ele><time>2015-4-13T1:40:53Z</time></trkpt>
<trkpt lat="46.305151926353574" lon="8.565062927082181"><ele></ele><time>2015-4-13T1:40:56Z</time></trkpt>
<trkpt lat="46.305149998515844" lon="8.564953962340951"><ele></ele><time>2015-4-13T1:40:59Z</time></trkpt>
<trkpt lat="46.30514396354556" lon="8.564750952646136"><ele></ele><time>2015-4-13T1:41:2Z</time></trkpt>
<trkpt lat="46.305152932181954" lon="8.564568981528282"><ele></ele><time>2015-4-13T1:41:5Z</time></trkpt>
<trkpt lat="46.305154943838716" lon="8.564549954608083"><ele></ele><time>2015-4-13T1:41:8Z</time></trkpt>
<trkpt lat="46.30516894161701" lon="8.56443495489657"><ele></ele><time>2015-4-13T1:41:11Z</time></trkpt>
<trkpt lat="46.30518998019397" lon="8.564261952415109"><ele></ele><time>2015-4-13T1:41:14Z</time></trkpt>
<trkpt lat="46.30520992912352" lon="8.564099930226803"><ele></ele><time>2015-4-13T1:41:17Z</time></trkpt>
<trkpt lat="46.30522795021534" lon="8.563901949673891"><ele></ele><time>2015-4-13T1:41:20Z</time></trkpt>
<trkpt lat="46.30522795021534" lon="8.563859956339002"><ele></ele><time>2015-4-13T1:41:23Z</time></trkpt>
<trkpt lat="46.30522795021534" lon="8.563709920272231"><ele></ele><time>2015-4-13T1:41:26Z</time></trkpt>
<trkpt lat="46.30522795021534" lon="8.563584946095943"><ele></ele><time>2015-4-13T1:41:29Z</time></trkpt>
<trkpt lat="46.3052629865706" lon="8.563335919752717"><ele></ele><time>2015-4-13T1:41:32Z</time></trkpt>
<trkpt lat="46.305281929671764" lon="8.563205916434526"><ele></ele><time>2015-4-13T1:41:35Z</time></trkpt>
<trkpt lat="46.305303974077106" lon="8.563033919781446"><ele></ele><time>2015-4-13T1:41:38Z</time></trkpt>
<trkpt lat="46.305321995168924" lon="8.562873993068933"><ele></ele><time>2015-4-13T1:41:41Z</time></trkpt>
<trkpt lat="46.30533892661333" lon="8.562727980315685"><ele></ele><time>2015-4-13T1:41:44Z</time></trkpt>
<trkpt lat="46.30535694770515" lon="8.562573920935392"><ele></ele><time>2015-4-13T1:41:47Z</time></trkpt>
<trkpt lat="46.30536197684705" lon="8.562527988106012"><ele></ele><time>2015-4-13T1:41:50Z</time></trkpt>
<trkpt lat="46.3053819257766" lon="8.562355991452932"><ele></ele><time>2015-4-13T1:41:53Z</time></trkpt>
<trkpt lat="46.30539793521166" lon="8.562218947336078"><ele></ele><time>2015-4-13T1:41:56Z</time></trkpt>
<trkpt lat="46.30542693659663" lon="8.561952989548445"><ele></ele><time>2015-4-13T1:41:59Z</time></trkpt>
<trkpt lat="46.30544797517359" lon="8.561711926013231"><ele></ele><time>2015-4-13T1:42:2Z</time></trkpt>
<trkpt lat="46.30546599626541" lon="8.5614959243685"><ele></ele><time>2015-4-13T1:42:5Z</time></trkpt>
<trkpt lat="46.305494997650385" lon="8.561162995174527"><ele></ele><time>2015-4-13T1:42:8Z</time></trkpt>
<trkpt lat="46.305539924651384" lon="8.560908939689398"><ele></ele><time>2015-4-13T1:42:11Z</time></trkpt>
<trkpt lat="46.30560899153352" lon="8.560648933053017"><ele></ele><time>2015-4-13T1:42:14Z</time></trkpt>
<trkpt lat="46.30568593740463" lon="8.560369983315468"><ele></ele><time>2015-4-13T1:42:17Z</time></trkpt>
<trkpt lat="46.30572793073952" lon="8.560176948085427"><ele></ele><time>2015-4-13T1:42:20Z</time></trkpt>
<trkpt lat="46.30574092268944" lon="8.559982990846038"><ele></ele><time>2015-4-13T1:42:23Z</time></trkpt>
<trkpt lat="46.30571896210313" lon="8.559813927859068"><ele></ele><time>2015-4-13T1:42:26Z</time></trkpt>
<trkpt lat="46.30568593740463" lon="8.559619970619678"><ele></ele><time>2015-4-13T1:42:29Z</time></trkpt>
<trkpt lat="46.30565794184804" lon="8.559417966753244"><ele></ele><time>2015-4-13T1:42:32Z</time></trkpt>
<trkpt lat="46.30563598126173" lon="8.559248987585306"><ele></ele><time>2015-4-13T1:42:35Z</time></trkpt>
<trkpt lat="46.30563598126173" lon="8.559058969840407"><ele></ele><time>2015-4-13T1:42:38Z</time></trkpt>
<trkpt lat="46.30565199069679" lon="8.55891396291554"><ele></ele><time>2015-4-13T1:42:41Z</time></trkpt>
<trkpt lat="46.30566397681832" lon="8.558844979852438"><ele></ele><time>2015-4-13T1:42:44Z</time></trkpt>
<trkpt lat="46.305691972374916" lon="8.55867792852223"><ele></ele><time>2015-4-13T1:42:47Z</time></trkpt>
<trkpt lat="46.30571795627475" lon="8.558557983487844"><ele></ele><time>2015-4-13T1:42:50Z</time></trkpt>
<trkpt lat="46.3057429343462" lon="8.558456981554627"><ele></ele><time>2015-4-13T1:42:53Z</time></trkpt>
<trkpt lat="46.305756932124496" lon="8.558368971571326"><ele></ele><time>2015-4-13T1:42:56Z</time></trkpt>
<trkpt lat="46.30577193573117" lon="8.558284984901547"><ele></ele><time>2015-4-13T1:42:59Z</time></trkpt>
<trkpt lat="46.30577092990279" lon="8.558021960780025"><ele></ele><time>2015-4-13T1:43:2Z</time></trkpt>
<trkpt lat="46.30573991686106" lon="8.557870918884873"><ele></ele><time>2015-4-13T1:43:5Z</time></trkpt>
<trkpt lat="46.30567696876824" lon="8.557691965252161"><ele></ele><time>2015-4-13T1:43:8Z</time></trkpt>
<trkpt lat="46.30561594851315" lon="8.557515945285559"><ele></ele><time>2015-4-13T1:43:11Z</time></trkpt>
<trkpt lat="46.3056099973619" lon="8.55749691836536"><ele></ele><time>2015-4-13T1:43:14Z</time></trkpt>
<trkpt lat="46.30556699819863" lon="8.557347971946001"><ele></ele><time>2015-4-13T1:43:17Z</time></trkpt>
<trkpt lat="46.30553196184337" lon="8.557207994163036"><ele></ele><time>2015-4-13T1:43:20Z</time></trkpt>
<trkpt lat="46.30552098155022" lon="8.557163989171386"><ele></ele><time>2015-4-13T1:43:23Z</time></trkpt>
<trkpt lat="46.30548695102334" lon="8.55702493339777"><ele></ele><time>2015-4-13T1:43:26Z</time></trkpt>
<trkpt lat="46.305472953245044" lon="8.556968942284584"><ele></ele><time>2015-4-13T1:43:29Z</time></trkpt>
<trkpt lat="46.30567998625338" lon="8.556712958961725"><ele></ele><time>2015-4-13T1:43:32Z</time></trkpt>
<trkpt lat="46.30567797459662" lon="8.556579938158393"><ele></ele><time>2015-4-13T1:43:35Z</time></trkpt>
<trkpt lat="46.305690966546535" lon="8.556367959827185"><ele></ele><time>2015-4-13T1:43:38Z</time></trkpt>
<trkpt lat="46.305712927132845" lon="8.55620694346726"><ele></ele><time>2015-4-13T1:43:41Z</time></trkpt>
<trkpt lat="46.30572097375989" lon="8.556146929040551"><ele></ele><time>2015-4-13T1:43:44Z</time></trkpt>
<trkpt lat="46.30572097375989" lon="8.556146929040551"><ele></ele><time>2015-4-13T1:43:47Z</time></trkpt>
<trkpt lat="46.30574192851782" lon="8.555957917124033"><ele></ele><time>2015-4-13T1:43:50Z</time></trkpt>
<trkpt lat="46.30574092268944" lon="8.555937968194485"><ele></ele><time>2015-4-13T1:43:53Z</time></trkpt>
<trkpt lat="46.30573798902333" lon="8.55581995099783"><ele></ele><time>2015-4-13T1:43:56Z</time></trkpt>
<trkpt lat="46.30572994239628" lon="8.555579977110028"><ele></ele><time>2015-4-13T1:43:59Z</time></trkpt>
<trkpt lat="46.30572591908276" lon="8.555426923558116"><ele></ele><time>2015-4-13T1:44:2Z</time></trkpt>
<trkpt lat="46.30572197958827" lon="8.55523799546063"><ele></ele><time>2015-4-13T1:44:5Z</time></trkpt>
<trkpt lat="46.30572591908276" lon="8.555085947737098"><ele></ele><time>2015-4-13T1:44:8Z</time></trkpt>
<trkpt lat="46.3057289365679" lon="8.554970948025584"><ele></ele><time>2015-4-13T1:44:11Z</time></trkpt>
<trkpt lat="46.305733965709805" lon="8.554780930280685"><ele></ele><time>2015-4-13T1:44:14Z</time></trkpt>
<trkpt lat="46.30573698319495" lon="8.554619997739792"><ele></ele><time>2015-4-13T1:44:17Z</time></trkpt>
<trkpt lat="46.30573798902333" lon="8.554599964991212"><ele></ele><time>2015-4-13T1:44:20Z</time></trkpt>
<trkpt lat="46.30573991686106" lon="8.554495945572853"><ele></ele><time>2015-4-13T1:44:23Z</time></trkpt>
<trkpt lat="46.30572994239628" lon="8.554336940869689"><ele></ele><time>2015-4-13T1:44:26Z</time></trkpt>
<trkpt lat="46.305708987638354" lon="8.55412295088172"><ele></ele><time>2015-4-13T1:44:29Z</time></trkpt>
<trkpt lat="46.305689960718155" lon="8.553900998085737"><ele></ele><time>2015-4-13T1:44:32Z</time></trkpt>
<trkpt lat="46.30567797459662" lon="8.553648954257369"><ele></ele><time>2015-4-13T1:44:35Z</time></trkpt>
<trkpt lat="46.30567596293986" lon="8.553449967876077"><ele></ele><time>2015-4-13T1:44:38Z</time></trkpt>
<trkpt lat="46.30565693601966" lon="8.55322097428143"><ele></ele><time>2015-4-13T1:44:41Z</time></trkpt>
<trkpt lat="46.30569398403168" lon="8.553035985678434"><ele></ele><time>2015-4-13T1:44:44Z</time></trkpt>
<trkpt lat="46.30569993518293" lon="8.55300698429346"><ele></ele><time>2015-4-13T1:44:47Z</time></trkpt>
<trkpt lat="46.30569691769779" lon="8.553018970414996"><ele></ele><time>2015-4-13T1:44:50Z</time></trkpt>
<trkpt lat="46.30568099208176" lon="8.553101951256394"><ele></ele><time>2015-4-13T1:44:53Z</time></trkpt>
<trkpt lat="46.30567495711148" lon="8.553441921249032"><ele></ele><time>2015-4-13T1:44:56Z</time></trkpt>
<trkpt lat="46.30567797459662" lon="8.553599920123816"><ele></ele><time>2015-4-13T1:44:59Z</time></trkpt>
<trkpt lat="46.30567797459662" lon="8.553599920123816"><ele></ele><time>2015-4-13T1:45:2Z</time></trkpt>
<trkpt lat="46.30567797459662" lon="8.553746938705444"><ele></ele><time>2015-4-13T1:45:5Z</time></trkpt>
<trkpt lat="46.30567998625338" lon="8.553812988102436"><ele></ele><time>2015-4-13T1:45:8Z</time></trkpt>
<trkpt lat="46.30571795627475" lon="8.55425295419991"><ele></ele><time>2015-4-13T1:45:11Z</time></trkpt>
<trkpt lat="46.305731954053044" lon="8.554824935272336"><ele></ele><time>2015-4-13T1:45:14Z</time></trkpt>
<trkpt lat="46.30572793073952" lon="8.555507976561785"><ele></ele><time>2015-4-13T1:45:17Z</time></trkpt>
<trkpt lat="46.30574192851782" lon="8.555962946265936"><ele></ele><time>2015-4-13T1:45:20Z</time></trkpt>
<trkpt lat="46.30567797459662" lon="8.556577926501632"><ele></ele><time>2015-4-13T1:45:23Z</time></trkpt>
<trkpt lat="46.30574695765972" lon="8.557294998317957"><ele></ele><time>2015-4-13T1:45:26Z</time></trkpt>
<trkpt lat="46.3058359734714" lon="8.557725995779037"><ele></ele><time>2015-4-13T1:45:29Z</time></trkpt>
<trkpt lat="46.30586598068476" lon="8.558285990729928"><ele></ele><time>2015-4-13T1:45:32Z</time></trkpt>
<trkpt lat="46.305756932124496" lon="8.558524958789349"><ele></ele><time>2015-4-13T1:45:35Z</time></trkpt>
<trkpt lat="46.30567495711148" lon="8.558779936283827"><ele></ele><time>2015-4-13T1:45:38Z</time></trkpt>
<trkpt lat="46.30563799291849" lon="8.559265919029713"><ele></ele><time>2015-4-13T1:45:41Z</time></trkpt>
<trkpt lat="46.305687949061394" lon="8.559628939256072"><ele></ele><time>2015-4-13T1:45:44Z</time></trkpt>
<trkpt lat="46.30572591908276" lon="8.56020494364202"><ele></ele><time>2015-4-13T1:45:47Z</time></trkpt>
<trkpt lat="46.30569398403168" lon="8.560349950566888"><ele></ele><time>2015-4-13T1:45:50Z</time></trkpt>
<trkpt lat="46.30550094880164" lon="8.561096945777535"><ele></ele><time>2015-4-13T1:45:53Z</time></trkpt>
<trkpt lat="46.30542894825339" lon="8.56192298233509"><ele></ele><time>2015-4-13T1:45:56Z</time></trkpt>
<trkpt lat="46.30534294992685" lon="8.562692943960428"><ele></ele><time>2015-4-13T1:45:59Z</time></trkpt>
<trkpt lat="46.30529399961233" lon="8.563122935593128"><ele></ele><time>2015-4-13T1:46:2Z</time></trkpt>
<trkpt lat="46.30522895604372" lon="8.563578994944692"><ele></ele><time>2015-4-13T1:46:5Z</time></trkpt>
<trkpt lat="46.30516793578863" lon="8.564445935189724"><ele></ele><time>2015-4-13T1:46:8Z</time></trkpt>
<trkpt lat="46.305160978809" lon="8.565389988943934"><ele></ele><time>2015-4-13T1:46:11Z</time></trkpt>
<trkpt lat="46.30527698434889" lon="8.566115945577621"><ele></ele><time>2015-4-13T1:46:14Z</time></trkpt>
<trkpt lat="46.30529793910682" lon="8.566839974373579"><ele></ele><time>2015-4-13T1:46:17Z</time></trkpt>
<trkpt lat="46.30517095327377" lon="8.567134933546185"><ele></ele><time>2015-4-13T1:46:20Z</time></trkpt>
<trkpt lat="46.30503692664206" lon="8.56744397431612"><ele></ele><time>2015-4-13T1:46:23Z</time></trkpt>
<trkpt lat="46.30472796969116" lon="8.568166997283697"><ele></ele><time>2015-4-13T1:46:26Z</time></trkpt>
<trkpt lat="46.304527977481484" lon="8.568900916725397"><ele></ele><time>2015-4-13T1:46:29Z</time></trkpt>
<trkpt lat="46.304507944732904" lon="8.569017928093672"><ele></ele><time>2015-4-13T1:46:32Z</time></trkpt>
<trkpt lat="46.304532922804356" lon="8.569469964131713"><ele></ele><time>2015-4-13T1:46:35Z</time></trkpt>
<trkpt lat="46.304679941385984" lon="8.569727959111333"><ele></ele><time>2015-4-13T1:46:38Z</time></trkpt>
<trkpt lat="46.304808938875794" lon="8.570076981559396"><ele></ele><time>2015-4-13T1:46:41Z</time></trkpt>
<trkpt lat="46.30483794026077" lon="8.570349980145693"><ele></ele><time>2015-4-13T1:46:44Z</time></trkpt>
<trkpt lat="46.30477398633957" lon="8.57154993340373"><ele></ele><time>2015-4-13T1:46:47Z</time></trkpt>
<trkpt lat="46.30462998524308" lon="8.572178995236754"><ele></ele><time>2015-4-13T1:46:50Z</time></trkpt>
<trkpt lat="46.304679941385984" lon="8.572496920824051"><ele></ele><time>2015-4-13T1:46:53Z</time></trkpt>
<trkpt lat="46.30479594692588" lon="8.572863964363933"><ele></ele><time>2015-4-13T1:46:56Z</time></trkpt>
<trkpt lat="46.30492695607245" lon="8.572876956313848"><ele></ele><time>2015-4-13T1:46:59Z</time></trkpt>
<trkpt lat="46.30501194857061" lon="8.572846949100494"><ele></ele><time>2015-4-13T1:47:2Z</time></trkpt>
<trkpt lat="46.305284947156906" lon="8.572752987965941"><ele></ele><time>2015-4-13T1:47:5Z</time></trkpt>
<trkpt lat="46.30555593408644" lon="8.572647962719202"><ele></ele><time>2015-4-13T1:47:8Z</time></trkpt>
<trkpt lat="46.305881990119815" lon="8.572734966874123"><ele></ele><time>2015-4-13T1:47:11Z</time></trkpt>
<trkpt lat="46.30588894709945" lon="8.572833957150578"><ele></ele><time>2015-4-13T1:47:14Z</time></trkpt>
<trkpt lat="46.30567998625338" lon="8.573572989553213"><ele></ele><time>2015-4-13T1:47:17Z</time></trkpt>
<trkpt lat="46.30564394406974" lon="8.573703998699784"><ele></ele><time>2015-4-13T1:47:20Z</time></trkpt>
<trkpt lat="46.30537195131183" lon="8.574136923998594"><ele></ele><time>2015-4-13T1:47:23Z</time></trkpt>
<trkpt lat="46.305302968248725" lon="8.574229963123798"><ele></ele><time>2015-4-13T1:47:26Z</time></trkpt>
<trkpt lat="46.30524295382202" lon="8.574616955593228"><ele></ele><time>2015-4-13T1:47:29Z</time></trkpt>
<trkpt lat="46.3053509965539" lon="8.574882997199893"><ele></ele><time>2015-4-13T1:47:32Z</time></trkpt>
<trkpt lat="46.30561695434153" lon="8.575544999912381"><ele></ele><time>2015-4-13T1:47:35Z</time></trkpt>
<trkpt lat="46.305647967383265" lon="8.575690928846598"><ele></ele><time>2015-4-13T1:47:38Z</time></trkpt>
<trkpt lat="46.305754920467734" lon="8.576565999537706"><ele></ele><time>2015-4-13T1:47:41Z</time></trkpt>
<trkpt lat="46.30590797401965" lon="8.577083917334676"><ele></ele><time>2015-4-13T1:47:44Z</time></trkpt>
<trkpt lat="46.305945944041014" lon="8.577212998643517"><ele></ele><time>2015-4-13T1:47:47Z</time></trkpt>
<trkpt lat="46.305991960689425" lon="8.577689928933978"><ele></ele><time>2015-4-13T1:47:50Z</time></trkpt>
<trkpt lat="46.30598198622465" lon="8.578009949997067"><ele></ele><time>2015-4-13T1:47:53Z</time></trkpt>
<trkpt lat="46.306054992601275" lon="8.578640939667821"><ele></ele><time>2015-4-13T1:47:56Z</time></trkpt>
<trkpt lat="46.306163957342505" lon="8.578974958509207"><ele></ele><time>2015-4-13T1:47:59Z</time></trkpt>
<trkpt lat="46.306246938183904" lon="8.579083923250437"><ele></ele><time>2015-4-13T1:48:2Z</time></trkpt>
<trkpt lat="46.30641591735184" lon="8.579404950141907"><ele></ele><time>2015-4-13T1:48:5Z</time></trkpt>
<trkpt lat="46.306487917900085" lon="8.579719942063093"><ele></ele><time>2015-4-13T1:48:8Z</time></trkpt>
<trkpt lat="46.30668992176652" lon="8.580042980611324"><ele></ele><time>2015-4-13T1:48:11Z</time></trkpt>
<trkpt lat="46.30690097808838" lon="8.58037599362433"><ele></ele><time>2015-4-13T1:48:14Z</time></trkpt>
<trkpt lat="46.30712192505598" lon="8.580692997202277"><ele></ele><time>2015-4-13T1:48:17Z</time></trkpt>
<trkpt lat="46.307158973068" lon="8.580729961395264"><ele></ele><time>2015-4-13T1:48:20Z</time></trkpt>
<trkpt lat="46.30726894363761" lon="8.580839931964874"><ele></ele><time>2015-4-13T1:48:23Z</time></trkpt>
<trkpt lat="46.307345973327756" lon="8.581102956086397"><ele></ele><time>2015-4-13T1:48:26Z</time></trkpt>
<trkpt lat="46.30740095861256" lon="8.581349970772862"><ele></ele><time>2015-4-13T1:48:29Z</time></trkpt>
<trkpt lat="46.307557951658964" lon="8.58156094327569"><ele></ele><time>2015-4-13T1:48:32Z</time></trkpt>
<trkpt lat="46.30769994109869" lon="8.581806952133775"><ele></ele><time>2015-4-13T1:48:35Z</time></trkpt>
<trkpt lat="46.30776791833341" lon="8.58209696598351"><ele></ele><time>2015-4-13T1:48:38Z</time></trkpt>
<trkpt lat="46.30786397494376" lon="8.582423944026232"><ele></ele><time>2015-4-13T1:48:41Z</time></trkpt>
<trkpt lat="46.30800294689834" lon="8.582881931215525"><ele></ele><time>2015-4-13T1:48:44Z</time></trkpt>
<trkpt lat="46.30817896686494" lon="8.583555920049548"><ele></ele><time>2015-4-13T1:48:47Z</time></trkpt>
<trkpt lat="46.30829899571836" lon="8.583994964137673"><ele></ele><time>2015-4-13T1:48:50Z</time></trkpt>
<trkpt lat="46.308437967672944" lon="8.58441892080009"><ele></ele><time>2015-4-13T1:48:53Z</time></trkpt>
<trkpt lat="46.30855196155608" lon="8.584593934938312"><ele></ele><time>2015-4-13T1:48:56Z</time></trkpt>
<trkpt lat="46.30873099900782" lon="8.584873974323273"><ele></ele><time>2015-4-13T1:48:59Z</time></trkpt>
<trkpt lat="46.30881599150598" lon="8.584988974034786"><ele></ele><time>2015-4-13T1:49:2Z</time></trkpt>
<trkpt lat="46.30904599092901" lon="8.585154935717583"><ele></ele><time>2015-4-13T1:49:5Z</time></trkpt>
<trkpt lat="46.30915495567024" lon="8.585181925445795"><ele></ele><time>2015-4-13T1:49:8Z</time></trkpt>
<trkpt lat="46.30937799811363" lon="8.585429945960641"><ele></ele><time>2015-4-13T1:49:11Z</time></trkpt>
<trkpt lat="46.3095919881016" lon="8.586058923974633"><ele></ele><time>2015-4-13T1:49:14Z</time></trkpt>
<trkpt lat="46.309645967558026" lon="8.586229998618364"><ele></ele><time>2015-4-13T1:49:17Z</time></trkpt>
<trkpt lat="46.30978091619909" lon="8.586660996079445"><ele></ele><time>2015-4-13T1:49:20Z</time></trkpt>
<trkpt lat="46.30989398807287" lon="8.587014963850379"><ele></ele><time>2015-4-13T1:49:23Z</time></trkpt>
<trkpt lat="46.30999096669257" lon="8.587312940508127"><ele></ele><time>2015-4-13T1:49:26Z</time></trkpt>
<trkpt lat="46.310134967789054" lon="8.58755693770945"><ele></ele><time>2015-4-13T1:49:29Z</time></trkpt>
<trkpt lat="46.31030193530023" lon="8.587635979056358"><ele></ele><time>2015-4-13T1:49:32Z</time></trkpt>
<trkpt lat="46.31048792973161" lon="8.587570935487747"><ele></ele><time>2015-4-13T1:49:35Z</time></trkpt>
<trkpt lat="46.31051793694496" lon="8.587528942152858"><ele></ele><time>2015-4-13T1:49:38Z</time></trkpt>
<trkpt lat="46.310710972175" lon="8.587467921897769"><ele></ele><time>2015-4-13T1:49:41Z</time></trkpt>
<trkpt lat="46.31075296550989" lon="8.587659951299429"><ele></ele><time>2015-4-13T1:49:44Z</time></trkpt>
<trkpt lat="46.31077794358134" lon="8.588140988722444"><ele></ele><time>2015-4-13T1:49:47Z</time></trkpt>
<trkpt lat="46.31085296161473" lon="8.5882399789989"><ele></ele><time>2015-4-13T1:49:50Z</time></trkpt>
<trkpt lat="46.31100199185312" lon="8.588225981220603"><ele></ele><time>2015-4-13T1:49:53Z</time></trkpt>
<trkpt lat="46.31117893382907" lon="8.588117938488722"><ele></ele><time>2015-4-13T1:49:56Z</time></trkpt>
<trkpt lat="46.31121698766947" lon="8.588099917396903"><ele></ele><time>2015-4-13T1:49:59Z</time></trkpt>
<trkpt lat="46.311338944360614" lon="8.588150963187218"><ele></ele><time>2015-4-13T1:50:2Z</time></trkpt>
<trkpt lat="46.311358977109194" lon="8.588193962350488"><ele></ele><time>2015-4-13T1:50:5Z</time></trkpt>
<trkpt lat="46.311445981264114" lon="8.588437959551811"><ele></ele><time>2015-4-13T1:50:8Z</time></trkpt>
<trkpt lat="46.31146593019366" lon="8.588509960100055"><ele></ele><time>2015-4-13T1:50:11Z</time></trkpt>
<trkpt lat="46.31146593019366" lon="8.588509960100055"><ele></ele><time>2015-4-13T1:50:14Z</time></trkpt>
<trkpt lat="46.31147892214358" lon="8.588553965091705"><ele></ele><time>2015-4-13T1:50:17Z</time></trkpt>
<trkpt lat="46.31152896210551" lon="8.588727973401546"><ele></ele><time>2015-4-13T1:50:20Z</time></trkpt>
<trkpt lat="46.311573972925544" lon="8.588879937306046"><ele></ele><time>2015-4-13T1:50:23Z</time></trkpt>
<trkpt lat="46.31162594072521" lon="8.589030979201198"><ele></ele><time>2015-4-13T1:50:26Z</time></trkpt>
<trkpt lat="46.3116679340601" lon="8.589130975306034"><ele></ele><time>2015-4-13T1:50:29Z</time></trkpt>
<trkpt lat="46.31186197511852" lon="8.58959793113172"><ele></ele><time>2015-4-13T1:50:32Z</time></trkpt>
<trkpt lat="46.3120979256928" lon="8.590223975479603"><ele></ele><time>2015-4-13T1:50:35Z</time></trkpt>
<trkpt lat="46.31218694150448" lon="8.590364959090948"><ele></ele><time>2015-4-13T1:50:38Z</time></trkpt>
<trkpt lat="46.31230294704437" lon="8.590611973777413"><ele></ele><time>2015-4-13T1:50:41Z</time></trkpt>
<trkpt lat="46.31233396008611" lon="8.590807942673564"><ele></ele><time>2015-4-13T1:50:44Z</time></trkpt>
<trkpt lat="46.31232691928744" lon="8.590763937681913"><ele></ele><time>2015-4-13T1:50:47Z</time></trkpt>
<trkpt lat="46.312306970357895" lon="8.590638963505626"><ele></ele><time>2015-4-13T1:50:50Z</time></trkpt>
<trkpt lat="46.31221694871783" lon="8.591233994811773"><ele></ele><time>2015-4-13T1:50:53Z</time></trkpt>
<trkpt lat="46.31221694871783" lon="8.591233994811773"><ele></ele><time>2015-4-13T1:50:56Z</time></trkpt>
<trkpt lat="46.312069930136204" lon="8.591144979000092"><ele></ele><time>2015-4-13T1:50:59Z</time></trkpt>
<trkpt lat="46.31202097982168" lon="8.591002989560366"><ele></ele><time>2015-4-13T1:51:2Z</time></trkpt>
<trkpt lat="46.31197798065841" lon="8.590873992070556"><ele></ele><time>2015-4-13T1:51:5Z</time></trkpt>
<trkpt lat="46.312007987871766" lon="8.590600993484259"><ele></ele><time>2015-4-13T1:51:8Z</time></trkpt>
<trkpt lat="46.312029948458076" lon="8.591029979288578"><ele></ele><time>2015-4-13T1:51:11Z</time></trkpt>
<trkpt lat="46.31201393902302" lon="8.591101979836822"><ele></ele><time>2015-4-13T1:51:14Z</time></trkpt>
<trkpt lat="46.312072947621346" lon="8.591153947636485"><ele></ele><time>2015-4-13T1:51:17Z</time></trkpt>
<trkpt lat="46.31210194900632" lon="8.591236928477883"><ele></ele><time>2015-4-13T1:51:20Z</time></trkpt>
<trkpt lat="46.312175961211324" lon="8.59142292290926"><ele></ele><time>2015-4-13T1:51:23Z</time></trkpt>
<trkpt lat="46.31221292540431" lon="8.59148696064949"><ele></ele><time>2015-4-13T1:51:26Z</time></trkpt>
<trkpt lat="46.31223195232451" lon="8.591517973691225"><ele></ele><time>2015-4-13T1:51:29Z</time></trkpt>
<trkpt lat="46.31223195232451" lon="8.591517973691225"><ele></ele><time>2015-4-13T1:51:32Z</time></trkpt>
<trkpt lat="46.312007987871766" lon="8.590600993484259"><ele></ele><time>2015-4-13T1:51:35Z</time></trkpt>
<trkpt lat="46.312113935127854" lon="8.591623920947313"><ele></ele><time>2015-4-13T1:51:38Z</time></trkpt>
<trkpt lat="46.312202950939536" lon="8.591789966449142"><ele></ele><time>2015-4-13T1:51:41Z</time></trkpt>
<trkpt lat="46.31227998062968" lon="8.59193497337401"><ele></ele><time>2015-4-13T1:51:44Z</time></trkpt>
<trkpt lat="46.312350975349545" lon="8.59206598252058"><ele></ele><time>2015-4-13T1:51:47Z</time></trkpt>
<trkpt lat="46.31241291761398" lon="8.592181988060474"><ele></ele><time>2015-4-13T1:51:50Z</time></trkpt>
<trkpt lat="46.3124639634043" lon="8.592262957245111"><ele></ele><time>2015-4-13T1:51:53Z</time></trkpt>
<trkpt lat="46.312476955354214" lon="8.592282989993691"><ele></ele><time>2015-4-13T1:51:56Z</time></trkpt>
<trkpt lat="46.3125329464674" lon="8.592370999976993"><ele></ele><time>2015-4-13T1:51:59Z</time></trkpt>
<trkpt lat="46.312544932588935" lon="8.59238893724978"><ele></ele><time>2015-4-13T1:52:2Z</time></trkpt>
<trkpt lat="46.31257695145905" lon="8.592437971383333"><ele></ele><time>2015-4-13T1:52:5Z</time></trkpt>
<trkpt lat="46.31269094534218" lon="8.59260393306613"><ele></ele><time>2015-4-13T1:52:8Z</time></trkpt>
<trkpt lat="46.31277392618358" lon="8.592718932777643"><ele></ele><time>2015-4-13T1:52:11Z</time></trkpt>
<trkpt lat="46.312820948660374" lon="8.592785988003016"><ele></ele><time>2015-4-13T1:52:14Z</time></trkpt>
<trkpt lat="46.31283394061029" lon="8.592808954417706"><ele></ele><time>2015-4-13T1:52:17Z</time></trkpt>
<trkpt lat="46.312865959480405" lon="8.592873997986317"><ele></ele><time>2015-4-13T1:52:20Z</time></trkpt>
<trkpt lat="46.312865959480405" lon="8.592873997986317"><ele></ele><time>2015-4-13T1:52:23Z</time></trkpt>
<trkpt lat="46.31289596669376" lon="8.592932922765613"><ele></ele><time>2015-4-13T1:52:26Z</time></trkpt>
<trkpt lat="46.31289596669376" lon="8.592932922765613"><ele></ele><time>2015-4-13T1:52:29Z</time></trkpt>
<trkpt lat="46.312975930050015" lon="8.593093939125538"><ele></ele><time>2015-4-13T1:52:32Z</time></trkpt>
<trkpt lat="46.313056983053684" lon="8.593266941606998"><ele></ele><time>2015-4-13T1:52:35Z</time></trkpt>
<trkpt lat="46.3130649458617" lon="8.593286974355578"><ele></ele><time>2015-4-13T1:52:38Z</time></trkpt>
<trkpt lat="46.313062934204936" lon="8.593282951042056"><ele></ele><time>2015-4-13T1:52:41Z</time></trkpt>
<trkpt lat="46.313062934204936" lon="8.593282951042056"><ele></ele><time>2015-4-13T1:52:44Z</time></trkpt>
<trkpt lat="46.31309797056019" lon="8.593370961025357"><ele></ele><time>2015-4-13T1:52:47Z</time></trkpt>
<trkpt lat="46.31309797056019" lon="8.593370961025357"><ele></ele><time>2015-4-13T1:52:50Z</time></trkpt>
<trkpt lat="46.31313493475318" lon="8.593466933816671"><ele></ele><time>2015-4-13T1:52:53Z</time></trkpt>
<trkpt lat="46.313188998028636" lon="8.593604983761907"><ele></ele><time>2015-4-13T1:52:56Z</time></trkpt>
<trkpt lat="46.313188998028636" lon="8.593604983761907"><ele></ele><time>2015-4-13T1:52:59Z</time></trkpt>
<trkpt lat="46.31328597664833" lon="8.593838922679424"><ele></ele><time>2015-4-13T1:53:2Z</time></trkpt>
<trkpt lat="46.313295951113105" lon="8.593944953754544"><ele></ele><time>2015-4-13T1:53:5Z</time></trkpt>
<trkpt lat="46.313295951113105" lon="8.594048973172903"><ele></ele><time>2015-4-13T1:53:8Z</time></trkpt>
<trkpt lat="46.313295951113105" lon="8.59406397677958"><ele></ele><time>2015-4-13T1:53:11Z</time></trkpt>
<trkpt lat="46.313295951113105" lon="8.59406397677958"><ele></ele><time>2015-4-13T1:53:14Z</time></trkpt>
<trkpt lat="46.31326493807137" lon="8.5942149348557"><ele></ele><time>2015-4-13T1:53:17Z</time></trkpt>
<trkpt lat="46.31323995999992" lon="8.594327922910452"><ele></ele><time>2015-4-13T1:53:20Z</time></trkpt>
<trkpt lat="46.313185980543494" lon="8.594552977010608"><ele></ele><time>2015-4-13T1:53:23Z</time></trkpt>
<trkpt lat="46.31313292309642" lon="8.59475095756352"><ele></ele><time>2015-4-13T1:53:26Z</time></trkpt>
<trkpt lat="46.31312898360193" lon="8.594806948676705"><ele></ele><time>2015-4-13T1:53:29Z</time></trkpt>
<trkpt lat="46.31321397610009" lon="8.59503191895783"><ele></ele><time>2015-4-13T1:53:32Z</time></trkpt>
<trkpt lat="46.313270973041654" lon="8.595215985551476"><ele></ele><time>2015-4-13T1:53:35Z</time></trkpt>
<trkpt lat="46.313316989690065" lon="8.595363926142454"><ele></ele><time>2015-4-13T1:53:38Z</time></trkpt>
<trkpt lat="46.313316989690065" lon="8.595363926142454"><ele></ele><time>2015-4-13T1:53:41Z</time></trkpt>
<trkpt lat="46.313316989690065" lon="8.595363926142454"><ele></ele><time>2015-4-13T1:53:44Z</time></trkpt>
<trkpt lat="46.313316989690065" lon="8.595363926142454"><ele></ele><time>2015-4-13T1:53:47Z</time></trkpt>
<trkpt lat="46.31343894638121" lon="8.59580297023058"><ele></ele><time>2015-4-13T1:53:50Z</time></trkpt>
<trkpt lat="46.313574984669685" lon="8.595953928306699"><ele></ele><time>2015-4-13T1:53:53Z</time></trkpt>
<trkpt lat="46.3136659283191" lon="8.596077980473638"><ele></ele><time>2015-4-13T1:53:56Z</time></trkpt>
<trkpt lat="46.313684955239296" lon="8.59610396437347"><ele></ele><time>2015-4-13T1:53:59Z</time></trkpt>
<trkpt lat="46.31367992609739" lon="8.596097929403186"><ele></ele><time>2015-4-13T1:54:2Z</time></trkpt>
<trkpt lat="46.31367992609739" lon="8.596097929403186"><ele></ele><time>2015-4-13T1:54:5Z</time></trkpt>
<trkpt lat="46.313531985506415" lon="8.595900954678655"><ele></ele><time>2015-4-13T1:54:8Z</time></trkpt>
<trkpt lat="46.313531985506415" lon="8.595900954678655"><ele></ele><time>2015-4-13T1:54:11Z</time></trkpt>
<trkpt lat="46.313531985506415" lon="8.595900954678655"><ele></ele><time>2015-4-13T1:54:14Z</time></trkpt>
<trkpt lat="46.31363298743963" lon="8.596828998997808"><ele></ele><time>2015-4-13T1:54:17Z</time></trkpt>
<trkpt lat="46.3136519305408" lon="8.596844924613833"><ele></ele><time>2015-4-13T1:54:20Z</time></trkpt>
<trkpt lat="46.31354095414281" lon="8.596738977357745"><ele></ele><time>2015-4-13T1:54:23Z</time></trkpt>
<trkpt lat="46.31350591778755" lon="8.596695978194475"><ele></ele><time>2015-4-13T1:54:26Z</time></trkpt>
<trkpt lat="46.31342193111777" lon="8.596594976261258"><ele></ele><time>2015-4-13T1:54:29Z</time></trkpt>
<trkpt lat="46.313703982159495" lon="8.596887923777103"><ele></ele><time>2015-4-13T1:54:32Z</time></trkpt>
<trkpt lat="46.313703982159495" lon="8.596887923777103"><ele></ele><time>2015-4-13T1:54:35Z</time></trkpt>
<trkpt lat="46.313703982159495" lon="8.596887923777103"><ele></ele><time>2015-4-13T1:54:38Z</time></trkpt>
<trkpt lat="46.31351698189974" lon="8.596709975972772"><ele></ele><time>2015-4-13T1:54:41Z</time></trkpt>
<trkpt lat="46.313703982159495" lon="8.596887923777103"><ele></ele><time>2015-4-13T1:54:44Z</time></trkpt>
<trkpt lat="46.313703982159495" lon="8.596887923777103"><ele></ele><time>2015-4-13T1:54:47Z</time></trkpt>
<trkpt lat="46.313703982159495" lon="8.596887923777103"><ele></ele><time>2015-4-13T1:54:50Z</time></trkpt>
<trkpt lat="46.31375494413078" lon="8.596958918496966"><ele></ele><time>2015-4-13T1:54:53Z</time></trkpt>
<trkpt lat="46.31381596438587" lon="8.597040977329016"><ele></ele><time>2015-4-13T1:54:56Z</time></trkpt>
<trkpt lat="46.31399592384696" lon="8.597181960940361"><ele></ele><time>2015-4-13T1:54:59Z</time></trkpt>
<trkpt lat="46.31412198767066" lon="8.597279945388436"><ele></ele><time>2015-4-13T1:55:2Z</time></trkpt>
<trkpt lat="46.314196921885014" lon="8.597337948158383"><ele></ele><time>2015-4-13T1:55:5Z</time></trkpt>
<trkpt lat="46.31431795656681" lon="8.597407937049866"><ele></ele><time>2015-4-13T1:55:8Z</time></trkpt>
<trkpt lat="46.314414935186505" lon="8.597464933991432"><ele></ele><time>2015-4-13T1:55:11Z</time></trkpt>
<trkpt lat="46.314518954604864" lon="8.597595943138003"><ele></ele><time>2015-4-13T1:55:14Z</time></trkpt>
<trkpt lat="46.31468994542956" lon="8.597659980878234"><ele></ele><time>2015-4-13T1:55:17Z</time></trkpt>
<trkpt lat="46.31485297344625" lon="8.597659980878234"><ele></ele><time>2015-4-13T1:55:20Z</time></trkpt>
<trkpt lat="46.315012983977795" lon="8.597638942301273"><ele></ele><time>2015-4-13T1:55:23Z</time></trkpt>
<trkpt lat="46.315012983977795" lon="8.597638942301273"><ele></ele><time>2015-4-13T1:55:26Z</time></trkpt>
<trkpt lat="46.315012983977795" lon="8.597638942301273"><ele></ele><time>2015-4-13T1:55:29Z</time></trkpt>
<trkpt lat="46.315012983977795" lon="8.597638942301273"><ele></ele><time>2015-4-13T1:55:32Z</time></trkpt>
<trkpt lat="46.315016923472285" lon="8.59797396697104"><ele></ele><time>2015-4-13T1:55:35Z</time></trkpt>
<trkpt lat="46.314969984814525" lon="8.59807899221778"><ele></ele><time>2015-4-13T1:55:38Z</time></trkpt>
<trkpt lat="46.31492396816611" lon="8.598203966394067"><ele></ele><time>2015-4-13T1:55:41Z</time></trkpt>
<trkpt lat="46.31490494124591" lon="8.598367916420102"><ele></ele><time>2015-4-13T1:55:44Z</time></trkpt>
<trkpt lat="46.31490494124591" lon="8.598367916420102"><ele></ele><time>2015-4-13T1:55:47Z</time></trkpt>
<trkpt lat="46.31492396816611" lon="8.598449975252151"><ele></ele><time>2015-4-13T1:55:50Z</time></trkpt>
<trkpt lat="46.31494198925793" lon="8.59853295609355"><ele></ele><time>2015-4-13T1:55:53Z</time></trkpt>
<trkpt lat="46.31498691625893" lon="8.59859498217702"><ele></ele><time>2015-4-13T1:55:56Z</time></trkpt>
<trkpt lat="46.31481299176812" lon="8.598714927211404"><ele></ele><time>2015-4-13T1:55:59Z</time></trkpt>
<trkpt lat="46.314710984006524" lon="8.598775947466493"><ele></ele><time>2015-4-13T1:56:2Z</time></trkpt>
<trkpt lat="46.31446095183492" lon="8.59889798797667"><ele></ele><time>2015-4-13T1:56:5Z</time></trkpt>
<trkpt lat="46.31431292742491" lon="8.598938975483179"><ele></ele><time>2015-4-13T1:56:8Z</time></trkpt>
<trkpt lat="46.314261965453625" lon="8.598947944119573"><ele></ele><time>2015-4-13T1:56:11Z</time></trkpt>
<trkpt lat="46.31394697353244" lon="8.598632952198386"><ele></ele><time>2015-4-13T1:56:14Z</time></trkpt>
<trkpt lat="46.313916966319084" lon="8.59859799966216"><ele></ele><time>2015-4-13T1:56:17Z</time></trkpt>
<trkpt lat="46.31365394219756" lon="8.598479982465506"><ele></ele><time>2015-4-13T1:56:20Z</time></trkpt>
<trkpt lat="46.31362393498421" lon="8.598499931395054"><ele></ele><time>2015-4-13T1:56:23Z</time></trkpt>
<trkpt lat="46.313618989661336" lon="8.598502948880196"><ele></ele><time>2015-4-13T1:56:26Z</time></trkpt>
<trkpt lat="46.313595939427614" lon="8.598517952486873"><ele></ele><time>2015-4-13T1:56:29Z</time></trkpt>
<trkpt lat="46.313595939427614" lon="8.598517952486873"><ele></ele><time>2015-4-13T1:56:32Z</time></trkpt>
<trkpt lat="46.313401982188225" lon="8.599107954651117"><ele></ele><time>2015-4-13T1:56:35Z</time></trkpt>
<trkpt lat="46.313295951113105" lon="8.599569965153933"><ele></ele><time>2015-4-13T1:56:38Z</time></trkpt>
<trkpt lat="46.313250940293074" lon="8.599874982610345"><ele></ele><time>2015-4-13T1:56:41Z</time></trkpt>
<trkpt lat="46.313145998865366" lon="8.600244959816337"><ele></ele><time>2015-4-13T1:56:44Z</time></trkpt>
<trkpt lat="46.313152955845" lon="8.600768996402621"><ele></ele><time>2015-4-13T1:56:47Z</time></trkpt>
<trkpt lat="46.313230991363525" lon="8.601492941379547"><ele></ele><time>2015-4-13T1:56:50Z</time></trkpt>
<trkpt lat="46.3133429735899" lon="8.60222996212542"><ele></ele><time>2015-4-13T1:56:53Z</time></trkpt>
<trkpt lat="46.313424948602915" lon="8.602752992883325"><ele></ele><time>2015-4-13T1:56:56Z</time></trkpt>
<trkpt lat="46.313509941101074" lon="8.603315921500325"><ele></ele><time>2015-4-13T1:56:59Z</time></trkpt>
<trkpt lat="46.31357699632645" lon="8.603756977245212"><ele></ele><time>2015-4-13T1:57:2Z</time></trkpt>
<trkpt lat="46.313595939427614" lon="8.60388295724988"><ele></ele><time>2015-4-13T1:57:5Z</time></trkpt>
<trkpt lat="46.313595939427614" lon="8.60388295724988"><ele></ele><time>2015-4-13T1:57:8Z</time></trkpt>
<trkpt lat="46.313469959422946" lon="8.603971973061562"><ele></ele><time>2015-4-13T1:57:11Z</time></trkpt>
<trkpt lat="46.31316393613815" lon="8.60416199080646"><ele></ele><time>2015-4-13T1:57:14Z</time></trkpt>
<trkpt lat="46.312927985563874" lon="8.604307919740677"><ele></ele><time>2015-4-13T1:57:17Z</time></trkpt>
<trkpt lat="46.31277099251747" lon="8.604404982179403"><ele></ele><time>2015-4-13T1:57:20Z</time></trkpt>
<trkpt lat="46.31233697757125" lon="8.604673957452178"><ele></ele><time>2015-4-13T1:57:23Z</time></trkpt>
<trkpt lat="46.31190991960466" lon="8.604949973523617"><ele></ele><time>2015-4-13T1:57:26Z</time></trkpt>
<trkpt lat="46.311470959335566" lon="8.60532397404313"><ele></ele><time>2015-4-13T1:57:29Z</time></trkpt>
<trkpt lat="46.31096896715462" lon="8.605852955952287"><ele></ele><time>2015-4-13T1:57:32Z</time></trkpt>
<trkpt lat="46.31053796969354" lon="8.606377998366952"><ele></ele><time>2015-4-13T1:57:35Z</time></trkpt>
<trkpt lat="46.3102259952575" lon="8.606944950297475"><ele></ele><time>2015-4-13T1:57:38Z</time></trkpt>
<trkpt lat="46.310011921450496" lon="8.607360944151878"><ele></ele><time>2015-4-13T1:57:41Z</time></trkpt>
<trkpt lat="46.30995492450893" lon="8.607720946893096"><ele></ele><time>2015-4-13T1:57:44Z</time></trkpt>
<trkpt lat="46.30978896282613" lon="8.607887998223305"><ele></ele><time>2015-4-13T1:57:47Z</time></trkpt>
<trkpt lat="46.30939492955804" lon="8.608508929610252"><ele></ele><time>2015-4-13T1:57:50Z</time></trkpt>
<trkpt lat="46.30916794762015" lon="8.608962977305055"><ele></ele><time>2015-4-13T1:57:53Z</time></trkpt>
<trkpt lat="46.30911195650697" lon="8.609315939247608"><ele></ele><time>2015-4-13T1:57:56Z</time></trkpt>
<trkpt lat="46.30909695290029" lon="8.610035944730043"><ele></ele><time>2015-4-13T1:57:59Z</time></trkpt>
<trkpt lat="46.30909091793001" lon="8.61019897274673"><ele></ele><time>2015-4-13T1:58:2Z</time></trkpt>
<trkpt lat="46.30896292626858" lon="8.610426960512996"><ele></ele><time>2015-4-13T1:58:5Z</time></trkpt>
<trkpt lat="46.308845998719335" lon="8.610426960512996"><ele></ele><time>2015-4-13T1:58:8Z</time></trkpt>
<trkpt lat="46.30858196876943" lon="8.610445987433195"><ele></ele><time>2015-4-13T1:58:11Z</time></trkpt>
<trkpt lat="46.30837191827595" lon="8.61047599464655"><ele></ele><time>2015-4-13T1:58:14Z</time></trkpt>
<trkpt lat="46.30827896296978" lon="8.610763996839523"><ele></ele><time>2015-4-13T1:58:17Z</time></trkpt>
<trkpt lat="46.308162957429886" lon="8.610859969630837"><ele></ele><time>2015-4-13T1:58:20Z</time></trkpt>
<trkpt lat="46.30760497413576" lon="8.61129398457706"><ele></ele><time>2015-4-13T1:58:23Z</time></trkpt>
<trkpt lat="46.307214964181185" lon="8.611758928745985"><ele></ele><time>2015-4-13T1:58:26Z</time></trkpt>
<trkpt lat="46.30694791674614" lon="8.612230997532606"><ele></ele><time>2015-4-13T1:58:29Z</time></trkpt>
<trkpt lat="46.306869965046644" lon="8.612415986135602"><ele></ele><time>2015-4-13T1:58:32Z</time></trkpt>
<trkpt lat="46.30668698810041" lon="8.612850923091173"><ele></ele><time>2015-4-13T1:58:35Z</time></trkpt>
<trkpt lat="46.30661892704666" lon="8.613061979413033"><ele></ele><time>2015-4-13T1:58:38Z</time></trkpt>
<trkpt lat="46.306505938991904" lon="8.613409996032715"><ele></ele><time>2015-4-13T1:58:41Z</time></trkpt>
<trkpt lat="46.30642899312079" lon="8.613774944096804"><ele></ele><time>2015-4-13T1:58:44Z</time></trkpt>
<trkpt lat="46.30642899312079" lon="8.613774944096804"><ele></ele><time>2015-4-13T1:58:47Z</time></trkpt>
<trkpt lat="46.30619798786938" lon="8.614369975402951"><ele></ele><time>2015-4-13T1:58:50Z</time></trkpt>
<trkpt lat="46.306075947359204" lon="8.614700976759195"><ele></ele><time>2015-4-13T1:58:53Z</time></trkpt>
<trkpt lat="46.30594192072749" lon="8.614918990060687"><ele></ele><time>2015-4-13T1:58:56Z</time></trkpt>
<trkpt lat="46.30558895878494" lon="8.615477979183197"><ele></ele><time>2015-4-13T1:58:59Z</time></trkpt>
<trkpt lat="46.30517992191017" lon="8.616120954975486"><ele></ele><time>2015-4-13T1:59:2Z</time></trkpt>
<trkpt lat="46.30492796190083" lon="8.616521945223212"><ele></ele><time>2015-4-13T1:59:5Z</time></trkpt>
<trkpt lat="46.304699974134564" lon="8.616852946579456"><ele></ele><time>2015-4-13T1:59:8Z</time></trkpt>
<trkpt lat="46.304447930306196" lon="8.617189982905984"><ele></ele><time>2015-4-13T1:59:11Z</time></trkpt>
<trkpt lat="46.304060937836766" lon="8.617704967036843"><ele></ele><time>2015-4-13T1:59:14Z</time></trkpt>
<trkpt lat="46.303756926208735" lon="8.618099922314286"><ele></ele><time>2015-4-13T1:59:17Z</time></trkpt>
<trkpt lat="46.303474958986044" lon="8.618365963920951"><ele></ele><time>2015-4-13T1:59:20Z</time></trkpt>
<trkpt lat="46.3029869645834" lon="8.618644997477531"><ele></ele><time>2015-4-13T1:59:23Z</time></trkpt>
<trkpt lat="46.30258094519377" lon="8.619034923613071"><ele></ele><time>2015-4-13T1:59:26Z</time></trkpt>
<trkpt lat="46.302187917754054" lon="8.61965493299067"><ele></ele><time>2015-4-13T1:59:29Z</time></trkpt>
<trkpt lat="46.30166497081518" lon="8.62046998925507"><ele></ele><time>2015-4-13T1:59:32Z</time></trkpt>
<trkpt lat="46.30110095255077" lon="8.621368948370218"><ele></ele><time>2015-4-13T1:59:35Z</time></trkpt>
<trkpt lat="46.30056694149971" lon="8.622210994362831"><ele></ele><time>2015-4-13T1:59:38Z</time></trkpt>
<trkpt lat="46.300124963745475" lon="8.62285397015512"><ele></ele><time>2015-4-13T1:59:41Z</time></trkpt>
<trkpt lat="46.299782982096076" lon="8.623400973156095"><ele></ele><time>2015-4-13T1:59:44Z</time></trkpt>
<trkpt lat="46.2993879429996" lon="8.624032968655229"><ele></ele><time>2015-4-13T1:59:47Z</time></trkpt>
<trkpt lat="46.298984941095114" lon="8.624649960547686"><ele></ele><time>2015-4-13T1:59:50Z</time></trkpt>
<trkpt lat="46.298578921705484" lon="8.625380946323276"><ele></ele><time>2015-4-13T1:59:53Z</time></trkpt>
<trkpt lat="46.2982829567045" lon="8.625944964587688"><ele></ele><time>2015-4-13T1:59:56Z</time></trkpt>
<trkpt lat="46.297886995598674" lon="8.62670092843473"><ele></ele><time>2015-4-13T1:59:59Z</time></trkpt>
<trkpt lat="46.297609973698854" lon="8.627382963895798"><ele></ele><time>2015-4-13T2:0:2Z</time></trkpt>
<trkpt lat="46.29734292626381" lon="8.62817999906838"><ele></ele><time>2015-4-13T2:0:5Z</time></trkpt>
<trkpt lat="46.29691896960139" lon="8.629375929012895"><ele></ele><time>2015-4-13T2:0:8Z</time></trkpt>
<trkpt lat="46.296580927446485" lon="8.630335992202163"><ele></ele><time>2015-4-13T2:0:11Z</time></trkpt>
<trkpt lat="46.29624892026186" lon="8.631280967965722"><ele></ele><time>2015-4-13T2:0:14Z</time></trkpt>
<trkpt lat="46.29589897580445" lon="8.63226693123579"><ele></ele><time>2015-4-13T2:0:17Z</time></trkpt>
<trkpt lat="46.295636957511306" lon="8.633020967245102"><ele></ele><time>2015-4-13T2:0:20Z</time></trkpt>
<trkpt lat="46.29538097418845" lon="8.633755976334214"><ele></ele><time>2015-4-13T2:0:23Z</time></trkpt>
<trkpt lat="46.295032957568765" lon="8.634771946817636"><ele></ele><time>2015-4-13T2:0:26Z</time></trkpt>
<trkpt lat="46.294697932899" lon="8.635738966986537"><ele></ele><time>2015-4-13T2:0:29Z</time></trkpt>
<trkpt lat="46.294515961781144" lon="8.63626291975379"><ele></ele><time>2015-4-13T2:0:32Z</time></trkpt>
<trkpt lat="46.294349916279316" lon="8.636740939691663"><ele></ele><time>2015-4-13T2:0:35Z</time></trkpt>
<trkpt lat="46.2941019795835" lon="8.637451976537704"><ele></ele><time>2015-4-13T2:0:38Z</time></trkpt>
<trkpt lat="46.29379495047033" lon="8.638335932046175"><ele></ele><time>2015-4-13T2:0:41Z</time></trkpt>
<trkpt lat="46.293508959934115" lon="8.639152999967337"><ele></ele><time>2015-4-13T2:0:44Z</time></trkpt>
<trkpt lat="46.29347895272076" lon="8.639237992465496"><ele></ele><time>2015-4-13T2:0:47Z</time></trkpt>
<trkpt lat="46.29344995133579" lon="8.639897983521223"><ele></ele><time>2015-4-13T2:0:50Z</time></trkpt>
<trkpt lat="46.29360694438219" lon="8.640422942116857"><ele></ele><time>2015-4-13T2:0:53Z</time></trkpt>
<trkpt lat="46.29381992854178" lon="8.640883946791291"><ele></ele><time>2015-4-13T2:0:56Z</time></trkpt>
<trkpt lat="46.2940779235214" lon="8.6413099989295"><ele></ele><time>2015-4-13T2:0:59Z</time></trkpt>
<trkpt lat="46.29414196126163" lon="8.641493981704116"><ele></ele><time>2015-4-13T2:1:2Z</time></trkpt>
<trkpt lat="46.29409996792674" lon="8.641964960843325"><ele></ele><time>2015-4-13T2:1:5Z</time></trkpt>
<trkpt lat="46.293896958231926" lon="8.642691923305392"><ele></ele><time>2015-4-13T2:1:8Z</time></trkpt>
<trkpt lat="46.29367592744529" lon="8.643406983464956"><ele></ele><time>2015-4-13T2:1:11Z</time></trkpt>
<trkpt lat="46.29343193024397" lon="8.644033949822187"><ele></ele><time>2015-4-13T2:1:14Z</time></trkpt>
<trkpt lat="46.293183993548155" lon="8.644416918978095"><ele></ele><time>2015-4-13T2:1:17Z</time></trkpt>
<trkpt lat="46.29276196472347" lon="8.644959982484579"><ele></ele><time>2015-4-13T2:1:20Z</time></trkpt>
<trkpt lat="46.292456947267056" lon="8.645376982167363"><ele></ele><time>2015-4-13T2:1:23Z</time></trkpt>
<trkpt lat="46.292351922020316" lon="8.645756933838129"><ele></ele><time>2015-4-13T2:1:26Z</time></trkpt>
<trkpt lat="46.29226692952216" lon="8.646582970395684"><ele></ele><time>2015-4-13T2:1:29Z</time></trkpt>
<trkpt lat="46.29211597144604" lon="8.647406995296478"><ele></ele><time>2015-4-13T2:1:32Z</time></trkpt>
<trkpt lat="46.2920659314841" lon="8.647637916728854"><ele></ele><time>2015-4-13T2:1:35Z</time></trkpt>
<trkpt lat="46.291871974244714" lon="8.648390946909785"><ele></ele><time>2015-4-13T2:1:38Z</time></trkpt>
<trkpt lat="46.29172998480499" lon="8.648816999047995"><ele></ele><time>2015-4-13T2:1:41Z</time></trkpt>
<trkpt lat="46.291509959846735" lon="8.649297952651978"><ele></ele><time>2015-4-13T2:1:44Z</time></trkpt>
<trkpt lat="46.291102934628725" lon="8.65007495507598"><ele></ele><time>2015-4-13T2:1:47Z</time></trkpt>
<trkpt lat="46.290820967406034" lon="8.650585999712348"><ele></ele><time>2015-4-13T2:1:50Z</time></trkpt>
<trkpt lat="46.29037999548018" lon="8.651295946910977"><ele></ele><time>2015-4-13T2:1:53Z</time></trkpt>
<trkpt lat="46.28998897969723" lon="8.651937916874886"><ele></ele><time>2015-4-13T2:1:56Z</time></trkpt>
<trkpt lat="46.289450945332646" lon="8.652886999770999"><ele></ele><time>2015-4-13T2:1:59Z</time></trkpt>
<trkpt lat="46.28928791731596" lon="8.653437942266464"><ele></ele><time>2015-4-13T2:2:2Z</time></trkpt>
<trkpt lat="46.289185993373394" lon="8.653882937505841"><ele></ele><time>2015-4-13T2:2:5Z</time></trkpt>
<trkpt lat="46.28907292149961" lon="8.65465591661632"><ele></ele><time>2015-4-13T2:2:8Z</time></trkpt>
<trkpt lat="46.28896295093" lon="8.655400983989239"><ele></ele><time>2015-4-13T2:2:11Z</time></trkpt>
<trkpt lat="46.28887393511832" lon="8.656013952568173"><ele></ele><time>2015-4-13T2:2:14Z</time></trkpt>
<trkpt lat="46.28876999951899" lon="8.656717948615551"><ele></ele><time>2015-4-13T2:2:17Z</time></trkpt>
<trkpt lat="46.288716942071915" lon="8.65705993026495"><ele></ele><time>2015-4-13T2:2:20Z</time></trkpt>
<trkpt lat="46.28861795179546" lon="8.657535938546062"><ele></ele><time>2015-4-13T2:2:23Z</time></trkpt>
<trkpt lat="46.28853899426758" lon="8.657823940739036"><ele></ele><time>2015-4-13T2:2:26Z</time></trkpt>
<trkpt lat="46.288373954594135" lon="8.658339930698276"><ele></ele><time>2015-4-13T2:2:29Z</time></trkpt>
<trkpt lat="46.2882549315691" lon="8.658737987279892"><ele></ele><time>2015-4-13T2:2:32Z</time></trkpt>
<trkpt lat="46.28811797127128" lon="8.659191951155663"><ele></ele><time>2015-4-13T2:2:35Z</time></trkpt>
<trkpt lat="46.287985956296325" lon="8.659604927524924"><ele></ele><time>2015-4-13T2:2:38Z</time></trkpt>
<trkpt lat="46.28788998350501" lon="8.659908939152956"><ele></ele><time>2015-4-13T2:2:41Z</time></trkpt>
<trkpt lat="46.28783994354308" lon="8.660039948299527"><ele></ele><time>2015-4-13T2:2:44Z</time></trkpt>
<trkpt lat="46.28804496489465" lon="8.66073195822537"><ele></ele><time>2015-4-13T2:2:47Z</time></trkpt>
<trkpt lat="46.287984950467944" lon="8.660917952656746"><ele></ele><time>2015-4-13T2:2:50Z</time></trkpt>
<trkpt lat="46.28788897767663" lon="8.661103947088122"><ele></ele><time>2015-4-13T2:2:53Z</time></trkpt>
<trkpt lat="46.28773299045861" lon="8.661344926804304"><ele></ele><time>2015-4-13T2:2:56Z</time></trkpt>
<trkpt lat="46.28766895271838" lon="8.661496974527836"><ele></ele><time>2015-4-13T2:2:59Z</time></trkpt>
<trkpt lat="46.28752796910703" lon="8.661855971440673"><ele></ele><time>2015-4-13T2:3:2Z</time></trkpt>
<trkpt lat="46.287401989102364" lon="8.66219099611044"><ele></ele><time>2015-4-13T2:3:5Z</time></trkpt>
<trkpt lat="46.28728992305696" lon="8.66253792308271"><ele></ele><time>2015-4-13T2:3:8Z</time></trkpt>
<trkpt lat="46.28723192028701" lon="8.662764988839626"><ele></ele><time>2015-4-13T2:3:11Z</time></trkpt>
<trkpt lat="46.287125973030925" lon="8.66315994411707"><ele></ele><time>2015-4-13T2:3:14Z</time></trkpt>
<trkpt lat="46.286971997469664" lon="8.66376293823123"><ele></ele><time>2015-4-13T2:3:17Z</time></trkpt>
<trkpt lat="46.28691692836583" lon="8.663999978452921"><ele></ele><time>2015-4-13T2:3:20Z</time></trkpt>
<trkpt lat="46.28679195418954" lon="8.66455595009029"><ele></ele><time>2015-4-13T2:3:23Z</time></trkpt>
<trkpt lat="46.28666094504297" lon="8.665141928941011"><ele></ele><time>2015-4-13T2:3:26Z</time></trkpt>
<trkpt lat="46.28649992868304" lon="8.665818935260177"><ele></ele><time>2015-4-13T2:3:29Z</time></trkpt>
<trkpt lat="46.286376966163516" lon="8.666264936327934"><ele></ele><time>2015-4-13T2:3:32Z</time></trkpt>
<trkpt lat="46.28617596812546" lon="8.666620999574661"><ele></ele><time>2015-4-13T2:3:35Z</time></trkpt>
<trkpt lat="46.286075972020626" lon="8.666780926287174"><ele></ele><time>2015-4-13T2:3:38Z</time></trkpt>
<trkpt lat="46.28573792986572" lon="8.66728794761002"><ele></ele><time>2015-4-13T2:3:41Z</time></trkpt>
<trkpt lat="46.285426961258054" lon="8.667743923142552"><ele></ele><time>2015-4-13T2:3:44Z</time></trkpt>
<trkpt lat="46.285278936848044" lon="8.667920948937535"><ele></ele><time>2015-4-13T2:3:47Z</time></trkpt>
<trkpt lat="46.28499495796859" lon="8.668194953352213"><ele></ele><time>2015-4-13T2:3:50Z</time></trkpt>
<trkpt lat="46.284550968557596" lon="8.668633997440338"><ele></ele><time>2015-4-13T2:3:53Z</time></trkpt>
<trkpt lat="46.28428392112255" lon="8.668942954391241"><ele></ele><time>2015-4-13T2:3:56Z</time></trkpt>
<trkpt lat="46.28390992060304" lon="8.669428937137127"><ele></ele><time>2015-4-13T2:3:59Z</time></trkpt>
<trkpt lat="46.28346199169755" lon="8.669552989304066"><ele></ele><time>2015-4-13T2:4:2Z</time></trkpt>
<trkpt lat="46.28288992680609" lon="8.670008964836597"><ele></ele><time>2015-4-13T2:4:5Z</time></trkpt>
<trkpt lat="46.282506957650185" lon="8.670322950929403"><ele></ele><time>2015-4-13T2:4:8Z</time></trkpt>
<trkpt lat="46.28223898820579" lon="8.670513974502683"><ele></ele><time>2015-4-13T2:4:11Z</time></trkpt>
<trkpt lat="46.282016951590776" lon="8.670661998912692"><ele></ele><time>2015-4-13T2:4:14Z</time></trkpt>
<trkpt lat="46.28185995854437" lon="8.67076593451202"><ele></ele><time>2015-4-13T2:4:17Z</time></trkpt>
<trkpt lat="46.28165292553604" lon="8.670879928395152"><ele></ele><time>2015-4-13T2:4:20Z</time></trkpt>
<trkpt lat="46.28154798410833" lon="8.67132794111967"><ele></ele><time>2015-4-13T2:4:23Z</time></trkpt>
<trkpt lat="46.281283954158425" lon="8.671544948592782"><ele></ele><time>2015-4-13T2:4:26Z</time></trkpt>
<trkpt lat="46.28114297054708" lon="8.671621978282928"><ele></ele><time>2015-4-13T2:4:29Z</time></trkpt>
<trkpt lat="46.280980948358774" lon="8.671633964404464"><ele></ele><time>2015-4-13T2:4:32Z</time></trkpt>
<trkpt lat="46.28071993589401" lon="8.671675957739353"><ele></ele><time>2015-4-13T2:4:35Z</time></trkpt>
<trkpt lat="46.280528996139765" lon="8.67179799824953"><ele></ele><time>2015-4-13T2:4:38Z</time></trkpt>
<trkpt lat="46.28040594980121" lon="8.671920960769057"><ele></ele><time>2015-4-13T2:4:41Z</time></trkpt>
<trkpt lat="46.28028298728168" lon="8.672131933271885"><ele></ele><time>2015-4-13T2:4:44Z</time></trkpt>
<trkpt lat="46.28017192706466" lon="8.672396969050169"><ele></ele><time>2015-4-13T2:4:47Z</time></trkpt>
<trkpt lat="46.28009397536516" lon="8.672632919624448"><ele></ele><time>2015-4-13T2:4:50Z</time></trkpt>
<trkpt lat="46.2800039537251" lon="8.672885969281197"><ele></ele><time>2015-4-13T2:4:53Z</time></trkpt>
<trkpt lat="46.27989498898387" lon="8.673040950670838"><ele></ele><time>2015-4-13T2:4:56Z</time></trkpt>
<trkpt lat="46.27977395430207" lon="8.67321596480906"><ele></ele><time>2015-4-13T2:4:59Z</time></trkpt>
<trkpt lat="46.279586954042315" lon="8.673504972830415"><ele></ele><time>2015-4-13T2:5:2Z</time></trkpt>
<trkpt lat="46.2794719543308" lon="8.67368895560503"><ele></ele><time>2015-4-13T2:5:5Z</time></trkpt>
<trkpt lat="46.279307920485735" lon="8.673799932003021"><ele></ele><time>2015-4-13T2:5:8Z</time></trkpt>
<trkpt lat="46.279090996831656" lon="8.673890959471464"><ele></ele><time>2015-4-13T2:5:11Z</time></trkpt>
<trkpt lat="46.27890693023801" lon="8.673954997211695"><ele></ele><time>2015-4-13T2:5:14Z</time></trkpt>
<trkpt lat="46.278619933873415" lon="8.67405298165977"><ele></ele><time>2015-4-13T2:5:17Z</time></trkpt>
<trkpt lat="46.27838792279363" lon="8.674130933359265"><ele></ele><time>2015-4-13T2:5:20Z</time></trkpt>
<trkpt lat="46.278080977499485" lon="8.674235958606005"><ele></ele><time>2015-4-13T2:5:23Z</time></trkpt>
<trkpt lat="46.27784997224808" lon="8.674294967204332"><ele></ele><time>2015-4-13T2:5:26Z</time></trkpt>
<trkpt lat="46.27765693701804" lon="8.674317933619022"><ele></ele><time>2015-4-13T2:5:29Z</time></trkpt>
<trkpt lat="46.2774549331516" lon="8.674341989681125"><ele></ele><time>2015-4-13T2:5:32Z</time></trkpt>
<trkpt lat="46.2771409470588" lon="8.674383983016014"><ele></ele><time>2015-4-13T2:5:35Z</time></trkpt>
<trkpt lat="46.27702393569052" lon="8.674406949430704"><ele></ele><time>2015-4-13T2:5:38Z</time></trkpt>
<trkpt lat="46.2767799384892" lon="8.674581963568926"><ele></ele><time>2015-4-13T2:5:41Z</time></trkpt>
<trkpt lat="46.276576928794384" lon="8.674907935783267"><ele></ele><time>2015-4-13T2:5:44Z</time></trkpt>
<trkpt lat="46.27639596350491" lon="8.675221921876073"><ele></ele><time>2015-4-13T2:5:47Z</time></trkpt>
<trkpt lat="46.27624198794365" lon="8.675652919337153"><ele></ele><time>2015-4-13T2:5:50Z</time></trkpt>
<trkpt lat="46.27613495104015" lon="8.67622196674347"><ele></ele><time>2015-4-13T2:5:53Z</time></trkpt>
<trkpt lat="46.27611399628222" lon="8.676343923434615"><ele></ele><time>2015-4-13T2:5:56Z</time></trkpt>
<trkpt lat="46.275934958830476" lon="8.677068958058953"><ele></ele><time>2015-4-13T2:5:59Z</time></trkpt>
<trkpt lat="46.27581995911896" lon="8.677429966628551"><ele></ele><time>2015-4-13T2:6:2Z</time></trkpt>
<trkpt lat="46.27564293332398" lon="8.677714951336384"><ele></ele><time>2015-4-13T2:6:5Z</time></trkpt>
<trkpt lat="46.27546993084252" lon="8.678153995424509"><ele></ele><time>2015-4-13T2:6:8Z</time></trkpt>
<trkpt lat="46.27543397247791" lon="8.678397992625833"><ele></ele><time>2015-4-13T2:6:11Z</time></trkpt>
<trkpt lat="46.2752949167043" lon="8.678833935409784"><ele></ele><time>2015-4-13T2:6:14Z</time></trkpt>
<trkpt lat="46.27505796030164" lon="8.679305920377374"><ele></ele><time>2015-4-13T2:6:17Z</time></trkpt>
<trkpt lat="46.27499392256141" lon="8.67974597029388"><ele></ele><time>2015-4-13T2:6:20Z</time></trkpt>
<trkpt lat="46.275007920339704" lon="8.68010999634862"><ele></ele><time>2015-4-13T2:6:23Z</time></trkpt>
<trkpt lat="46.27489099279046" lon="8.6805859208107"><ele></ele><time>2015-4-13T2:6:26Z</time></trkpt>
<trkpt lat="46.27482695505023" lon="8.680659933015704"><ele></ele><time>2015-4-13T2:6:29Z</time></trkpt>
<trkpt lat="46.27439897507429" lon="8.681073999032378"><ele></ele><time>2015-4-13T2:6:32Z</time></trkpt>
<trkpt lat="46.273804949596524" lon="8.681590994819999"><ele></ele><time>2015-4-13T2:6:35Z</time></trkpt>
<trkpt lat="46.273437989875674" lon="8.68204495869577"><ele></ele><time>2015-4-13T2:6:38Z</time></trkpt>
<trkpt lat="46.273093996569514" lon="8.682457935065031"><ele></ele><time>2015-4-13T2:6:41Z</time></trkpt>
<trkpt lat="46.27292292192578" lon="8.682664968073368"><ele></ele><time>2015-4-13T2:6:44Z</time></trkpt>
<trkpt lat="46.272668950259686" lon="8.682774938642979"><ele></ele><time>2015-4-13T2:6:47Z</time></trkpt>
<trkpt lat="46.2725989613682" lon="8.682736968621612"><ele></ele><time>2015-4-13T2:6:50Z</time></trkpt>
<trkpt lat="46.27239896915853" lon="8.682600930333138"><ele></ele><time>2015-4-13T2:6:53Z</time></trkpt>
<trkpt lat="46.27199395559728" lon="8.68260495364666"><ele></ele><time>2015-4-13T2:6:56Z</time></trkpt>
<trkpt lat="46.27190091647208" lon="8.682644935324788"><ele></ele><time>2015-4-13T2:6:59Z</time></trkpt>
<trkpt lat="46.27106892876327" lon="8.682958921417594"><ele></ele><time>2015-4-13T2:7:2Z</time></trkpt>
<trkpt lat="46.27039695158601" lon="8.683224963024259"><ele></ele><time>2015-4-13T2:7:5Z</time></trkpt>
<trkpt lat="46.26992194913328" lon="8.683453956618905"><ele></ele><time>2015-4-13T2:7:8Z</time></trkpt>
<trkpt lat="46.26942993141711" lon="8.683819994330406"><ele></ele><time>2015-4-13T2:7:11Z</time></trkpt>
<trkpt lat="46.26915098167956" lon="8.684015963226557"><ele></ele><time>2015-4-13T2:7:14Z</time></trkpt>
<trkpt lat="46.268779998645186" lon="8.684529941529036"><ele></ele><time>2015-4-13T2:7:17Z</time></trkpt>
<trkpt lat="46.26850498840213" lon="8.685067975893617"><ele></ele><time>2015-4-13T2:7:20Z</time></trkpt>
<trkpt lat="46.2681869789958" lon="8.685450945049524"><ele></ele><time>2015-4-13T2:7:23Z</time></trkpt>
<trkpt lat="46.26775992102921" lon="8.685852941125631"><ele></ele><time>2015-4-13T2:7:26Z</time></trkpt>
<trkpt lat="46.267229933291674" lon="8.68625896051526"><ele></ele><time>2015-4-13T2:7:29Z</time></trkpt>
<trkpt lat="46.26690094359219" lon="8.686411930248141"><ele></ele><time>2015-4-13T2:7:32Z</time></trkpt>
<trkpt lat="46.26624992117286" lon="8.686476973816752"><ele></ele><time>2015-4-13T2:7:35Z</time></trkpt>
<trkpt lat="46.26617398113012" lon="8.686497928574681"><ele></ele><time>2015-4-13T2:7:38Z</time></trkpt>
<trkpt lat="46.26579897478223" lon="8.686482924968004"><ele></ele><time>2015-4-13T2:7:41Z</time></trkpt>
<trkpt lat="46.26541499979794" lon="8.68685893714428"><ele></ele><time>2015-4-13T2:7:44Z</time></trkpt>
<trkpt lat="46.26496698707342" lon="8.687299992889166"><ele></ele><time>2015-4-13T2:7:47Z</time></trkpt>
<trkpt lat="46.26460094936192" lon="8.687658989802003"><ele></ele><time>2015-4-13T2:7:50Z</time></trkpt>
<trkpt lat="46.26414396800101" lon="8.68810691870749"><ele></ele><time>2015-4-13T2:7:53Z</time></trkpt>
<trkpt lat="46.263856971636415" lon="8.688389975577593"><ele></ele><time>2015-4-13T2:7:56Z</time></trkpt>
<trkpt lat="46.2635329272598" lon="8.68870697915554"><ele></ele><time>2015-4-13T2:7:59Z</time></trkpt>
<trkpt lat="46.263217935338616" lon="8.688936978578568"><ele></ele><time>2015-4-13T2:8:2Z</time></trkpt>
<trkpt lat="46.263128919526935" lon="8.688991963863373"><ele></ele><time>2015-4-13T2:8:5Z</time></trkpt>
<trkpt lat="46.26270999200642" lon="8.689172929152846"><ele></ele><time>2015-4-13T2:8:8Z</time></trkpt>
<trkpt lat="46.26223398372531" lon="8.689275942742825"><ele></ele><time>2015-4-13T2:8:11Z</time></trkpt>
<trkpt lat="46.262162989005446" lon="8.689318941906095"><ele></ele><time>2015-4-13T2:8:14Z</time></trkpt>
<trkpt lat="46.26182796433568" lon="8.689582971855998"><ele></ele><time>2015-4-13T2:8:17Z</time></trkpt>
<trkpt lat="46.26143493689597" lon="8.689917996525764"><ele></ele><time>2015-4-13T2:8:20Z</time></trkpt>
<trkpt lat="46.26117895357311" lon="8.690138943493366"><ele></ele><time>2015-4-13T2:8:23Z</time></trkpt>
<trkpt lat="46.26095096580684" lon="8.690335918217897"><ele></ele><time>2015-4-13T2:8:26Z</time></trkpt>
<trkpt lat="46.260530948638916" lon="8.690690975636244"><ele></ele><time>2015-4-13T2:8:29Z</time></trkpt>
<trkpt lat="46.26019491814077" lon="8.690972942858934"><ele></ele><time>2015-4-13T2:8:32Z</time></trkpt>
<trkpt lat="46.25978697091341" lon="8.691331939771771"><ele></ele><time>2015-4-13T2:8:35Z</time></trkpt>
<trkpt lat="46.25941992737353" lon="8.691667970269918"><ele></ele><time>2015-4-13T2:8:38Z</time></trkpt>
<trkpt lat="46.259046932682395" lon="8.691964941099286"><ele></ele><time>2015-4-13T2:8:41Z</time></trkpt>
<trkpt lat="46.25870595686138" lon="8.692149929702282"><ele></ele><time>2015-4-13T2:8:44Z</time></trkpt>
<trkpt lat="46.25822097994387" lon="8.692411947995424"><ele></ele><time>2015-4-13T2:8:47Z</time></trkpt>
<trkpt lat="46.257714964449406" lon="8.6927879601717"><ele></ele><time>2015-4-13T2:8:50Z</time></trkpt>
<trkpt lat="46.2573129683733" lon="8.693191967904568"><ele></ele><time>2015-4-13T2:8:53Z</time></trkpt>
<trkpt lat="46.25668893568218" lon="8.693861933425069"><ele></ele><time>2015-4-13T2:8:56Z</time></trkpt>
<trkpt lat="46.25611393712461" lon="8.694459982216358"><ele></ele><time>2015-4-13T2:8:59Z</time></trkpt>
<trkpt lat="46.25545394606888" lon="8.695145957171917"><ele></ele><time>2015-4-13T2:9:2Z</time></trkpt>
<trkpt lat="46.254922952502966" lon="8.695743922144175"><ele></ele><time>2015-4-13T2:9:5Z</time></trkpt>
<trkpt lat="46.25440796837211" lon="8.696390921249986"><ele></ele><time>2015-4-13T2:9:8Z</time></trkpt>
<trkpt lat="46.253955932334065" lon="8.69710799306631"><ele></ele><time>2015-4-13T2:9:11Z</time></trkpt>
<trkpt lat="46.25347891822457" lon="8.697914918884635"><ele></ele><time>2015-4-13T2:9:14Z</time></trkpt>
<trkpt lat="46.25313492491841" lon="8.698449935764074"><ele></ele><time>2015-4-13T2:9:17Z</time></trkpt>
<trkpt lat="46.252946918830276" lon="8.698705919086933"><ele></ele><time>2015-4-13T2:9:20Z</time></trkpt>
<trkpt lat="46.25282194465399" lon="8.698876993730664"><ele></ele><time>2015-4-13T2:9:23Z</time></trkpt>
<trkpt lat="46.25263092108071" lon="8.699054941534996"><ele></ele><time>2015-4-13T2:9:26Z</time></trkpt>
<trkpt lat="46.25259194523096" lon="8.699090983718634"><ele></ele><time>2015-4-13T2:9:29Z</time></trkpt>
<trkpt lat="46.2522619497031" lon="8.699246970936656"><ele></ele><time>2015-4-13T2:9:32Z</time></trkpt>
<trkpt lat="46.25198693946004" lon="8.69934193789959"><ele></ele><time>2015-4-13T2:9:35Z</time></trkpt>
<trkpt lat="46.25183396972716" lon="8.699369933456182"><ele></ele><time>2015-4-13T2:9:38Z</time></trkpt>
<trkpt lat="46.2516279425472" lon="8.699823981150985"><ele></ele><time>2015-4-13T2:9:41Z</time></trkpt>
<trkpt lat="46.251392997801304" lon="8.699970999732614"><ele></ele><time>2015-4-13T2:9:44Z</time></trkpt>
<trkpt lat="46.251140953972936" lon="8.700126986950636"><ele></ele><time>2015-4-13T2:9:47Z</time></trkpt>
<trkpt lat="46.250989995896816" lon="8.700220948085189"><ele></ele><time>2015-4-13T2:9:50Z</time></trkpt>
<trkpt lat="46.25079193152487" lon="8.700343994423747"><ele></ele><time>2015-4-13T2:9:53Z</time></trkpt>
<trkpt lat="46.25058992765844" lon="8.700469974428415"><ele></ele><time>2015-4-13T2:9:56Z</time></trkpt>
<trkpt lat="46.250431928783655" lon="8.70056795887649"><ele></ele><time>2015-4-13T2:9:59Z</time></trkpt>
<trkpt lat="46.250297985970974" lon="8.70065194554627"><ele></ele><time>2015-4-13T2:10:2Z</time></trkpt>
<trkpt lat="46.25011693686247" lon="8.700763927772641"><ele></ele><time>2015-4-13T2:10:5Z</time></trkpt>
<trkpt lat="46.24985693022609" lon="8.700925949960947"><ele></ele><time>2015-4-13T2:10:8Z</time></trkpt>
<trkpt lat="46.2496249191463" lon="8.701069951057434"><ele></ele><time>2015-4-13T2:10:11Z</time></trkpt>
<trkpt lat="46.24943196773529" lon="8.701190985739231"><ele></ele><time>2015-4-13T2:10:14Z</time></trkpt>
<trkpt lat="46.24928193166852" lon="8.701283941045403"><ele></ele><time>2015-4-13T2:10:17Z</time></trkpt>
<trkpt lat="46.24910297803581" lon="8.701394917443395"><ele></ele><time>2015-4-13T2:10:20Z</time></trkpt>
<trkpt lat="46.24895294196904" lon="8.701494997367263"><ele></ele><time>2015-4-13T2:10:23Z</time></trkpt>
<trkpt lat="46.24866091646254" lon="8.701689960435033"><ele></ele><time>2015-4-13T2:10:26Z</time></trkpt>
<trkpt lat="46.24840292148292" lon="8.701861957088113"><ele></ele><time>2015-4-13T2:10:29Z</time></trkpt>
<trkpt lat="46.24835799448192" lon="8.701891964301467"><ele></ele><time>2015-4-13T2:10:32Z</time></trkpt>
<trkpt lat="46.248130928725004" lon="8.70198592543602"><ele></ele><time>2015-4-13T2:10:35Z</time></trkpt>
<trkpt lat="46.24828599393368" lon="8.70193999260664"><ele></ele><time>2015-4-13T2:10:38Z</time></trkpt>
<trkpt lat="46.24845597893" lon="8.70213394984603"><ele></ele><time>2015-4-13T2:10:41Z</time></trkpt>
<trkpt lat="46.248529991135" lon="8.702212991192937"><ele></ele><time>2015-4-13T2:10:44Z</time></trkpt>
<trkpt lat="46.24861791729927" lon="8.702303934842348"><ele></ele><time>2015-4-13T2:10:47Z</time></trkpt>
<trkpt lat="46.24867097474635" lon="8.702356992289424"><ele></ele><time>2015-4-13T2:10:50Z</time></trkpt>
<trkpt lat="46.24897196888924" lon="8.702783966436982"><ele></ele><time>2015-4-13T2:10:53Z</time></trkpt>
<trkpt lat="46.24870894476771" lon="8.703102981671691"><ele></ele><time>2015-4-13T2:10:56Z</time></trkpt>
<trkpt lat="46.24870793893933" lon="8.703102981671691"><ele></ele><time>2015-4-13T2:10:59Z</time></trkpt>
<trkpt lat="46.24822597950697" lon="8.703365921974182"><ele></ele><time>2015-4-13T2:11:2Z</time></trkpt>
<trkpt lat="46.24863292090595" lon="8.703222926706076"><ele></ele><time>2015-4-13T2:11:5Z</time></trkpt>
<trkpt lat="46.248600985854864" lon="8.703274978324771"><ele></ele><time>2015-4-13T2:11:8Z</time></trkpt>
<trkpt lat="46.248493948951364" lon="8.70348896831274"><ele></ele><time>2015-4-13T2:11:11Z</time></trkpt>
<trkpt lat="46.248493948951364" lon="8.70348896831274"><ele></ele><time>2015-4-13T2:11:14Z</time></trkpt>
<trkpt lat="46.248214999213815" lon="8.703711926937103"><ele></ele><time>2015-4-13T2:11:17Z</time></trkpt>
<trkpt lat="46.24813998118043" lon="8.70387495495379"><ele></ele><time>2015-4-13T2:11:20Z</time></trkpt>
<trkpt lat="46.24790797010064" lon="8.704374935477972"><ele></ele><time>2015-4-13T2:11:23Z</time></trkpt>
<trkpt lat="46.24768895097077" lon="8.704833928495646"><ele></ele><time>2015-4-13T2:11:26Z</time></trkpt>
<trkpt lat="46.24750999733806" lon="8.705045990645885"><ele></ele><time>2015-4-13T2:11:29Z</time></trkpt>
<trkpt lat="46.2471969332546" lon="8.705193931236863"><ele></ele><time>2015-4-13T2:11:32Z</time></trkpt>
<trkpt lat="46.24692292883992" lon="8.70546692982316"><ele></ele><time>2015-4-13T2:11:35Z</time></trkpt>
<trkpt lat="46.24662193469703" lon="8.70582995004952"><ele></ele><time>2015-4-13T2:11:38Z</time></trkpt>
<trkpt lat="46.2464059330523" lon="8.70608794502914"><ele></ele><time>2015-4-13T2:11:41Z</time></trkpt>
<trkpt lat="46.246131928637624" lon="8.706379970535636"><ele></ele><time>2015-4-13T2:11:44Z</time></trkpt>
<trkpt lat="46.24588399194181" lon="8.706660931929946"><ele></ele><time>2015-4-13T2:11:47Z</time></trkpt>
<trkpt lat="46.24571098946035" lon="8.706908952444792"><ele></ele><time>2015-4-13T2:11:50Z</time></trkpt>
<trkpt lat="46.24569699168205" lon="8.706958992406726"><ele></ele><time>2015-4-13T2:11:53Z</time></trkpt>
<trkpt lat="46.245641922578216" lon="8.707220926880836"><ele></ele><time>2015-4-13T2:11:56Z</time></trkpt>
<trkpt lat="46.24566597864032" lon="8.7076769862324"><ele></ele><time>2015-4-13T2:11:59Z</time></trkpt>
<trkpt lat="46.24567796476185" lon="8.707875972613692"><ele></ele><time>2015-4-13T2:12:2Z</time></trkpt>
<trkpt lat="46.24573797918856" lon="8.707945961505175"><ele></ele><time>2015-4-13T2:12:5Z</time></trkpt>
<trkpt lat="46.24586697667837" lon="8.707930957898498"><ele></ele><time>2015-4-13T2:12:8Z</time></trkpt>
<trkpt lat="46.24567695893347" lon="8.707857951521873"><ele></ele><time>2015-4-13T2:12:11Z</time></trkpt>
<trkpt lat="46.24567293561995" lon="8.707801960408688"><ele></ele><time>2015-4-13T2:12:14Z</time></trkpt>
<trkpt lat="46.24599798582494" lon="8.70791595429182"><ele></ele><time>2015-4-13T2:12:17Z</time></trkpt>
<trkpt lat="46.246006954461336" lon="8.70791394263506"><ele></ele><time>2015-4-13T2:12:20Z</time></trkpt>
</trkseg></trk></gpx>